<?xml version='1.0' encoding='UTF-8'?><gpx version="1.1" creator="JPX - https://github.com/jenetics/jpx" xmlns="http://www.topografix.com/GPX/1/1"><trk><trkseg><trkpt lat="43.54653690470842" lon="10.31942101922362"><ele>12.0</ele><time>2026-03-28T15:17:30.002Z</time></trkpt><trkpt lat="43.54649597660629" lon="10.319307074555866"><ele>12.0</ele><time>2026-03-28T15:18:21Z</time></trkpt><trkpt lat="43.54639646468618" lon="10.319280642561148"><ele>12.0</ele><time>2026-03-28T15:18:50.999Z</time></trkpt><trkpt lat="43.54631751593695" lon="10.31928048946929"><ele>12.0</ele><time>2026-03-28T15:18:51.999Z</time></trkpt><trkpt lat="43.546242318209245" lon="10.31930365605176"><ele>12.0</ele><time>2026-03-28T15:18:55.999Z</time></trkpt><trkpt lat="43.546249102966144" lon="10.319515544661245"><ele>12.0</ele><time>2026-03-28T15:18:57.999Z</time></trkpt><trkpt lat="43.54625898699099" lon="10.319631486099123"><ele>12.0</ele><time>2026-03-28T15:18:58.999Z</time></trkpt><trkpt lat="43.54626292507675" lon="10.319749149324622"><ele>12.0</ele><time>2026-03-28T15:18:59.999Z</time></trkpt><trkpt lat="43.546264602991656" lon="10.319859278686437"><ele>12.0</ele><time>2026-03-28T15:19:00.999Z</time></trkpt><trkpt lat="43.54625142556374" lon="10.319964509554525"><ele>12.0</ele><time>2026-03-28T15:19:01.999Z</time></trkpt><trkpt lat="43.546251425563355" lon="10.320061821365812"><ele>12.0</ele><time>2026-03-28T15:19:02.999Z</time></trkpt><trkpt lat="43.546251425562716" lon="10.320155067984997"><ele>12.5</ele><time>2026-03-28T15:19:03.999Z</time></trkpt><trkpt lat="43.546251425562225" lon="10.320401804780023"><ele>13.0</ele><time>2026-03-28T15:19:06.999Z</time></trkpt><trkpt lat="43.546251425562026" lon="10.320542365005666"><ele>13.5</ele><time>2026-03-28T15:19:08.999Z</time></trkpt><trkpt lat="43.54625804335266" lon="10.320656801250683"><ele>14.0</ele><time>2026-03-28T15:19:16.999Z</time></trkpt><trkpt lat="43.54639228995276" lon="10.320680186914215"><ele>14.0</ele><time>2026-03-28T15:19:17.999Z</time></trkpt><trkpt lat="43.5464897944332" lon="10.320694222919014"><ele>14.0</ele><time>2026-03-28T15:19:18.999Z</time></trkpt><trkpt lat="43.54657912052335" lon="10.32072054549055"><ele>14.0</ele><time>2026-03-28T15:19:19.999Z</time></trkpt><trkpt lat="43.54669482837184" lon="10.32076582871997"><ele>14.0</ele><time>2026-03-28T15:19:20.999Z</time></trkpt><trkpt lat="43.546836541149716" lon="10.320815527017478"><ele>14.0</ele><time>2026-03-28T15:19:21.999Z</time></trkpt><trkpt lat="43.546979665711454" lon="10.320868646460356"><ele>14.0</ele><time>2026-03-28T15:19:22.999Z</time></trkpt><trkpt lat="43.54710719361379" lon="10.32092861902798"><ele>14.0</ele><time>2026-03-28T15:19:23.999Z</time></trkpt><trkpt lat="43.54721340940239" lon="10.320969086273942"><ele>14.0</ele><time>2026-03-28T15:19:24.999Z</time></trkpt><trkpt lat="43.5473064078901" lon="10.321000035045216"><ele>14.0</ele><time>2026-03-28T15:19:25.999Z</time></trkpt><trkpt lat="43.5473823008066" lon="10.321028377163605"><ele>13.999999999999998</ele><time>2026-03-28T15:19:26.999Z</time></trkpt><trkpt lat="43.54744785749149" lon="10.321065504282657"><ele>13.999999999999998</ele><time>2026-03-28T15:19:27.999Z</time></trkpt><trkpt lat="43.54751598700509" lon="10.321094587163925"><ele>14.0</ele><time>2026-03-28T15:19:28.999Z</time></trkpt><trkpt lat="43.54762614715468" lon="10.32110969913251"><ele>14.0</ele><time>2026-03-28T15:19:29.999Z</time></trkpt><trkpt lat="43.54774940602913" lon="10.321162708300106"><ele>15.0</ele><time>2026-03-28T15:19:30.999Z</time></trkpt><trkpt lat="43.54788277117362" lon="10.321214298962806"><ele>16.0</ele><time>2026-03-28T15:19:31.999Z</time></trkpt><trkpt lat="43.54800906602505" lon="10.321262382374584"><ele>17.0</ele><time>2026-03-28T15:19:32.999Z</time></trkpt><trkpt lat="43.548134621408394" lon="10.32131805844006"><ele>18.0</ele><time>2026-03-28T15:19:34Z</time></trkpt><trkpt lat="43.54826541043595" lon="10.321369628040024"><ele>17.0</ele><time>2026-03-28T15:19:35Z</time></trkpt><trkpt lat="43.54839886378367" lon="10.321425995867294"><ele>16.0</ele><time>2026-03-28T15:19:36Z</time></trkpt><trkpt lat="43.54852844563192" lon="10.321480679763729"><ele>15.0</ele><time>2026-03-28T15:19:37Z</time></trkpt><trkpt lat="43.54865443304157" lon="10.321538037597575"><ele>14.0</ele><time>2026-03-28T15:19:38Z</time></trkpt><trkpt lat="43.54876928290536" lon="10.321581879404572"><ele>13.833333333333334</ele><time>2026-03-28T15:19:39Z</time></trkpt><trkpt lat="43.5488690308654" lon="10.321627589146132"><ele>13.666666666666668</ele><time>2026-03-28T15:19:40Z</time></trkpt><trkpt lat="43.548961308918294" lon="10.321661469098345"><ele>13.5</ele><time>2026-03-28T15:19:40.999Z</time></trkpt><trkpt lat="43.54904404770582" lon="10.321686552887362"><ele>13.333333333333332</ele><time>2026-03-28T15:19:41.999Z</time></trkpt><trkpt lat="43.5491175855691" lon="10.321716033125645"><ele>13.166666666666666</ele><time>2026-03-28T15:19:42.999Z</time></trkpt><trkpt lat="43.549182644688806" lon="10.321746444122773"><ele>13.0</ele><time>2026-03-28T15:19:43.999Z</time></trkpt><trkpt lat="43.549265045850625" lon="10.321780318554962"><ele>13.0</ele><time>2026-03-28T15:19:46Z</time></trkpt><trkpt lat="43.54936546561739" lon="10.32179695121678"><ele>13.0</ele><time>2026-03-28T15:20:41.999Z</time></trkpt><trkpt lat="43.54943152943841" lon="10.321802859732648"><ele>13.0</ele><time>2026-03-28T15:20:42.999Z</time></trkpt><trkpt lat="43.549533499000034" lon="10.321864827299093"><ele>13.0</ele><time>2026-03-28T15:20:44.999Z</time></trkpt><trkpt lat="43.54939947255018" lon="10.322089317620293"><ele>13.333333333333332</ele><time>2026-03-28T15:20:46.999Z</time></trkpt><trkpt lat="43.549355096330586" lon="10.322314357045395"><ele>13.666666666666668</ele><time>2026-03-28T15:20:47.999Z</time></trkpt><trkpt lat="43.549306014954226" lon="10.32256325711372"><ele>14.0</ele><time>2026-03-28T15:20:48.999Z</time></trkpt><trkpt lat="43.54926016240305" lon="10.322795783243363"><ele>14.0</ele><time>2026-03-28T15:20:49.999Z</time></trkpt><trkpt lat="43.549219030829256" lon="10.323004368414804"><ele>14.0</ele><time>2026-03-28T15:20:50.999Z</time></trkpt><trkpt lat="43.549176367484236" lon="10.32322072153573"><ele>14.0</ele><time>2026-03-28T15:20:51.999Z</time></trkpt><trkpt lat="43.54913623022637" lon="10.323424264413974"><ele>14.0</ele><time>2026-03-28T15:20:52.999Z</time></trkpt><trkpt lat="43.54906670727962" lon="10.323824471351445"><ele>14.0</ele><time>2026-03-28T15:20:54.999Z</time></trkpt><trkpt lat="43.54902869026949" lon="10.324017370370377"><ele>14.0</ele><time>2026-03-28T15:20:55.999Z</time></trkpt><trkpt lat="43.54897802754798" lon="10.324211821151419"><ele>14.0</ele><time>2026-03-28T15:20:56.999Z</time></trkpt><trkpt lat="43.5489327975158" lon="10.324430469837978"><ele>14.0</ele><time>2026-03-28T15:20:57.999Z</time></trkpt><trkpt lat="43.54888337252674" lon="10.32467308095764"><ele>14.0</ele><time>2026-03-28T15:20:58.999Z</time></trkpt><trkpt lat="43.548855465690686" lon="10.32488833545131"><ele>14.25</ele><time>2026-03-28T15:20:59.999Z</time></trkpt><trkpt lat="43.54881880897838" lon="10.325070687645306"><ele>14.5</ele><time>2026-03-28T15:21:00.999Z</time></trkpt><trkpt lat="43.54878826982234" lon="10.325228209035167"><ele>14.75</ele><time>2026-03-28T15:21:01.999Z</time></trkpt><trkpt lat="43.54875548695394" lon="10.325372404077342"><ele>15.0</ele><time>2026-03-28T15:21:02.999Z</time></trkpt><trkpt lat="43.54872156481466" lon="10.325519960960865"><ele>15.0</ele><time>2026-03-28T15:21:03.999Z</time></trkpt><trkpt lat="43.548695330438235" lon="10.32566260996609"><ele>15.0</ele><time>2026-03-28T15:21:04.999Z</time></trkpt><trkpt lat="43.54867638779632" lon="10.325825169660682"><ele>15.0</ele><time>2026-03-28T15:21:05.999Z</time></trkpt><trkpt lat="43.54866011750567" lon="10.325994004765578"><ele>15.0</ele><time>2026-03-28T15:21:06.999Z</time></trkpt><trkpt lat="43.548640054617884" lon="10.326175707086945"><ele>15.0</ele><time>2026-03-28T15:21:07.999Z</time></trkpt><trkpt lat="43.54862119980086" lon="10.326370349002914"><ele>15.0</ele><time>2026-03-28T15:21:08.999Z</time></trkpt><trkpt lat="43.54860305310685" lon="10.326548466900874"><ele>15.0</ele><time>2026-03-28T15:21:09.999Z</time></trkpt><trkpt lat="43.548585226349346" lon="10.326726560673341"><ele>15.0</ele><time>2026-03-28T15:21:10.999Z</time></trkpt><trkpt lat="43.54856759119051" lon="10.326879460122045"><ele>15.0</ele><time>2026-03-28T15:21:11.999Z</time></trkpt><trkpt lat="43.54855313297316" lon="10.327011652820813"><ele>15.0</ele><time>2026-03-28T15:21:12.999Z</time></trkpt><trkpt lat="43.548536439889446" lon="10.327116270178275"><ele>15.0</ele><time>2026-03-28T15:21:13.999Z</time></trkpt><trkpt lat="43.54852257269484" lon="10.327223300337161"><ele>15.0</ele><time>2026-03-28T15:21:14.999Z</time></trkpt><trkpt lat="43.54850833317326" lon="10.327314488674583"><ele>15.0</ele><time>2026-03-28T15:21:15.999Z</time></trkpt><trkpt lat="43.548499921875255" lon="10.327419272760913"><ele>15.0</ele><time>2026-03-28T15:22:17.999Z</time></trkpt><trkpt lat="43.54847816327988" lon="10.327579106961803"><ele>15.0</ele><time>2026-03-28T15:22:19.999Z</time></trkpt><trkpt lat="43.54848496276577" lon="10.32768182173243"><ele>15.0</ele><time>2026-03-28T15:22:20.999Z</time></trkpt><trkpt lat="43.54842552981782" lon="10.327775203056225"><ele>15.0</ele><time>2026-03-28T15:22:21.999Z</time></trkpt><trkpt lat="43.5483887048599" lon="10.327874083567787"><ele>15.0</ele><time>2026-03-28T15:22:22.999Z</time></trkpt><trkpt lat="43.54834608258272" lon="10.32796805020933"><ele>15.0</ele><time>2026-03-28T15:22:23.999Z</time></trkpt><trkpt lat="43.54827890261832" lon="10.32806444122962"><ele>15.0</ele><time>2026-03-28T15:22:24.999Z</time></trkpt><trkpt lat="43.548198930517145" lon="10.328185182490211"><ele>14.8</ele><time>2026-03-28T15:22:25.999Z</time></trkpt><trkpt lat="43.548118819435295" lon="10.32831544329231"><ele>14.6</ele><time>2026-03-28T15:22:26.999Z</time></trkpt><trkpt lat="43.548048320544325" lon="10.328437333180853"><ele>14.399999999999999</ele><time>2026-03-28T15:22:27.999Z</time></trkpt><trkpt lat="43.54799162728771" lon="10.328542113743241"><ele>14.2</ele><time>2026-03-28T15:22:28.999Z</time></trkpt><trkpt lat="43.54795790093324" lon="10.328626810343062"><ele>14.0</ele><time>2026-03-28T15:22:29.999Z</time></trkpt><trkpt lat="43.548224546997204" lon="10.328680752879281"><ele>14.0</ele><time>2026-03-28T15:22:34.999Z</time></trkpt><trkpt lat="43.54837276697506" lon="10.328652468868853"><ele>13.999999999999998</ele><time>2026-03-28T15:22:35.999Z</time></trkpt><trkpt lat="43.54848511296699" lon="10.328647384201169"><ele>13.999999999999998</ele><time>2026-03-28T15:22:36.999Z</time></trkpt><trkpt lat="43.54855432118199" lon="10.328641470612437"><ele>14.0</ele><time>2026-03-28T15:22:37.999Z</time></trkpt><trkpt lat="43.5486318315105" lon="10.328621798774057"><ele>14.0</ele><time>2026-03-28T15:22:40.999Z</time></trkpt><trkpt lat="43.54872053562756" lon="10.328605781218652"><ele>14.6</ele><time>2026-03-28T15:22:41.999Z</time></trkpt><trkpt lat="43.548884704137976" lon="10.328581215528345"><ele>15.2</ele><time>2026-03-28T15:22:43.999Z</time></trkpt><trkpt lat="43.54898866347188" lon="10.328572210675857"><ele>15.799999999999999</ele><time>2026-03-28T15:22:44.999Z</time></trkpt><trkpt lat="43.54908745458589" lon="10.328562643408448"><ele>16.4</ele><time>2026-03-28T15:22:45.999Z</time></trkpt><trkpt lat="43.54916752898928" lon="10.328555309659123"><ele>17.0</ele><time>2026-03-28T15:22:46.999Z</time></trkpt><trkpt lat="43.54929350370399" lon="10.328572711716976"><ele>17.0</ele><time>2026-03-28T15:22:48.999Z</time></trkpt><trkpt lat="43.54925957740717" lon="10.328842938586815"><ele>17.0</ele><time>2026-03-28T15:22:50.999Z</time></trkpt><trkpt lat="43.54927260612859" lon="10.329127555864765"><ele>17.0</ele><time>2026-03-28T15:22:51.999Z</time></trkpt><trkpt lat="43.54928062278104" lon="10.329302683645965"><ele>17.0</ele><time>2026-03-28T15:22:52.999Z</time></trkpt><trkpt lat="43.54928985013264" lon="10.329477644312803"><ele>17.0</ele><time>2026-03-28T15:22:53.999Z</time></trkpt><trkpt lat="43.54929833810614" lon="10.329648050211608"><ele>17.0</ele><time>2026-03-28T15:22:54.999Z</time></trkpt><trkpt lat="43.54930697343104" lon="10.329812152400788"><ele>17.0</ele><time>2026-03-28T15:22:55.999Z</time></trkpt><trkpt lat="43.54932045048971" lon="10.329981014425274"><ele>17.0</ele><time>2026-03-28T15:22:56.999Z</time></trkpt><trkpt lat="43.549335501888805" lon="10.330111157928792"><ele>17.0</ele><time>2026-03-28T15:22:57.999Z</time></trkpt><trkpt lat="43.549393860175286" lon="10.330253815035498"><ele>17.0</ele><time>2026-03-28T15:22:58.999Z</time></trkpt><trkpt lat="43.54946382250931" lon="10.330326621557633"><ele>17.0</ele><time>2026-03-28T15:22:59.999Z</time></trkpt><trkpt lat="43.549536634763854" lon="10.330352121974821"><ele>17.0</ele><time>2026-03-28T15:23:00.999Z</time></trkpt><trkpt lat="43.549618985426136" lon="10.330343297171455"><ele>17.0</ele><time>2026-03-28T15:23:01.999Z</time></trkpt><trkpt lat="43.54969105882576" lon="10.330306176543578"><ele>17.0</ele><time>2026-03-28T15:23:02.999Z</time></trkpt><trkpt lat="43.549841991254134" lon="10.330213463146091"><ele>17.0</ele><time>2026-03-28T15:23:03.999Z</time></trkpt><trkpt lat="43.54995635710475" lon="10.330172047915108"><ele>17.0</ele><time>2026-03-28T15:23:04.999Z</time></trkpt><trkpt lat="43.5500720603478" lon="10.330189054327807"><ele>17.0</ele><time>2026-03-28T15:23:05.999Z</time></trkpt><trkpt lat="43.55015061847585" lon="10.33017147083784"><ele>17.0</ele><time>2026-03-28T15:23:06.999Z</time></trkpt><trkpt lat="43.550239965142715" lon="10.330180201899516"><ele>17.0</ele><time>2026-03-28T15:23:08.999Z</time></trkpt><trkpt lat="43.55026308497691" lon="10.330365308216019"><ele>17.0</ele><time>2026-03-28T15:23:11.999Z</time></trkpt><trkpt lat="43.55021032559841" lon="10.330510949210689"><ele>17.0</ele><time>2026-03-28T15:23:12.999Z</time></trkpt><trkpt lat="43.55021675131546" lon="10.330659027773489"><ele>16.6</ele><time>2026-03-28T15:23:13.999Z</time></trkpt><trkpt lat="43.55022413908684" lon="10.330829276546078"><ele>16.2</ele><time>2026-03-28T15:23:14.999Z</time></trkpt><trkpt lat="43.55023046802509" lon="10.330975124864445"><ele>15.8</ele><time>2026-03-28T15:23:15.999Z</time></trkpt><trkpt lat="43.55023476919094" lon="10.33107424414916"><ele>15.4</ele><time>2026-03-28T15:23:16.999Z</time></trkpt><trkpt lat="43.550239181384214" lon="10.331182541533153"><ele>15.0</ele><time>2026-03-28T15:23:17.999Z</time></trkpt><trkpt lat="43.55024453281279" lon="10.331311310292106"><ele>15.166666666666666</ele><time>2026-03-28T15:23:18.999Z</time></trkpt><trkpt lat="43.550251788067065" lon="10.331485889831432"><ele>15.333333333333332</ele><time>2026-03-28T15:23:19.999Z</time></trkpt><trkpt lat="43.55025670232145" lon="10.331604139085238"><ele>15.5</ele><time>2026-03-28T15:23:20.999Z</time></trkpt><trkpt lat="43.55026041100929" lon="10.331693379497057"><ele>15.666666666666666</ele><time>2026-03-28T15:23:33.999Z</time></trkpt><trkpt lat="43.55026427888132" lon="10.331782904312933"><ele>15.833333333333332</ele><time>2026-03-28T15:23:34.999Z</time></trkpt><trkpt lat="43.55026962710338" lon="10.331907288031532"><ele>16.0</ele><time>2026-03-28T15:23:35.999Z</time></trkpt><trkpt lat="43.55027593642227" lon="10.33205402386033"><ele>16.0</ele><time>2026-03-28T15:23:36.999Z</time></trkpt><trkpt lat="43.550283499655315" lon="10.332221172812464"><ele>16.0</ele><time>2026-03-28T15:23:37.999Z</time></trkpt><trkpt lat="43.55029011939051" lon="10.332348990088676"><ele>16.0</ele><time>2026-03-28T15:23:38.999Z</time></trkpt><trkpt lat="43.55029622730902" lon="10.332466924909136"><ele>16.0</ele><time>2026-03-28T15:23:39.999Z</time></trkpt><trkpt lat="43.550301302330524" lon="10.332564915995391"><ele>16.0</ele><time>2026-03-28T15:23:40.999Z</time></trkpt><trkpt lat="43.55030724125491" lon="10.332679587768036"><ele>16.2</ele><time>2026-03-28T15:23:42.999Z</time></trkpt><trkpt lat="43.55031405753871" lon="10.332829843820729"><ele>16.400000000000002</ele><time>2026-03-28T15:23:47.999Z</time></trkpt><trkpt lat="43.550319381051324" lon="10.3329504590203"><ele>16.6</ele><time>2026-03-28T15:23:48.999Z</time></trkpt><trkpt lat="43.550325031152305" lon="10.333072168825337"><ele>16.8</ele><time>2026-03-28T15:23:49.999Z</time></trkpt><trkpt lat="43.55033238447658" lon="10.333230568134553"><ele>17.0</ele><time>2026-03-28T15:23:50.999Z</time></trkpt><trkpt lat="43.55034015773766" lon="10.333398013253188"><ele>17.2</ele><time>2026-03-28T15:23:51.999Z</time></trkpt><trkpt lat="43.550347384147436" lon="10.333553678632338"><ele>17.4</ele><time>2026-03-28T15:23:52.999Z</time></trkpt><trkpt lat="43.55035473217982" lon="10.333711964561491"><ele>17.6</ele><time>2026-03-28T15:23:53.999Z</time></trkpt><trkpt lat="43.55036032381761" lon="10.333867728277582"><ele>17.8</ele><time>2026-03-28T15:23:54.999Z</time></trkpt><trkpt lat="43.55036520945746" lon="10.333992042730067"><ele>18.0</ele><time>2026-03-28T15:23:55.999Z</time></trkpt><trkpt lat="43.550370495499934" lon="10.33412654536208"><ele>18.2</ele><time>2026-03-28T15:23:58.999Z</time></trkpt><trkpt lat="43.55037571158386" lon="10.33425926793701"><ele>18.4</ele><time>2026-03-28T15:24:01.999Z</time></trkpt><trkpt lat="43.550381391019904" lon="10.334378394420781"><ele>18.599999999999998</ele><time>2026-03-28T15:24:04.999Z</time></trkpt><trkpt lat="43.55038658361473" lon="10.334475914692831"><ele>18.8</ele><time>2026-03-28T15:24:06.999Z</time></trkpt><trkpt lat="43.550391312809225" lon="10.334564732039814"><ele>19.0</ele><time>2026-03-28T15:24:08.999Z</time></trkpt><trkpt lat="43.55053247332029" lon="10.33459810533584"><ele>19.0</ele><time>2026-03-28T15:24:11.999Z</time></trkpt><trkpt lat="43.55062691918428" lon="10.334578467145334"><ele>19.0</ele><time>2026-03-28T15:24:12.999Z</time></trkpt><trkpt lat="43.55073303966464" lon="10.334548736516018"><ele>19.0</ele><time>2026-03-28T15:24:13.999Z</time></trkpt><trkpt lat="43.550839867564115" lon="10.33452999889738"><ele>19.0</ele><time>2026-03-28T15:24:14.999Z</time></trkpt><trkpt lat="43.55096135153052" lon="10.334498048430918"><ele>19.0</ele><time>2026-03-28T15:24:15.999Z</time></trkpt><trkpt lat="43.55109554313153" lon="10.334483039226765"><ele>19.2</ele><time>2026-03-28T15:24:16.999Z</time></trkpt><trkpt lat="43.55121354639988" lon="10.33450883656806"><ele>19.4</ele><time>2026-03-28T15:24:17.999Z</time></trkpt><trkpt lat="43.551326160154424" lon="10.334533068951417"><ele>19.6</ele><time>2026-03-28T15:24:18.999Z</time></trkpt><trkpt lat="43.551418382930684" lon="10.334536472384391"><ele>19.8</ele><time>2026-03-28T15:24:19.999Z</time></trkpt><trkpt lat="43.551501179343596" lon="10.33455023692527"><ele>20.0</ele><time>2026-03-28T15:24:20.999Z</time></trkpt><trkpt lat="43.5515733438674" lon="10.33456722213807"><ele>20.0</ele><time>2026-03-28T15:24:21.999Z</time></trkpt><trkpt lat="43.55167958781793" lon="10.33460151295422"><ele>20.0</ele><time>2026-03-28T15:24:23.999Z</time></trkpt><trkpt lat="43.55175209315053" lon="10.334592067973164"><ele>20.0</ele><time>2026-03-28T15:24:24.999Z</time></trkpt><trkpt lat="43.55184685968109" lon="10.334630938826503"><ele>20.0</ele><time>2026-03-28T15:24:25.999Z</time></trkpt><trkpt lat="43.55193606461771" lon="10.334656874756995"><ele>20.0</ele><time>2026-03-28T15:24:26.999Z</time></trkpt><trkpt lat="43.55200889006491" lon="10.334674161202555"><ele>20.0</ele><time>2026-03-28T15:24:27.999Z</time></trkpt><trkpt lat="43.55213463030368" lon="10.33469835245139"><ele>20.4</ele><time>2026-03-28T15:24:29.999Z</time></trkpt><trkpt lat="43.55220168851871" lon="10.334713850622078"><ele>20.8</ele><time>2026-03-28T15:24:30.999Z</time></trkpt><trkpt lat="43.55228294045957" lon="10.334726227427344"><ele>21.200000000000003</ele><time>2026-03-28T15:24:31.999Z</time></trkpt><trkpt lat="43.55237541688796" lon="10.334744528149889"><ele>21.6</ele><time>2026-03-28T15:24:32.999Z</time></trkpt><trkpt lat="43.552473304832866" lon="10.334765738098053"><ele>22.0</ele><time>2026-03-28T15:24:33.999Z</time></trkpt><trkpt lat="43.55258106923245" lon="10.334790146966878"><ele>21.0</ele><time>2026-03-28T15:24:34.999Z</time></trkpt><trkpt lat="43.55266960395188" lon="10.334807842748226"><ele>20.0</ele><time>2026-03-28T15:24:35.999Z</time></trkpt><trkpt lat="43.55277470443517" lon="10.334812717486626"><ele>19.0</ele><time>2026-03-28T15:24:37.999Z</time></trkpt><trkpt lat="43.55282905724101" lon="10.335074115124772"><ele>18.0</ele><time>2026-03-28T15:24:40.999Z</time></trkpt><trkpt lat="43.552859800601425" lon="10.335166160430285"><ele>17.6</ele><time>2026-03-28T15:24:41.999Z</time></trkpt><trkpt lat="43.55294481074784" lon="10.335266158775916"><ele>17.200000000000003</ele><time>2026-03-28T15:24:44Z</time></trkpt><trkpt lat="43.5530570533129" lon="10.335291902901437"><ele>16.8</ele><time>2026-03-28T15:24:46Z</time></trkpt><trkpt lat="43.55318318475342" lon="10.335323226395005"><ele>16.400000000000002</ele><time>2026-03-28T15:24:48Z</time></trkpt><trkpt lat="43.55324715205974" lon="10.335335815488136"><ele>16.0</ele><time>2026-03-28T15:24:49Z</time></trkpt><trkpt lat="43.553332466596466" lon="10.335352605805399"><ele>16.0</ele><time>2026-03-28T15:24:50Z</time></trkpt><trkpt lat="43.55339865738455" lon="10.335367464663468"><ele>16.0</ele><time>2026-03-28T15:24:51Z</time></trkpt><trkpt lat="43.55348798122818" lon="10.335386933011803"><ele>16.0</ele><time>2026-03-28T15:24:53Z</time></trkpt><trkpt lat="43.55358598063007" lon="10.335397241901196"><ele>16.0</ele><time>2026-03-28T15:24:55Z</time></trkpt><trkpt lat="43.553668670264194" lon="10.335440045976155"><ele>16.0</ele><time>2026-03-28T15:24:57Z</time></trkpt><trkpt lat="43.5537697620607" lon="10.335531410587544"><ele>15.999999999999998</ele><time>2026-03-28T15:24:59Z</time></trkpt><trkpt lat="43.553837420893004" lon="10.335586133226222"><ele>16.0</ele><time>2026-03-28T15:25:00Z</time></trkpt><trkpt lat="43.55390031269451" lon="10.3356283662505"><ele>16.0</ele><time>2026-03-28T15:25:01Z</time></trkpt><trkpt lat="43.5540104718592" lon="10.335680389475629"><ele>16.0</ele><time>2026-03-28T15:25:03Z</time></trkpt><trkpt lat="43.554076891437305" lon="10.335692314780733"><ele>15.999999999999998</ele><time>2026-03-28T15:25:04Z</time></trkpt><trkpt lat="43.554169128052756" lon="10.335703377870887"><ele>16.0</ele><time>2026-03-28T15:25:05Z</time></trkpt><trkpt lat="43.554248688849384" lon="10.335711265650936"><ele>15.999999999999998</ele><time>2026-03-28T15:25:06Z</time></trkpt><trkpt lat="43.554317648343" lon="10.335733267121176"><ele>16.0</ele><time>2026-03-28T15:25:07Z</time></trkpt><trkpt lat="43.5543947263093" lon="10.335742307135778"><ele>16.0</ele><time>2026-03-28T15:25:08Z</time></trkpt><trkpt lat="43.5544609207188" lon="10.335751024604779"><ele>16.0</ele><time>2026-03-28T15:25:09Z</time></trkpt><trkpt lat="43.55454927531224" lon="10.335793351277717"><ele>15.999999999999998</ele><time>2026-03-28T15:25:11Z</time></trkpt><trkpt lat="43.55460455144051" lon="10.33585596014505"><ele>16.0</ele><time>2026-03-28T15:25:12.999Z</time></trkpt><trkpt lat="43.554745150582775" lon="10.335927174347605"><ele>16.25</ele><time>2026-03-28T15:25:14.999Z</time></trkpt><trkpt lat="43.5548490475589" lon="10.335948931005117"><ele>16.5</ele><time>2026-03-28T15:25:15.999Z</time></trkpt><trkpt lat="43.55495768365098" lon="10.335976859446339"><ele>16.75</ele><time>2026-03-28T15:25:16.999Z</time></trkpt><trkpt lat="43.55507401862544" lon="10.336000992392613"><ele>17.0</ele><time>2026-03-28T15:25:17.999Z</time></trkpt><trkpt lat="43.5552098979175" lon="10.336016122355328"><ele>17.0</ele><time>2026-03-28T15:25:18.999Z</time></trkpt><trkpt lat="43.55535881362731" lon="10.33604791838146"><ele>17.0</ele><time>2026-03-28T15:25:19.999Z</time></trkpt><trkpt lat="43.55553178000019" lon="10.336085923524777"><ele>17.0</ele><time>2026-03-28T15:25:20.999Z</time></trkpt><trkpt lat="43.55570050676344" lon="10.336117438915412"><ele>17.25</ele><time>2026-03-28T15:25:21.999Z</time></trkpt><trkpt lat="43.555844921132476" lon="10.336149567455632"><ele>17.5</ele><time>2026-03-28T15:25:22.999Z</time></trkpt><trkpt lat="43.55597516028807" lon="10.336170538961925"><ele>17.75</ele><time>2026-03-28T15:25:23.999Z</time></trkpt><trkpt lat="43.5560871854049" lon="10.336189621110353"><ele>18.0</ele><time>2026-03-28T15:25:24.999Z</time></trkpt><trkpt lat="43.55618916202609" lon="10.336210924336703"><ele>18.0</ele><time>2026-03-28T15:25:25.999Z</time></trkpt><trkpt lat="43.556280620610686" lon="10.336237704629069"><ele>18.0</ele><time>2026-03-28T15:25:26.999Z</time></trkpt><trkpt lat="43.55635911998377" lon="10.336277493531167"><ele>18.0</ele><time>2026-03-28T15:25:27.999Z</time></trkpt><trkpt lat="43.556448470025146" lon="10.336361393715634"><ele>18.0</ele><time>2026-03-28T15:25:28.999Z</time></trkpt><trkpt lat="43.55654909842879" lon="10.336491783792537"><ele>18.0</ele><time>2026-03-28T15:25:29.999Z</time></trkpt><trkpt lat="43.55664604049686" lon="10.336623814889032"><ele>18.0</ele><time>2026-03-28T15:25:30.999Z</time></trkpt><trkpt lat="43.556767330503476" lon="10.336746126790299"><ele>18.0</ele><time>2026-03-28T15:25:31.999Z</time></trkpt><trkpt lat="43.55690494614407" lon="10.336868156945652"><ele>18.0</ele><time>2026-03-28T15:25:32.999Z</time></trkpt><trkpt lat="43.5570243389657" lon="10.336975146712104"><ele>17.75</ele><time>2026-03-28T15:25:33.999Z</time></trkpt><trkpt lat="43.5571010610715" lon="10.337062204788543"><ele>17.5</ele><time>2026-03-28T15:25:34.999Z</time></trkpt><trkpt lat="43.55721983134411" lon="10.337131500514351"><ele>17.25</ele><time>2026-03-28T15:25:35.999Z</time></trkpt><trkpt lat="43.557361284317636" lon="10.337181454249016"><ele>17.0</ele><time>2026-03-28T15:25:36.999Z</time></trkpt><trkpt lat="43.55754025980891" lon="10.337219181887752"><ele>16.666666666666668</ele><time>2026-03-28T15:25:37.999Z</time></trkpt><trkpt lat="43.557735338711645" lon="10.337265440727228"><ele>16.333333333333332</ele><time>2026-03-28T15:25:38.999Z</time></trkpt><trkpt lat="43.55791139043094" lon="10.33727127475549"><ele>16.0</ele><time>2026-03-28T15:25:39.999Z</time></trkpt><trkpt lat="43.55812203248801" lon="10.337266868931504"><ele>15.666666666666666</ele><time>2026-03-28T15:25:40.999Z</time></trkpt><trkpt lat="43.55830777238501" lon="10.337253225643405"><ele>15.333333333333332</ele><time>2026-03-28T15:25:41.999Z</time></trkpt><trkpt lat="43.558470905137895" lon="10.337247519355042"><ele>15.0</ele><time>2026-03-28T15:25:42.999Z</time></trkpt><trkpt lat="43.55860876557236" lon="10.337241731795224"><ele>14.666666666666668</ele><time>2026-03-28T15:25:43.999Z</time></trkpt><trkpt lat="43.55888604380083" lon="10.33725769579564"><ele>14.333333333333334</ele><time>2026-03-28T15:25:45.999Z</time></trkpt><trkpt lat="43.55903329875075" lon="10.337242433455359"><ele>14.0</ele><time>2026-03-28T15:25:46.999Z</time></trkpt><trkpt lat="43.55920177090979" lon="10.337250220155354"><ele>14.0</ele><time>2026-03-28T15:25:47.999Z</time></trkpt><trkpt lat="43.55937947794021" lon="10.337250162167983"><ele>14.0</ele><time>2026-03-28T15:25:48.999Z</time></trkpt><trkpt lat="43.55953155844149" lon="10.337235938209847"><ele>14.0</ele><time>2026-03-28T15:25:49.999Z</time></trkpt><trkpt lat="43.559668232005194" lon="10.33723018103644"><ele>14.0</ele><time>2026-03-28T15:25:50.999Z</time></trkpt><trkpt lat="43.559788736628136" lon="10.337235857202554"><ele>14.0</ele><time>2026-03-28T15:25:51.999Z</time></trkpt><trkpt lat="43.559916692238474" lon="10.337247751897637"><ele>14.0</ele><time>2026-03-28T15:25:52.999Z</time></trkpt><trkpt lat="43.560044631997506" lon="10.337248624380901"><ele>14.0</ele><time>2026-03-28T15:25:53.999Z</time></trkpt><trkpt lat="43.560149012516455" lon="10.337241899497583"><ele>13.799999999999999</ele><time>2026-03-28T15:25:54.999Z</time></trkpt><trkpt lat="43.56023379144601" lon="10.337200755055921"><ele>13.599999999999998</ele><time>2026-03-28T15:25:55.999Z</time></trkpt><trkpt lat="43.560308865834386" lon="10.337123078600712"><ele>13.4</ele><time>2026-03-28T15:25:56.999Z</time></trkpt><trkpt lat="43.56038456100989" lon="10.336990989985718"><ele>13.2</ele><time>2026-03-28T15:25:57.999Z</time></trkpt><trkpt lat="43.560460977466455" lon="10.336865088014706"><ele>13.0</ele><time>2026-03-28T15:25:58.999Z</time></trkpt><trkpt lat="43.560532822932515" lon="10.33676886994649"><ele>13.0</ele><time>2026-03-28T15:25:59.999Z</time></trkpt><trkpt lat="43.5606119940826" lon="10.336698596216559"><ele>13.0</ele><time>2026-03-28T15:26:00.999Z</time></trkpt><trkpt lat="43.5607155164834" lon="10.336661021911283"><ele>13.0</ele><time>2026-03-28T15:26:02Z</time></trkpt><trkpt lat="43.56082529469138" lon="10.33664861134356"><ele>13.0</ele><time>2026-03-28T15:26:03Z</time></trkpt><trkpt lat="43.56094985838005" lon="10.336642836227119"><ele>13.0</ele><time>2026-03-28T15:26:04Z</time></trkpt><trkpt lat="43.56108622325004" lon="10.336617620169529"><ele>12.8</ele><time>2026-03-28T15:26:05Z</time></trkpt><trkpt lat="43.56121066670462" lon="10.336590721072135"><ele>12.600000000000001</ele><time>2026-03-28T15:26:06Z</time></trkpt><trkpt lat="43.561315334597246" lon="10.336572535061604"><ele>12.399999999999999</ele><time>2026-03-28T15:26:07Z</time></trkpt><trkpt lat="43.561394709396" lon="10.336558033774548"><ele>12.2</ele><time>2026-03-28T15:26:08Z</time></trkpt><trkpt lat="43.56146654837151" lon="10.336518479125532"><ele>12.0</ele><time>2026-03-28T15:26:10Z</time></trkpt><trkpt lat="43.561547016908534" lon="10.336429437817372"><ele>12.5</ele><time>2026-03-28T15:26:13Z</time></trkpt><trkpt lat="43.56162972039249" lon="10.336237098318172"><ele>13.0</ele><time>2026-03-28T15:26:15Z</time></trkpt><trkpt lat="43.56174634786019" lon="10.33620169073086"><ele>13.5</ele><time>2026-03-28T15:26:16Z</time></trkpt><trkpt lat="43.561887884252776" lon="10.33614907145488"><ele>14.0</ele><time>2026-03-28T15:26:17Z</time></trkpt><trkpt lat="43.56207980324533" lon="10.336151878455743"><ele>14.0</ele><time>2026-03-28T15:26:18Z</time></trkpt><trkpt lat="43.56223662312633" lon="10.336110780444356"><ele>14.0</ele><time>2026-03-28T15:26:19Z</time></trkpt><trkpt lat="43.56237747021177" lon="10.336066676506125"><ele>14.0</ele><time>2026-03-28T15:26:20Z</time></trkpt><trkpt lat="43.56251015168197" lon="10.336035605550702"><ele>14.0</ele><time>2026-03-28T15:26:21Z</time></trkpt><trkpt lat="43.56263545728378" lon="10.336027520830028"><ele>14.0</ele><time>2026-03-28T15:26:22Z</time></trkpt><trkpt lat="43.562769227479535" lon="10.336068150584516"><ele>14.0</ele><time>2026-03-28T15:26:23Z</time></trkpt><trkpt lat="43.56297265562898" lon="10.336320949590913"><ele>14.0</ele><time>2026-03-28T15:26:25Z</time></trkpt><trkpt lat="43.56303727655388" lon="10.3364695132472"><ele>13.666666666666668</ele><time>2026-03-28T15:26:26Z</time></trkpt><trkpt lat="43.56313862887101" lon="10.336649940339578"><ele>13.333333333333332</ele><time>2026-03-28T15:26:27Z</time></trkpt><trkpt lat="43.5632238857578" lon="10.336901021645664"><ele>13.0</ele><time>2026-03-28T15:26:28Z</time></trkpt><trkpt lat="43.5633264442999" lon="10.337130150162553"><ele>12.666666666666666</ele><time>2026-03-28T15:26:29Z</time></trkpt><trkpt lat="43.56344200957594" lon="10.337382900955616"><ele>12.333333333333332</ele><time>2026-03-28T15:26:30Z</time></trkpt><trkpt lat="43.56361956586379" lon="10.337522805139704"><ele>12.0</ele><time>2026-03-28T15:26:31Z</time></trkpt><trkpt lat="43.563776862598125" lon="10.337532745743284"><ele>12.0</ele><time>2026-03-28T15:26:33Z</time></trkpt><trkpt lat="43.563892997594486" lon="10.337531268893297"><ele>12.0</ele><time>2026-03-28T15:26:34Z</time></trkpt><trkpt lat="43.563994566686" lon="10.33752850197107"><ele>12.0</ele><time>2026-03-28T15:26:35Z</time></trkpt><trkpt lat="43.564076934033096" lon="10.337523518132665"><ele>12.0</ele><time>2026-03-28T15:26:36Z</time></trkpt><trkpt lat="43.56416558806664" lon="10.337493803566534"><ele>12.0</ele><time>2026-03-28T15:26:37Z</time></trkpt><trkpt lat="43.56427240288644" lon="10.337412547561428"><ele>12.0</ele><time>2026-03-28T15:26:38Z</time></trkpt><trkpt lat="43.56438914286272" lon="10.33731196190055"><ele>12.0</ele><time>2026-03-28T15:26:39Z</time></trkpt><trkpt lat="43.5644837031949" lon="10.337238414697838"><ele>12.0</ele><time>2026-03-28T15:26:40Z</time></trkpt><trkpt lat="43.56455023784859" lon="10.337175148062494"><ele>12.0</ele><time>2026-03-28T15:26:41Z</time></trkpt><trkpt lat="43.564617526920614" lon="10.337110565212308"><ele>12.0</ele><time>2026-03-28T15:26:42Z</time></trkpt><trkpt lat="43.56469453213458" lon="10.337036203791708"><ele>12.6</ele><time>2026-03-28T15:26:43Z</time></trkpt><trkpt lat="43.56478630912361" lon="10.336947493959357"><ele>13.2</ele><time>2026-03-28T15:26:44Z</time></trkpt><trkpt lat="43.56486711969816" lon="10.336870128030398"><ele>13.8</ele><time>2026-03-28T15:26:45Z</time></trkpt><trkpt lat="43.56494378420377" lon="10.336802278069051"><ele>14.4</ele><time>2026-03-28T15:26:46Z</time></trkpt><trkpt lat="43.56504280777856" lon="10.33673282963536"><ele>15.0</ele><time>2026-03-28T15:26:49Z</time></trkpt><trkpt lat="43.56514255806319" lon="10.336916169713419"><ele>15.0</ele><time>2026-03-28T15:26:52Z</time></trkpt><trkpt lat="43.56519389285311" lon="10.337018988906774"><ele>15.0</ele><time>2026-03-28T15:26:53Z</time></trkpt><trkpt lat="43.56526019279668" lon="10.337141477219195"><ele>15.0</ele><time>2026-03-28T15:26:54Z</time></trkpt><trkpt lat="43.56533553847452" lon="10.337280947851317"><ele>15.0</ele><time>2026-03-28T15:26:55Z</time></trkpt><trkpt lat="43.56539571997415" lon="10.337412555043308"><ele>15.0</ele><time>2026-03-28T15:26:56Z</time></trkpt><trkpt lat="43.565448644635154" lon="10.337522856585968"><ele>14.6</ele><time>2026-03-28T15:26:57Z</time></trkpt><trkpt lat="43.565500863599034" lon="10.337618357838593"><ele>14.2</ele><time>2026-03-28T15:26:58Z</time></trkpt><trkpt lat="43.56556033476935" lon="10.337698929682377"><ele>13.8</ele><time>2026-03-28T15:26:59Z</time></trkpt><trkpt lat="43.56565569457344" lon="10.33776404839455"><ele>13.4</ele><time>2026-03-28T15:27:00Z</time></trkpt><trkpt lat="43.56578060739066" lon="10.33784403667507"><ele>13.0</ele><time>2026-03-28T15:27:01Z</time></trkpt><trkpt lat="43.56590843458939" lon="10.337941490561326"><ele>13.0</ele><time>2026-03-28T15:27:02Z</time></trkpt><trkpt lat="43.56604065882232" lon="10.338045632131815"><ele>13.0</ele><time>2026-03-28T15:27:03Z</time></trkpt><trkpt lat="43.566169543056546" lon="10.338142573625623"><ele>13.0</ele><time>2026-03-28T15:27:04Z</time></trkpt><trkpt lat="43.56629786799099" lon="10.338242146666643"><ele>13.0</ele><time>2026-03-28T15:27:05Z</time></trkpt><trkpt lat="43.56641699402823" lon="10.33833487316324"><ele>12.8</ele><time>2026-03-28T15:27:06Z</time></trkpt><trkpt lat="43.56651785795583" lon="10.3384135774853"><ele>12.600000000000001</ele><time>2026-03-28T15:27:07Z</time></trkpt><trkpt lat="43.56659634733842" lon="10.338473807176968"><ele>12.399999999999999</ele><time>2026-03-28T15:27:08Z</time></trkpt><trkpt lat="43.56671830785244" lon="10.338471913511674"><ele>12.2</ele><time>2026-03-28T15:27:10Z</time></trkpt><trkpt lat="43.56678042150594" lon="10.33849187369018"><ele>12.0</ele><time>2026-03-28T15:27:12Z</time></trkpt><trkpt lat="43.56684812136915" lon="10.338485391612096"><ele>12.0</ele><time>2026-03-28T15:27:17Z</time></trkpt><trkpt lat="43.56686229121354" lon="10.338171426690895"><ele>12.0</ele><time>2026-03-28T15:27:18Z</time></trkpt><trkpt lat="43.56694204314365" lon="10.338050849390118"><ele>12.0</ele><time>2026-03-28T15:27:19Z</time></trkpt><trkpt lat="43.56702028813227" lon="10.337930336777884"><ele>12.0</ele><time>2026-03-28T15:27:20Z</time></trkpt><trkpt lat="43.56708867067834" lon="10.33781946158994"><ele>12.0</ele><time>2026-03-28T15:27:21Z</time></trkpt><trkpt lat="43.56717245084002" lon="10.337716806147709"><ele>12.0</ele><time>2026-03-28T15:27:22Z</time></trkpt><trkpt lat="43.56723767962031" lon="10.337607834462275"><ele>12.0</ele><time>2026-03-28T15:27:23Z</time></trkpt><trkpt lat="43.56730632710273" lon="10.337494140322496"><ele>12.0</ele><time>2026-03-28T15:27:24Z</time></trkpt><trkpt lat="43.56736801238304" lon="10.337390723297815"><ele>12.0</ele><time>2026-03-28T15:27:25Z</time></trkpt><trkpt lat="43.567417873024766" lon="10.337307906496475"><ele>12.0</ele><time>2026-03-28T15:27:26Z</time></trkpt><trkpt lat="43.567463331389575" lon="10.33723764335741"><ele>12.0</ele><time>2026-03-28T15:27:27Z</time></trkpt><trkpt lat="43.567504564790305" lon="10.33716567581128"><ele>12.0</ele><time>2026-03-28T15:27:28Z</time></trkpt><trkpt lat="43.56754970829441" lon="10.337087258423335"><ele>12.0</ele><time>2026-03-28T15:27:29Z</time></trkpt><trkpt lat="43.567615298482295" lon="10.336983592025765"><ele>12.0</ele><time>2026-03-28T15:27:30Z</time></trkpt><trkpt lat="43.56768665867601" lon="10.336869966759078"><ele>12.0</ele><time>2026-03-28T15:27:31Z</time></trkpt><trkpt lat="43.56778028438244" lon="10.33671035889392"><ele>12.0</ele><time>2026-03-28T15:27:32Z</time></trkpt><trkpt lat="43.56788880504744" lon="10.336537423607933"><ele>12.0</ele><time>2026-03-28T15:27:33Z</time></trkpt><trkpt lat="43.5679819803879" lon="10.336393692146345"><ele>12.0</ele><time>2026-03-28T15:27:34Z</time></trkpt><trkpt lat="43.56805328783939" lon="10.336282742321002"><ele>12.0</ele><time>2026-03-28T15:27:35Z</time></trkpt><trkpt lat="43.568099115843644" lon="10.33616033141765"><ele>12.0</ele><time>2026-03-28T15:27:36Z</time></trkpt><trkpt lat="43.568084438355285" lon="10.33601429004644"><ele>12.0</ele><time>2026-03-28T15:27:37Z</time></trkpt><trkpt lat="43.56808991632022" lon="10.335844465700765"><ele>12.0</ele><time>2026-03-28T15:27:38Z</time></trkpt><trkpt lat="43.568087732617414" lon="10.335684965052469"><ele>11.6</ele><time>2026-03-28T15:27:39Z</time></trkpt><trkpt lat="43.568087776967005" lon="10.335553061744584"><ele>11.2</ele><time>2026-03-28T15:27:40Z</time></trkpt><trkpt lat="43.5680879420017" lon="10.335407134635881"><ele>10.8</ele><time>2026-03-28T15:27:41Z</time></trkpt><trkpt lat="43.568087205352676" lon="10.33524888027704"><ele>10.4</ele><time>2026-03-28T15:27:42Z</time></trkpt><trkpt lat="43.56808719715454" lon="10.335078356580091"><ele>10.0</ele><time>2026-03-28T15:27:43Z</time></trkpt><trkpt lat="43.56808384774571" lon="10.334898020567982"><ele>10.0</ele><time>2026-03-28T15:27:44Z</time></trkpt><trkpt lat="43.568082487312026" lon="10.334705920621992"><ele>10.0</ele><time>2026-03-28T15:27:45Z</time></trkpt><trkpt lat="43.56808159363482" lon="10.334486791639515"><ele>10.0</ele><time>2026-03-28T15:27:46Z</time></trkpt><trkpt lat="43.568079308593035" lon="10.334263289441688"><ele>10.0</ele><time>2026-03-28T15:27:47Z</time></trkpt><trkpt lat="43.5680801468029" lon="10.334071947153467"><ele>10.0</ele><time>2026-03-28T15:27:48Z</time></trkpt><trkpt lat="43.56807897138546" lon="10.33392724601185"><ele>10.0</ele><time>2026-03-28T15:27:49Z</time></trkpt><trkpt lat="43.5680799564488" lon="10.333829974045056"><ele>10.0</ele><time>2026-03-28T15:27:50Z</time></trkpt><trkpt lat="43.56808513060795" lon="10.333720371874481"><ele>10.0</ele><time>2026-03-28T15:27:52Z</time></trkpt><trkpt lat="43.56823437504472" lon="10.333698373706422"><ele>10.5</ele><time>2026-03-28T15:27:53Z</time></trkpt><trkpt lat="43.56838308573726" lon="10.333673134665968"><ele>11.0</ele><time>2026-03-28T15:27:54Z</time></trkpt><trkpt lat="43.568527213679225" lon="10.33364938744444"><ele>11.5</ele><time>2026-03-28T15:27:55Z</time></trkpt><trkpt lat="43.56861905780351" lon="10.333660920695552"><ele>12.0</ele><time>2026-03-28T15:27:56Z</time></trkpt><trkpt lat="43.56870057590693" lon="10.333726202254203"><ele>12.0</ele><time>2026-03-28T15:27:57Z</time></trkpt><trkpt lat="43.56879095208687" lon="10.33387474623801"><ele>12.0</ele><time>2026-03-28T15:27:58Z</time></trkpt><trkpt lat="43.56887405206694" lon="10.334026828662564"><ele>12.0</ele><time>2026-03-28T15:27:59Z</time></trkpt><trkpt lat="43.56898026875878" lon="10.334129342281525"><ele>12.0</ele><time>2026-03-28T15:28:00Z</time></trkpt><trkpt lat="43.56913124127332" lon="10.334178633670659"><ele>12.0</ele><time>2026-03-28T15:28:01Z</time></trkpt><trkpt lat="43.56928309341635" lon="10.33420008599792"><ele>12.0</ele><time>2026-03-28T15:28:02Z</time></trkpt><trkpt lat="43.569397446090264" lon="10.334225895040765"><ele>12.0</ele><time>2026-03-28T15:28:03Z</time></trkpt><trkpt lat="43.569505521732246" lon="10.334242280200272"><ele>12.0</ele><time>2026-03-28T15:28:04Z</time></trkpt><trkpt lat="43.56962603558917" lon="10.334265770189802"><ele>12.0</ele><time>2026-03-28T15:28:05Z</time></trkpt><trkpt lat="43.569749200359574" lon="10.334284227701785"><ele>12.0</ele><time>2026-03-28T15:28:06Z</time></trkpt><trkpt lat="43.56987270492242" lon="10.334288176724558"><ele>12.0</ele><time>2026-03-28T15:28:07Z</time></trkpt><trkpt lat="43.56996186732332" lon="10.334293437572997"><ele>12.0</ele><time>2026-03-28T15:28:08Z</time></trkpt><trkpt lat="43.570113117623634" lon="10.334317027424936"><ele>12.0</ele><time>2026-03-28T15:28:10Z</time></trkpt><trkpt lat="43.570238211774175" lon="10.334336718516147"><ele>12.0</ele><time>2026-03-28T15:28:11Z</time></trkpt><trkpt lat="43.57039281566446" lon="10.334360390575196"><ele>12.0</ele><time>2026-03-28T15:28:12Z</time></trkpt><trkpt lat="43.57052788245153" lon="10.3343838563191"><ele>12.0</ele><time>2026-03-28T15:28:13Z</time></trkpt><trkpt lat="43.57064119187193" lon="10.334399602441582"><ele>11.5</ele><time>2026-03-28T15:28:14Z</time></trkpt><trkpt lat="43.57079739591813" lon="10.334421486989047"><ele>11.0</ele><time>2026-03-28T15:28:15Z</time></trkpt><trkpt lat="43.57094951355484" lon="10.334443963127008"><ele>10.5</ele><time>2026-03-28T15:28:16Z</time></trkpt><trkpt lat="43.57107355672978" lon="10.334467826117244"><ele>10.0</ele><time>2026-03-28T15:28:17Z</time></trkpt><trkpt lat="43.57130160134428" lon="10.334581006886399"><ele>10.0</ele><time>2026-03-28T15:28:19Z</time></trkpt><trkpt lat="43.5714020118849" lon="10.3346815987599"><ele>10.0</ele><time>2026-03-28T15:28:20Z</time></trkpt><trkpt lat="43.57149092774839" lon="10.334808570095612"><ele>10.0</ele><time>2026-03-28T15:28:21Z</time></trkpt><trkpt lat="43.571597003374194" lon="10.335017316168578"><ele>10.0</ele><time>2026-03-28T15:28:22Z</time></trkpt><trkpt lat="43.57170972838234" lon="10.335259669418097"><ele>11.0</ele><time>2026-03-28T15:28:23Z</time></trkpt><trkpt lat="43.571805123313645" lon="10.335459191276357"><ele>12.0</ele><time>2026-03-28T15:28:24Z</time></trkpt><trkpt lat="43.57189060066368" lon="10.335631487428058"><ele>13.0</ele><time>2026-03-28T15:28:25Z</time></trkpt><trkpt lat="43.571966297666535" lon="10.335785691365611"><ele>11.75</ele><time>2026-03-28T15:28:26Z</time></trkpt><trkpt lat="43.572037771318556" lon="10.335934199230035"><ele>10.5</ele><time>2026-03-28T15:28:27Z</time></trkpt><trkpt lat="43.57210235503497" lon="10.336070399976993"><ele>9.25</ele><time>2026-03-28T15:28:28Z</time></trkpt><trkpt lat="43.57216963665775" lon="10.336185544406066"><ele>8.0</ele><time>2026-03-28T15:28:29Z</time></trkpt><trkpt lat="43.57225737645703" lon="10.336264443237928"><ele>8.0</ele><time>2026-03-28T15:28:30Z</time></trkpt><trkpt lat="43.57235564171439" lon="10.336282744183162"><ele>8.0</ele><time>2026-03-28T15:28:31Z</time></trkpt><trkpt lat="43.57247127406027" lon="10.336264586704194"><ele>8.0</ele><time>2026-03-28T15:28:32Z</time></trkpt><trkpt lat="43.572605513835455" lon="10.336183942064887"><ele>8.0</ele><time>2026-03-28T15:28:33Z</time></trkpt><trkpt lat="43.572759933174446" lon="10.336077524065432"><ele>6.333333333333333</ele><time>2026-03-28T15:28:34Z</time></trkpt><trkpt lat="43.572941880669696" lon="10.335952008174786"><ele>4.666666666666666</ele><time>2026-03-28T15:28:35Z</time></trkpt><trkpt lat="43.573093901545484" lon="10.335885911075945"><ele>3.0</ele><time>2026-03-28T15:28:36Z</time></trkpt><trkpt lat="43.57320908596168" lon="10.33579818797893"><ele>3.0</ele><time>2026-03-28T15:28:37Z</time></trkpt><trkpt lat="43.57332070907663" lon="10.335752629203828"><ele>3.0</ele><time>2026-03-28T15:28:38Z</time></trkpt><trkpt lat="43.573412892512074" lon="10.335678339537909"><ele>3.0</ele><time>2026-03-28T15:28:39Z</time></trkpt><trkpt lat="43.5734963771604" lon="10.335647914039539"><ele>3.0</ele><time>2026-03-28T15:28:40Z</time></trkpt><trkpt lat="43.5735615024361" lon="10.3356277423678"><ele>3.0</ele><time>2026-03-28T15:28:42Z</time></trkpt><trkpt lat="43.57363086984203" lon="10.335775034529396"><ele>3.0</ele><time>2026-03-28T15:28:48Z</time></trkpt><trkpt lat="43.57367706529472" lon="10.335884656296457"><ele>3.0</ele><time>2026-03-28T15:28:50Z</time></trkpt><trkpt lat="43.57374765894158" lon="10.335829768114019"><ele>3.0</ele><time>2026-03-28T15:28:52Z</time></trkpt><trkpt lat="43.57383210326338" lon="10.335780570881628"><ele>3.0</ele><time>2026-03-28T15:28:53Z</time></trkpt><trkpt lat="43.573924392641594" lon="10.335720246303458"><ele>3.0</ele><time>2026-03-28T15:28:54Z</time></trkpt><trkpt lat="43.57412079903276" lon="10.33557875063026"><ele>3.0</ele><time>2026-03-28T15:28:56Z</time></trkpt><trkpt lat="43.574222136084884" lon="10.335513648309265"><ele>3.0</ele><time>2026-03-28T15:28:57Z</time></trkpt><trkpt lat="43.57431530611621" lon="10.335461467350559"><ele>3.0</ele><time>2026-03-28T15:28:58Z</time></trkpt><trkpt lat="43.574388045869696" lon="10.335417636185007"><ele>3.0</ele><time>2026-03-28T15:28:59Z</time></trkpt><trkpt lat="43.57447941968434" lon="10.335368700181593"><ele>3.0</ele><time>2026-03-28T15:29:01Z</time></trkpt><trkpt lat="43.574543285862184" lon="10.335260147948992"><ele>3.0</ele><time>2026-03-28T15:29:19Z</time></trkpt><trkpt lat="43.57463083561033" lon="10.335286803050641"><ele>3.0</ele><time>2026-03-28T15:29:20Z</time></trkpt><trkpt lat="43.574720241267634" lon="10.33533336604396"><ele>3.0</ele><time>2026-03-28T15:29:21Z</time></trkpt><trkpt lat="43.574808780695555" lon="10.335426447757303"><ele>3.0</ele><time>2026-03-28T15:29:22Z</time></trkpt><trkpt lat="43.5749173995506" lon="10.335577925947094"><ele>3.0</ele><time>2026-03-28T15:29:23Z</time></trkpt><trkpt lat="43.575045677980015" lon="10.335770764839497"><ele>3.0</ele><time>2026-03-28T15:29:24Z</time></trkpt><trkpt lat="43.575213067051" lon="10.336014082676211"><ele>3.0</ele><time>2026-03-28T15:29:25Z</time></trkpt><trkpt lat="43.57538815143416" lon="10.336260409714972"><ele>3.0</ele><time>2026-03-28T15:29:26Z</time></trkpt><trkpt lat="43.57555241971975" lon="10.336479979485137"><ele>3.0</ele><time>2026-03-28T15:29:27Z</time></trkpt><trkpt lat="43.57570410212877" lon="10.336692189046842"><ele>3.0</ele><time>2026-03-28T15:29:28Z</time></trkpt><trkpt lat="43.575848991362285" lon="10.33688863864687"><ele>3.0</ele><time>2026-03-28T15:29:29Z</time></trkpt><trkpt lat="43.575988814659965" lon="10.337073143554973"><ele>3.0</ele><time>2026-03-28T15:29:30Z</time></trkpt><trkpt lat="43.5761393803097" lon="10.337285364652319"><ele>3.0</ele><time>2026-03-28T15:29:31Z</time></trkpt><trkpt lat="43.57630705439805" lon="10.337532229284259"><ele>2.6666666666666665</ele><time>2026-03-28T15:29:32Z</time></trkpt><trkpt lat="43.576464422226245" lon="10.337771551765144"><ele>2.333333333333333</ele><time>2026-03-28T15:29:33Z</time></trkpt><trkpt lat="43.576604683111526" lon="10.337977905050042"><ele>2.0</ele><time>2026-03-28T15:29:34Z</time></trkpt><trkpt lat="43.576734857895445" lon="10.33816689095798"><ele>1.6666666666666665</ele><time>2026-03-28T15:29:35Z</time></trkpt><trkpt lat="43.57685854438095" lon="10.338339743863902"><ele>1.3333333333333333</ele><time>2026-03-28T15:29:36Z</time></trkpt><trkpt lat="43.57696715993742" lon="10.338498118426166"><ele>1.0</ele><time>2026-03-28T15:29:37Z</time></trkpt><trkpt lat="43.57705105062953" lon="10.33862598229146"><ele>1.0</ele><time>2026-03-28T15:29:38Z</time></trkpt><trkpt lat="43.577117510132425" lon="10.338738551797897"><ele>1.0</ele><time>2026-03-28T15:29:39Z</time></trkpt><trkpt lat="43.57717303137037" lon="10.338852218520907"><ele>1.0</ele><time>2026-03-28T15:29:40Z</time></trkpt><trkpt lat="43.5772191802449" lon="10.338962074595623"><ele>1.0</ele><time>2026-03-28T15:29:41Z</time></trkpt><trkpt lat="43.57723116385707" lon="10.33908856447675"><ele>1.0</ele><time>2026-03-28T15:29:42Z</time></trkpt><trkpt lat="43.577277145682345" lon="10.339199948278294"><ele>1.0</ele><time>2026-03-28T15:29:43Z</time></trkpt><trkpt lat="43.57733653996168" lon="10.33929259246412"><ele>1.0</ele><time>2026-03-28T15:29:44Z</time></trkpt><trkpt lat="43.57742233919211" lon="10.339343613706768"><ele>1.0</ele><time>2026-03-28T15:29:45Z</time></trkpt><trkpt lat="43.57750714493466" lon="10.33937128549486"><ele>1.0</ele><time>2026-03-28T15:29:46Z</time></trkpt><trkpt lat="43.577586707128134" lon="10.339430979232446"><ele>1.0</ele><time>2026-03-28T15:29:47Z</time></trkpt><trkpt lat="43.57768588602584" lon="10.33954964377796"><ele>1.0</ele><time>2026-03-28T15:29:48Z</time></trkpt><trkpt lat="43.57779853447255" lon="10.339706987402526"><ele>1.0</ele><time>2026-03-28T15:29:49Z</time></trkpt><trkpt lat="43.57792646085405" lon="10.339899051237873"><ele>1.0</ele><time>2026-03-28T15:29:50Z</time></trkpt><trkpt lat="43.578070336164906" lon="10.340118481782298"><ele>1.3333333333333333</ele><time>2026-03-28T15:29:51Z</time></trkpt><trkpt lat="43.578208201650924" lon="10.340325311393254"><ele>1.6666666666666665</ele><time>2026-03-28T15:29:52Z</time></trkpt><trkpt lat="43.578323658593405" lon="10.340503772525302"><ele>2.0</ele><time>2026-03-28T15:29:53Z</time></trkpt><trkpt lat="43.57842427765865" lon="10.340654555675387"><ele>2.0</ele><time>2026-03-28T15:29:54Z</time></trkpt><trkpt lat="43.57851678607822" lon="10.340792074176655"><ele>2.0</ele><time>2026-03-28T15:29:55Z</time></trkpt><trkpt lat="43.57861066965067" lon="10.340932491498874"><ele>2.0</ele><time>2026-03-28T15:29:56Z</time></trkpt><trkpt lat="43.57871696224847" lon="10.3410896255882"><ele>2.0</ele><time>2026-03-28T15:29:57Z</time></trkpt><trkpt lat="43.57883658752916" lon="10.341238590806885"><ele>2.333333333333333</ele><time>2026-03-28T15:29:58Z</time></trkpt><trkpt lat="43.578956474250006" lon="10.341419222730833"><ele>2.6666666666666665</ele><time>2026-03-28T15:29:59Z</time></trkpt><trkpt lat="43.57909764928958" lon="10.341624218072846"><ele>3.0</ele><time>2026-03-28T15:30:00Z</time></trkpt><trkpt lat="43.579255846456476" lon="10.341842348063048"><ele>3.0</ele><time>2026-03-28T15:30:01Z</time></trkpt><trkpt lat="43.579388835550446" lon="10.342053039292356"><ele>3.0</ele><time>2026-03-28T15:30:02Z</time></trkpt><trkpt lat="43.57952447440368" lon="10.342237315645093"><ele>3.0</ele><time>2026-03-28T15:30:03Z</time></trkpt><trkpt lat="43.57966136046079" lon="10.34239767351726"><ele>1.6666666666666667</ele><time>2026-03-28T15:30:04Z</time></trkpt><trkpt lat="43.57980116511" lon="10.342529595419368"><ele>0.33333333333333337</ele><time>2026-03-28T15:30:05Z</time></trkpt><trkpt lat="43.57994715905514" lon="10.342650055578813"><ele>-1.0</ele><time>2026-03-28T15:30:06Z</time></trkpt><trkpt lat="43.58010213431625" lon="10.34276316316825"><ele>-1.0</ele><time>2026-03-28T15:30:07Z</time></trkpt><trkpt lat="43.580272509924285" lon="10.342869887308789"><ele>-1.0</ele><time>2026-03-28T15:30:08Z</time></trkpt><trkpt lat="43.58044186046661" lon="10.342971894244913"><ele>-1.0</ele><time>2026-03-28T15:30:09Z</time></trkpt><trkpt lat="43.58059988374799" lon="10.343068439647086"><ele>-0.6666666666666666</ele><time>2026-03-28T15:30:10Z</time></trkpt><trkpt lat="43.58074870936184" lon="10.34315347649599"><ele>-0.3333333333333333</ele><time>2026-03-28T15:30:11Z</time></trkpt><trkpt lat="43.58088871362984" lon="10.343222440328507"><ele>0.0</ele><time>2026-03-28T15:30:12Z</time></trkpt><trkpt lat="43.58102880372031" lon="10.343293161118781"><ele>0.0</ele><time>2026-03-28T15:30:13Z</time></trkpt><trkpt lat="43.581161017895504" lon="10.34336147346432"><ele>0.0</ele><time>2026-03-28T15:30:14Z</time></trkpt><trkpt lat="43.581281781318005" lon="10.343423788379846"><ele>0.0</ele><time>2026-03-28T15:30:15Z</time></trkpt><trkpt lat="43.58139013959401" lon="10.343479471444507"><ele>0.0</ele><time>2026-03-28T15:30:16Z</time></trkpt><trkpt lat="43.58148304407563" lon="10.343528412054072"><ele>0.25</ele><time>2026-03-28T15:30:17Z</time></trkpt><trkpt lat="43.58156230628166" lon="10.343578325208789"><ele>0.5</ele><time>2026-03-28T15:30:18Z</time></trkpt><trkpt lat="43.581610401918994" lon="10.343653643155925"><ele>0.75</ele><time>2026-03-28T15:30:19Z</time></trkpt><trkpt lat="43.58161137941562" lon="10.343888695641706"><ele>1.0</ele><time>2026-03-28T15:30:21Z</time></trkpt><trkpt lat="43.581597583400445" lon="10.344053903632695"><ele>2.0</ele><time>2026-03-28T15:30:22Z</time></trkpt><trkpt lat="43.58159237613229" lon="10.344239761561456"><ele>3.0</ele><time>2026-03-28T15:30:23Z</time></trkpt><trkpt lat="43.58159013895402" lon="10.34442700093879"><ele>4.0</ele><time>2026-03-28T15:30:24Z</time></trkpt><trkpt lat="43.581586135989134" lon="10.344629948091692"><ele>5.0</ele><time>2026-03-28T15:30:25Z</time></trkpt><trkpt lat="43.581582018018665" lon="10.344849017963282"><ele>5.333333333333334</ele><time>2026-03-28T15:30:26Z</time></trkpt><trkpt lat="43.58157600464154" lon="10.345097955702787"><ele>5.666666666666667</ele><time>2026-03-28T15:30:27Z</time></trkpt><trkpt lat="43.5815781867108" lon="10.345362490351498"><ele>6.0</ele><time>2026-03-28T15:30:28Z</time></trkpt><trkpt lat="43.581575640667275" lon="10.345600204138867"><ele>5.5</ele><time>2026-03-28T15:30:29Z</time></trkpt><trkpt lat="43.58157136486214" lon="10.345809392244135"><ele>5.0</ele><time>2026-03-28T15:30:30Z</time></trkpt><trkpt lat="43.58156922524136" lon="10.346000385167436"><ele>4.5</ele><time>2026-03-28T15:30:31Z</time></trkpt><trkpt lat="43.58156937636534" lon="10.346192474775696"><ele>4.0</ele><time>2026-03-28T15:30:32Z</time></trkpt><trkpt lat="43.58157068010782" lon="10.346402694321322"><ele>3.333333333333333</ele><time>2026-03-28T15:30:33Z</time></trkpt><trkpt lat="43.58155864895487" lon="10.34663267220969"><ele>2.6666666666666665</ele><time>2026-03-28T15:30:34Z</time></trkpt><trkpt lat="43.581563416034406" lon="10.346862998284271"><ele>2.0</ele><time>2026-03-28T15:30:35Z</time></trkpt><trkpt lat="43.581583935284975" lon="10.347086131346739"><ele>2.6666666666666665</ele><time>2026-03-28T15:30:36Z</time></trkpt><trkpt lat="43.58158221835275" lon="10.347301283799517"><ele>3.333333333333333</ele><time>2026-03-28T15:30:37Z</time></trkpt><trkpt lat="43.58155107660828" lon="10.34753154390026"><ele>4.0</ele><time>2026-03-28T15:30:38Z</time></trkpt><trkpt lat="43.581512782109144" lon="10.347798863338607"><ele>4.0</ele><time>2026-03-28T15:30:39Z</time></trkpt><trkpt lat="43.581476510319696" lon="10.34803310730873"><ele>4.0</ele><time>2026-03-28T15:30:40Z</time></trkpt><trkpt lat="43.58145826419444" lon="10.34823508462768"><ele>4.0</ele><time>2026-03-28T15:30:41Z</time></trkpt><trkpt lat="43.58142530301986" lon="10.34843395525151"><ele>4.666666666666666</ele><time>2026-03-28T15:30:42Z</time></trkpt><trkpt lat="43.581414329843675" lon="10.348656401375242"><ele>5.333333333333333</ele><time>2026-03-28T15:30:43Z</time></trkpt><trkpt lat="43.58141945969671" lon="10.348917810861293"><ele>6.0</ele><time>2026-03-28T15:30:44Z</time></trkpt><trkpt lat="43.58142446528711" lon="10.349163397570925"><ele>7.333333333333334</ele><time>2026-03-28T15:30:45Z</time></trkpt><trkpt lat="43.58142488877371" lon="10.349380934609709"><ele>8.666666666666668</ele><time>2026-03-28T15:30:46Z</time></trkpt><trkpt lat="43.58142469880472" lon="10.349596516622654"><ele>10.0</ele><time>2026-03-28T15:30:47Z</time></trkpt><trkpt lat="43.5814234240973" lon="10.349831809363415"><ele>11.0</ele><time>2026-03-28T15:30:48Z</time></trkpt><trkpt lat="43.581427017052484" lon="10.350069021521751"><ele>12.0</ele><time>2026-03-28T15:30:49Z</time></trkpt><trkpt lat="43.581426563276885" lon="10.35030331776681"><ele>13.0</ele><time>2026-03-28T15:30:50Z</time></trkpt><trkpt lat="43.581426209962935" lon="10.350530338737864"><ele>13.333333333333332</ele><time>2026-03-28T15:30:51Z</time></trkpt><trkpt lat="43.58141817905587" lon="10.35075365568445"><ele>13.666666666666668</ele><time>2026-03-28T15:30:52Z</time></trkpt><trkpt lat="43.58143221858663" lon="10.351012513957992"><ele>14.0</ele><time>2026-03-28T15:30:53Z</time></trkpt><trkpt lat="43.581438316063775" lon="10.351315664949368"><ele>14.333333333333334</ele><time>2026-03-28T15:30:54Z</time></trkpt><trkpt lat="43.58144312291344" lon="10.351604097074441"><ele>14.666666666666668</ele><time>2026-03-28T15:30:55Z</time></trkpt><trkpt lat="43.58144658157975" lon="10.351839274709823"><ele>15.0</ele><time>2026-03-28T15:30:56Z</time></trkpt><trkpt lat="43.5814493307083" lon="10.352023865754262"><ele>15.0</ele><time>2026-03-28T15:30:57Z</time></trkpt><trkpt lat="43.581452877233914" lon="10.352172209182545"><ele>15.0</ele><time>2026-03-28T15:30:58Z</time></trkpt><trkpt lat="43.581452938712964" lon="10.352317009425807"><ele>15.0</ele><time>2026-03-28T15:30:59Z</time></trkpt><trkpt lat="43.58145206294246" lon="10.352432160802977"><ele>15.0</ele><time>2026-03-28T15:31:00Z</time></trkpt><trkpt lat="43.58145591720979" lon="10.352568655228502"><ele>15.0</ele><time>2026-03-28T15:31:02Z</time></trkpt><trkpt lat="43.58145703303129" lon="10.352747032077847"><ele>14.25</ele><time>2026-03-28T15:31:04Z</time></trkpt><trkpt lat="43.581450038266176" lon="10.352895872961552"><ele>13.5</ele><time>2026-03-28T15:31:05Z</time></trkpt><trkpt lat="43.58146224723411" lon="10.353089743628308"><ele>12.75</ele><time>2026-03-28T15:31:06Z</time></trkpt><trkpt lat="43.58146570829598" lon="10.353311243279192"><ele>12.0</ele><time>2026-03-28T15:31:07Z</time></trkpt><trkpt lat="43.58148364289128" lon="10.353552470318428"><ele>11.666666666666666</ele><time>2026-03-28T15:31:08Z</time></trkpt><trkpt lat="43.58148683823203" lon="10.353770517616086"><ele>11.333333333333332</ele><time>2026-03-28T15:31:09Z</time></trkpt><trkpt lat="43.581484525962246" lon="10.353989901265615"><ele>11.0</ele><time>2026-03-28T15:31:10Z</time></trkpt><trkpt lat="43.58146993932619" lon="10.354192520595149"><ele>12.5</ele><time>2026-03-28T15:31:11Z</time></trkpt><trkpt lat="43.581439179776176" lon="10.354356834786923"><ele>14.0</ele><time>2026-03-28T15:31:12Z</time></trkpt><trkpt lat="43.58140984889736" lon="10.354518547556319"><ele>15.5</ele><time>2026-03-28T15:31:13Z</time></trkpt><trkpt lat="43.5813895283368" lon="10.354688252768568"><ele>17.0</ele><time>2026-03-28T15:31:14Z</time></trkpt><trkpt lat="43.581363251992734" lon="10.354870887532579"><ele>17.75</ele><time>2026-03-28T15:31:15Z</time></trkpt><trkpt lat="43.581354588610274" lon="10.355032061742524"><ele>18.5</ele><time>2026-03-28T15:31:16Z</time></trkpt><trkpt lat="43.58131920101308" lon="10.355220903530794"><ele>19.25</ele><time>2026-03-28T15:31:17Z</time></trkpt><trkpt lat="43.58129714302346" lon="10.355420280427147"><ele>20.0</ele><time>2026-03-28T15:31:18Z</time></trkpt><trkpt lat="43.58127251965808" lon="10.35561745654566"><ele>18.75</ele><time>2026-03-28T15:31:19Z</time></trkpt><trkpt lat="43.581249426035065" lon="10.355815146736793"><ele>17.5</ele><time>2026-03-28T15:31:20Z</time></trkpt><trkpt lat="43.58121937958266" lon="10.356013197782843"><ele>16.25</ele><time>2026-03-28T15:31:21Z</time></trkpt><trkpt lat="43.58119170694269" lon="10.356208133340015"><ele>15.0</ele><time>2026-03-28T15:31:22Z</time></trkpt><trkpt lat="43.581165614983895" lon="10.356400136799135"><ele>15.0</ele><time>2026-03-28T15:31:23Z</time></trkpt><trkpt lat="43.58112149858576" lon="10.356749295336142"><ele>15.0</ele><time>2026-03-28T15:31:25Z</time></trkpt><trkpt lat="43.58109017767727" lon="10.356941831978755"><ele>15.0</ele><time>2026-03-28T15:31:26Z</time></trkpt><trkpt lat="43.581062281864526" lon="10.357146325915911"><ele>14.666666666666668</ele><time>2026-03-28T15:31:27Z</time></trkpt><trkpt lat="43.581026272310694" lon="10.357392685751952"><ele>14.333333333333334</ele><time>2026-03-28T15:31:28Z</time></trkpt><trkpt lat="43.580996823679264" lon="10.357679019086662"><ele>14.0</ele><time>2026-03-28T15:31:29Z</time></trkpt><trkpt lat="43.58096825075024" lon="10.35790599559439"><ele>14.666666666666668</ele><time>2026-03-28T15:31:30Z</time></trkpt><trkpt lat="43.580934797789496" lon="10.358119824808606"><ele>15.333333333333332</ele><time>2026-03-28T15:31:31Z</time></trkpt><trkpt lat="43.580904148609996" lon="10.358335667282493"><ele>16.0</ele><time>2026-03-28T15:31:32Z</time></trkpt><trkpt lat="43.58087911338373" lon="10.358541432931371"><ele>16.0</ele><time>2026-03-28T15:31:33Z</time></trkpt><trkpt lat="43.58085374670257" lon="10.358730305996945"><ele>16.0</ele><time>2026-03-28T15:31:34Z</time></trkpt><trkpt lat="43.58082768981961" lon="10.358910519949461"><ele>16.0</ele><time>2026-03-28T15:31:35Z</time></trkpt><trkpt lat="43.58080425289149" lon="10.35908205812571"><ele>16.0</ele><time>2026-03-28T15:31:36Z</time></trkpt><trkpt lat="43.58078471435754" lon="10.359241555244028"><ele>15.600000000000001</ele><time>2026-03-28T15:31:37Z</time></trkpt><trkpt lat="43.58076630850424" lon="10.359385903586096"><ele>15.200000000000001</ele><time>2026-03-28T15:31:38Z</time></trkpt><trkpt lat="43.58074752666734" lon="10.359505538563516"><ele>14.799999999999999</ele><time>2026-03-28T15:31:39Z</time></trkpt><trkpt lat="43.580731621905265" lon="10.359618268155966"><ele>14.399999999999999</ele><time>2026-03-28T15:31:40Z</time></trkpt><trkpt lat="43.580716496602086" lon="10.359733969651472"><ele>14.0</ele><time>2026-03-28T15:31:41Z</time></trkpt><trkpt lat="43.58069937842395" lon="10.35985413669103"><ele>14.0</ele><time>2026-03-28T15:31:42Z</time></trkpt><trkpt lat="43.580686815598966" lon="10.359947508945243"><ele>13.999999999999998</ele><time>2026-03-28T15:31:43Z</time></trkpt><trkpt lat="43.58066652468955" lon="10.360045176339003"><ele>13.999999999999998</ele><time>2026-03-28T15:31:44Z</time></trkpt><trkpt lat="43.58065487775667" lon="10.360199038445554"><ele>14.0</ele><time>2026-03-28T15:31:46Z</time></trkpt><trkpt lat="43.580621047769256" lon="10.360391687778334"><ele>14.0</ele><time>2026-03-28T15:31:48Z</time></trkpt><trkpt lat="43.58060530576119" lon="10.36052159926607"><ele>14.500000000000002</ele><time>2026-03-28T15:31:49Z</time></trkpt><trkpt lat="43.580591205036384" lon="10.360651120575241"><ele>15.0</ele><time>2026-03-28T15:31:50Z</time></trkpt><trkpt lat="43.58057861826953" lon="10.360751888454457"><ele>15.5</ele><time>2026-03-28T15:31:51Z</time></trkpt><trkpt lat="43.580566717851376" lon="10.36084436032"><ele>16.0</ele><time>2026-03-28T15:31:52Z</time></trkpt><trkpt lat="43.580557362680295" lon="10.360972883850058"><ele>16.5</ele><time>2026-03-28T15:31:55Z</time></trkpt><trkpt lat="43.58053631428739" lon="10.361059305499998"><ele>17.0</ele><time>2026-03-28T15:31:59Z</time></trkpt><trkpt lat="43.58052513351674" lon="10.361145646699079"><ele>17.0</ele><time>2026-03-28T15:32:03Z</time></trkpt><trkpt lat="43.580521292585445" lon="10.36125317049227"><ele>17.0</ele><time>2026-03-28T15:32:06.001Z</time></trkpt><trkpt lat="43.58049473570406" lon="10.361366664411216"><ele>17.0</ele><time>2026-03-28T15:32:09.001Z</time></trkpt><trkpt lat="43.5804826053643" lon="10.361456854603283"><ele>17.0</ele><time>2026-03-28T15:32:11.001Z</time></trkpt><trkpt lat="43.58048313265129" lon="10.361569414169086"><ele>17.0</ele><time>2026-03-28T15:32:13.001Z</time></trkpt><trkpt lat="43.580465385765514" lon="10.361695190052318"><ele>17.0</ele><time>2026-03-28T15:32:15.001Z</time></trkpt><trkpt lat="43.58043855321058" lon="10.361780377409774"><ele>16.666666666666668</ele><time>2026-03-28T15:32:16.001Z</time></trkpt><trkpt lat="43.580426384154464" lon="10.361868215827409"><ele>16.333333333333336</ele><time>2026-03-28T15:32:17.001Z</time></trkpt><trkpt lat="43.58041395207053" lon="10.36195795281902"><ele>16.0</ele><time>2026-03-28T15:32:18Z</time></trkpt><trkpt lat="43.5804142554502" lon="10.362064289670931"><ele>15.666666666666668</ele><time>2026-03-28T15:32:19Z</time></trkpt><trkpt lat="43.58038424610308" lon="10.362223495164901"><ele>15.333333333333334</ele><time>2026-03-28T15:32:21Z</time></trkpt><trkpt lat="43.58037087225136" lon="10.36236089219888"><ele>15.0</ele><time>2026-03-28T15:32:23Z</time></trkpt><trkpt lat="43.58033296443609" lon="10.362639200033497"><ele>14.75</ele><time>2026-03-28T15:32:26Z</time></trkpt><trkpt lat="43.58030543954562" lon="10.362723697875552"><ele>14.5</ele><time>2026-03-28T15:32:27Z</time></trkpt><trkpt lat="43.5802804767107" lon="10.362885158155644"><ele>14.25</ele><time>2026-03-28T15:32:29Z</time></trkpt><trkpt lat="43.58023893832624" lon="10.36310862988477"><ele>14.0</ele><time>2026-03-28T15:32:32Z</time></trkpt><trkpt lat="43.5802084799273" lon="10.363289131492008"><ele>13.833333333333334</ele><time>2026-03-28T15:32:34Z</time></trkpt><trkpt lat="43.58019473962858" lon="10.363397650243197"><ele>13.666666666666668</ele><time>2026-03-28T15:32:35Z</time></trkpt><trkpt lat="43.58018212143083" lon="10.36349730728422"><ele>13.5</ele><time>2026-03-28T15:32:36Z</time></trkpt><trkpt lat="43.58017019570896" lon="10.363591494937912"><ele>13.333333333333332</ele><time>2026-03-28T15:32:37Z</time></trkpt><trkpt lat="43.58015015843724" lon="10.363749746616358"><ele>13.166666666666666</ele><time>2026-03-28T15:32:39Z</time></trkpt><trkpt lat="43.58013849456666" lon="10.363841866321673"><ele>13.0</ele><time>2026-03-28T15:32:40Z</time></trkpt><trkpt lat="43.58011634259817" lon="10.36401681952722"><ele>13.5</ele><time>2026-03-28T15:32:42Z</time></trkpt><trkpt lat="43.58009758357975" lon="10.36416497561334"><ele>14.0</ele><time>2026-03-28T15:32:44Z</time></trkpt><trkpt lat="43.58007800400278" lon="10.364319612461259"><ele>14.5</ele><time>2026-03-28T15:32:46Z</time></trkpt><trkpt lat="43.58005894599846" lon="10.36447012999972"><ele>15.0</ele><time>2026-03-28T15:32:48Z</time></trkpt><trkpt lat="43.580036038267096" lon="10.364651052059186"><ele>14.833333333333334</ele><time>2026-03-28T15:32:50Z</time></trkpt><trkpt lat="43.580024128265606" lon="10.364745115798213"><ele>14.666666666666668</ele><time>2026-03-28T15:32:51Z</time></trkpt><trkpt lat="43.58000511753095" lon="10.364895259912615"><ele>14.5</ele><time>2026-03-28T15:32:53Z</time></trkpt><trkpt lat="43.57998307578425" lon="10.36506934259677"><ele>14.333333333333334</ele><time>2026-03-28T15:32:55Z</time></trkpt><trkpt lat="43.57997161613378" lon="10.365159849252292"><ele>14.166666666666668</ele><time>2026-03-28T15:32:56Z</time></trkpt><trkpt lat="43.57996025126196" lon="10.365249607548899"><ele>14.0</ele><time>2026-03-28T15:32:57Z</time></trkpt><trkpt lat="43.57994895155959" lon="10.365338851203225"><ele>14.0</ele><time>2026-03-28T15:32:58Z</time></trkpt><trkpt lat="43.57993807873478" lon="10.365424723214593"><ele>13.999999999999998</ele><time>2026-03-28T15:32:59Z</time></trkpt><trkpt lat="43.579931935868956" lon="10.365602427141066"><ele>13.999999999999998</ele><time>2026-03-28T15:33:01Z</time></trkpt><trkpt lat="43.579918869604455" lon="10.365689283830356"><ele>14.0</ele><time>2026-03-28T15:33:02Z</time></trkpt><trkpt lat="43.57989752956298" lon="10.36585519437663"><ele>14.0</ele><time>2026-03-28T15:33:04Z</time></trkpt><trkpt lat="43.57987799441465" lon="10.366025736068039"><ele>14.500000000000002</ele><time>2026-03-28T15:33:06Z</time></trkpt><trkpt lat="43.57986400812221" lon="10.366124793033881"><ele>15.0</ele><time>2026-03-28T15:33:07Z</time></trkpt><trkpt lat="43.579845656058964" lon="10.366222597416392"><ele>15.5</ele><time>2026-03-28T15:33:08Z</time></trkpt><trkpt lat="43.57983674684319" lon="10.366320743050052"><ele>16.0</ele><time>2026-03-28T15:33:09Z</time></trkpt><trkpt lat="43.57982460079406" lon="10.366419964637998"><ele>16.5</ele><time>2026-03-28T15:33:10Z</time></trkpt><trkpt lat="43.57980037421505" lon="10.366584810433055"><ele>17.0</ele><time>2026-03-28T15:33:12Z</time></trkpt><trkpt lat="43.57978896279363" lon="10.36667721463557"><ele>17.0</ele><time>2026-03-28T15:33:13Z</time></trkpt><trkpt lat="43.57976684238629" lon="10.366801630908071"><ele>17.0</ele><time>2026-03-28T15:33:15Z</time></trkpt><trkpt lat="43.57974795958747" lon="10.366919610809328"><ele>17.0</ele><time>2026-03-28T15:33:17Z</time></trkpt><trkpt lat="43.57973380071752" lon="10.367069749043159"><ele>17.0</ele><time>2026-03-28T15:33:19Z</time></trkpt><trkpt lat="43.57971422512098" lon="10.367228849547958"><ele>17.0</ele><time>2026-03-28T15:33:21Z</time></trkpt><trkpt lat="43.57969412011029" lon="10.36737984983448"><ele>17.166666666666668</ele><time>2026-03-28T15:33:23Z</time></trkpt><trkpt lat="43.579673886954446" lon="10.36752940668124"><ele>17.333333333333336</ele><time>2026-03-28T15:33:25Z</time></trkpt><trkpt lat="43.57966615238524" lon="10.36762223271157"><ele>17.5</ele><time>2026-03-28T15:33:26Z</time></trkpt><trkpt lat="43.579653430157705" lon="10.367713783423483"><ele>17.666666666666668</ele><time>2026-03-28T15:33:27Z</time></trkpt><trkpt lat="43.57963964853011" lon="10.367811273776109"><ele>17.833333333333332</ele><time>2026-03-28T15:33:28Z</time></trkpt><trkpt lat="43.579626563401305" lon="10.367897324587002"><ele>18.0</ele><time>2026-03-28T15:33:29Z</time></trkpt><trkpt lat="43.57961629007758" lon="10.367994219421238"><ele>18.0</ele><time>2026-03-28T15:33:30Z</time></trkpt><trkpt lat="43.57960731357539" lon="10.368088285819033"><ele>18.0</ele><time>2026-03-28T15:33:31Z</time></trkpt><trkpt lat="43.57959703730128" lon="10.368184552512817"><ele>18.0</ele><time>2026-03-28T15:33:32Z</time></trkpt><trkpt lat="43.57958177416251" lon="10.368291575419434"><ele>18.0</ele><time>2026-03-28T15:33:33Z</time></trkpt><trkpt lat="43.5795664608876" lon="10.368401576218098"><ele>18.0</ele><time>2026-03-28T15:33:34Z</time></trkpt><trkpt lat="43.579551275441695" lon="10.368517533061619"><ele>18.0</ele><time>2026-03-28T15:33:35Z</time></trkpt><trkpt lat="43.579536133455626" lon="10.368635084215686"><ele>18.0</ele><time>2026-03-28T15:33:36Z</time></trkpt><trkpt lat="43.57952071332759" lon="10.36872885179219"><ele>18.0</ele><time>2026-03-28T15:33:37Z</time></trkpt><trkpt lat="43.579507545678524" lon="10.368833741948057"><ele>18.0</ele><time>2026-03-28T15:33:38Z</time></trkpt><trkpt lat="43.579494978183185" lon="10.368925005127066"><ele>18.0</ele><time>2026-03-28T15:33:39Z</time></trkpt><trkpt lat="43.57947544572693" lon="10.36907315221505"><ele>18.0</ele><time>2026-03-28T15:33:41Z</time></trkpt><trkpt lat="43.579456841893176" lon="10.369203855160873"><ele>18.0</ele><time>2026-03-28T15:33:43Z</time></trkpt><trkpt lat="43.5794099959914" lon="10.369323976655174"><ele>18.2</ele><time>2026-03-28T15:33:45Z</time></trkpt><trkpt lat="43.57931789460779" lon="10.369346577362146"><ele>18.4</ele><time>2026-03-28T15:33:47Z</time></trkpt><trkpt lat="43.579223619811735" lon="10.369388994039234"><ele>18.599999999999998</ele><time>2026-03-28T15:33:49Z</time></trkpt><trkpt lat="43.579141288519125" lon="10.369449157317602"><ele>18.8</ele><time>2026-03-28T15:33:51Z</time></trkpt><trkpt lat="43.579078484592266" lon="10.369474384103333"><ele>19.0</ele><time>2026-03-28T15:33:52Z</time></trkpt><trkpt lat="43.57897116030488" lon="10.369516469772556"><ele>19.0</ele><time>2026-03-28T15:33:54Z</time></trkpt><trkpt lat="43.578908795627996" lon="10.369553573768494"><ele>19.0</ele><time>2026-03-28T15:33:55Z</time></trkpt><trkpt lat="43.57884526597003" lon="10.369578061335764"><ele>19.0</ele><time>2026-03-28T15:33:56Z</time></trkpt><trkpt lat="43.578780143402646" lon="10.369609235421521"><ele>19.0</ele><time>2026-03-28T15:33:57Z</time></trkpt><trkpt lat="43.578700657641384" lon="10.36962245089601"><ele>19.0</ele><time>2026-03-28T15:33:58Z</time></trkpt><trkpt lat="43.57859296919731" lon="10.369658177168315"><ele>19.0</ele><time>2026-03-28T15:34:00Z</time></trkpt><trkpt lat="43.578477708309414" lon="10.36968755384678"><ele>18.25</ele><time>2026-03-28T15:34:02Z</time></trkpt><trkpt lat="43.57835746530852" lon="10.36972989353544"><ele>17.5</ele><time>2026-03-28T15:34:04Z</time></trkpt><trkpt lat="43.578184818266415" lon="10.369752821534393"><ele>16.75</ele><time>2026-03-28T15:34:07Z</time></trkpt><trkpt lat="43.57806969690236" lon="10.369773097153823"><ele>16.0</ele><time>2026-03-28T15:34:09Z</time></trkpt><trkpt lat="43.57797078236075" lon="10.3697820185268"><ele>16.0</ele><time>2026-03-28T15:34:11.001Z</time></trkpt><trkpt lat="43.57788690968358" lon="10.369801464491614"><ele>16.0</ele><time>2026-03-28T15:34:14.001Z</time></trkpt><trkpt lat="43.57779691677867" lon="10.369791931644835"><ele>16.0</ele><time>2026-03-28T15:34:16.001Z</time></trkpt><trkpt lat="43.57767194149137" lon="10.369809545419251"><ele>16.0</ele><time>2026-03-28T15:34:18.001Z</time></trkpt><trkpt lat="43.57756334425596" lon="10.369824850912932"><ele>16.0</ele><time>2026-03-28T15:34:20.001Z</time></trkpt><trkpt lat="43.57748177735613" lon="10.369836346793868"><ele>15.333333333333332</ele><time>2026-03-28T15:34:22.001Z</time></trkpt><trkpt lat="43.577396538910385" lon="10.369870386827797"><ele>14.666666666666666</ele><time>2026-03-28T15:34:24.001Z</time></trkpt><trkpt lat="43.57731949988604" lon="10.369885807381102"><ele>14.0</ele><time>2026-03-28T15:34:26.001Z</time></trkpt><trkpt lat="43.57724328125783" lon="10.369893434265336"><ele>13.333333333333332</ele><time>2026-03-28T15:34:28.001Z</time></trkpt><trkpt lat="43.57717883526518" lon="10.369898966049753"><ele>12.666666666666666</ele><time>2026-03-28T15:34:38Z</time></trkpt><trkpt lat="43.57707506763015" lon="10.369832674584476"><ele>12.0</ele><time>2026-03-28T15:34:40Z</time></trkpt><trkpt lat="43.57695326585514" lon="10.369804021051639"><ele>11.166666666666666</ele><time>2026-03-28T15:34:42Z</time></trkpt><trkpt lat="43.57683001437856" lon="10.369788765710638"><ele>10.333333333333334</ele><time>2026-03-28T15:34:44Z</time></trkpt><trkpt lat="43.57676378429473" lon="10.369795482988604"><ele>9.5</ele><time>2026-03-28T15:34:45Z</time></trkpt><trkpt lat="43.57669651191261" lon="10.369809080253507"><ele>8.666666666666668</ele><time>2026-03-28T15:34:46Z</time></trkpt><trkpt lat="43.576628041182104" lon="10.369821946266416"><ele>7.833333333333334</ele><time>2026-03-28T15:34:47Z</time></trkpt><trkpt lat="43.576550798814544" lon="10.369840069833392"><ele>7.0</ele><time>2026-03-28T15:34:48Z</time></trkpt><trkpt lat="43.5764667626362" lon="10.36983343714602"><ele>7.0</ele><time>2026-03-28T15:34:49Z</time></trkpt><trkpt lat="43.576367746346804" lon="10.369849739821742"><ele>6.999999999999999</ele><time>2026-03-28T15:34:50Z</time></trkpt><trkpt lat="43.57629028623468" lon="10.369888060317422"><ele>6.999999999999999</ele><time>2026-03-28T15:34:51Z</time></trkpt><trkpt lat="43.57618075729153" lon="10.369908674181087"><ele>7.0</ele><time>2026-03-28T15:34:53Z</time></trkpt><trkpt lat="43.5760604910795" lon="10.369948006808155"><ele>7.0</ele><time>2026-03-28T15:34:55Z</time></trkpt><trkpt lat="43.57599842059632" lon="10.369977557183725"><ele>7.0</ele><time>2026-03-28T15:34:56Z</time></trkpt><trkpt lat="43.575933881563685" lon="10.370013861944006"><ele>7.0</ele><time>2026-03-28T15:34:57Z</time></trkpt><trkpt lat="43.57586686090609" lon="10.370064216678259"><ele>7.0</ele><time>2026-03-28T15:34:58Z</time></trkpt><trkpt lat="43.57580944832675" lon="10.370102478439083"><ele>7.0</ele><time>2026-03-28T15:34:59Z</time></trkpt><trkpt lat="43.57574188340599" lon="10.370154680420216"><ele>7.0</ele><time>2026-03-28T15:35:01Z</time></trkpt><trkpt lat="43.575680411080455" lon="10.370179187228084"><ele>7.0</ele><time>2026-03-28T15:35:05Z</time></trkpt><trkpt lat="43.57560626872738" lon="10.370190178779396"><ele>7.0</ele><time>2026-03-28T15:35:52Z</time></trkpt><trkpt lat="43.5754994888255" lon="10.37022250741051"><ele>7.000000000000001</ele><time>2026-03-28T15:35:54Z</time></trkpt><trkpt lat="43.575412209140474" lon="10.370241055338097"><ele>7.0</ele><time>2026-03-28T15:35:56Z</time></trkpt><trkpt lat="43.575313522503514" lon="10.370251217014168"><ele>7.0</ele><time>2026-03-28T15:35:58Z</time></trkpt><trkpt lat="43.57524547886562" lon="10.370249685413976"><ele>7.0</ele><time>2026-03-28T15:36:00Z</time></trkpt><trkpt lat="43.575206161818286" lon="10.370162029314509"><ele>7.000000000000001</ele><time>2026-03-28T15:36:04Z</time></trkpt><trkpt lat="43.57521625228391" lon="10.370055030003716"><ele>7.0</ele><time>2026-03-28T15:36:06Z</time></trkpt><trkpt lat="43.575231813791824" lon="10.369910829617465"><ele>7.500000000000001</ele><time>2026-03-28T15:36:08Z</time></trkpt><trkpt lat="43.57524142691745" lon="10.369808812757771"><ele>8.0</ele><time>2026-03-28T15:36:09Z</time></trkpt><trkpt lat="43.575253100093" lon="10.36969152862846"><ele>8.5</ele><time>2026-03-28T15:36:10Z</time></trkpt><trkpt lat="43.575261409627714" lon="10.369588183301254"><ele>9.0</ele><time>2026-03-28T15:36:11Z</time></trkpt><trkpt lat="43.575259144258766" lon="10.36943758488859"><ele>9.5</ele><time>2026-03-28T15:36:13Z</time></trkpt><trkpt lat="43.57524693180009" lon="10.369302920242506"><ele>10.0</ele><time>2026-03-28T15:36:15.001Z</time></trkpt><trkpt lat="43.575237192602074" lon="10.36919915576585"><ele>10.0</ele><time>2026-03-28T15:36:16.001Z</time></trkpt><trkpt lat="43.5752249027878" lon="10.369062082680623"><ele>10.0</ele><time>2026-03-28T15:36:17.001Z</time></trkpt><trkpt lat="43.57521087137325" lon="10.368939057400555"><ele>10.0</ele><time>2026-03-28T15:36:18.001Z</time></trkpt><trkpt lat="43.575199754080565" lon="10.368817592930142"><ele>10.0</ele><time>2026-03-28T15:36:19.001Z</time></trkpt><trkpt lat="43.5751909297895" lon="10.36868545007669"><ele>10.0</ele><time>2026-03-28T15:36:20.001Z</time></trkpt><trkpt lat="43.57518315579521" lon="10.368554533244469"><ele>9.833333333333334</ele><time>2026-03-28T15:36:21.001Z</time></trkpt><trkpt lat="43.57517238502278" lon="10.368418984973813"><ele>9.666666666666668</ele><time>2026-03-28T15:36:22.001Z</time></trkpt><trkpt lat="43.57515757039169" lon="10.368301705295929"><ele>9.5</ele><time>2026-03-28T15:36:23.001Z</time></trkpt><trkpt lat="43.57514051537724" lon="10.368181425201353"><ele>9.333333333333334</ele><time>2026-03-28T15:36:24.001Z</time></trkpt><trkpt lat="43.57512006184016" lon="10.36806594979562"><ele>9.166666666666666</ele><time>2026-03-28T15:36:25.001Z</time></trkpt><trkpt lat="43.575107932796634" lon="10.36797830987113"><ele>9.0</ele><time>2026-03-28T15:36:26.001Z</time></trkpt><trkpt lat="43.5750999449072" lon="10.36782066401613"><ele>8.4</ele><time>2026-03-28T15:36:28.001Z</time></trkpt><trkpt lat="43.57509524581443" lon="10.367729194350243"><ele>7.800000000000001</ele><time>2026-03-28T15:36:29.001Z</time></trkpt><trkpt lat="43.57509042159568" lon="10.367597775484498"><ele>7.199999999999999</ele><time>2026-03-28T15:36:31.001Z</time></trkpt><trkpt lat="43.5750692687458" lon="10.367448428855234"><ele>6.6</ele><time>2026-03-28T15:36:33Z</time></trkpt><trkpt lat="43.57507739856268" lon="10.367578026129713"><ele>6.0</ele><time>2026-03-28T15:36:54Z</time></trkpt><trkpt lat="43.57509740216457" lon="10.367744410632056"><ele>6.0</ele><time>2026-03-28T15:36:55Z</time></trkpt><trkpt lat="43.57512130488094" lon="10.367909073513422"><ele>6.0</ele><time>2026-03-28T15:36:56Z</time></trkpt><trkpt lat="43.575121898165406" lon="10.367999316708053"><ele>6.0</ele><time>2026-03-28T15:36:57Z</time></trkpt><trkpt lat="43.575135400073805" lon="10.36816452569316"><ele>6.0</ele><time>2026-03-28T15:36:59Z</time></trkpt><trkpt lat="43.57515206311717" lon="10.368316333335773"><ele>6.0</ele><time>2026-03-28T15:37:00Z</time></trkpt><trkpt lat="43.57517070578413" lon="10.368481584718976"><ele>6.6</ele><time>2026-03-28T15:37:01Z</time></trkpt><trkpt lat="43.57518061577036" lon="10.368637487305186"><ele>7.199999999999999</ele><time>2026-03-28T15:37:02Z</time></trkpt><trkpt lat="43.57518830169384" lon="10.368747884303627"><ele>7.800000000000001</ele><time>2026-03-28T15:37:03Z</time></trkpt><trkpt lat="43.57519542723151" lon="10.368841535667105"><ele>8.4</ele><time>2026-03-28T15:37:05Z</time></trkpt><trkpt lat="43.57521673023953" lon="10.36897770403042"><ele>9.0</ele><time>2026-03-28T15:37:07Z</time></trkpt><trkpt lat="43.5752310410449" lon="10.369116446443956"><ele>9.2</ele><time>2026-03-28T15:37:08Z</time></trkpt><trkpt lat="43.57524374452492" lon="10.3692933137539"><ele>9.4</ele><time>2026-03-28T15:37:09Z</time></trkpt><trkpt lat="43.57525381839334" lon="10.369454634241272"><ele>9.6</ele><time>2026-03-28T15:37:10Z</time></trkpt><trkpt lat="43.57526068503374" lon="10.369592904945922"><ele>9.8</ele><time>2026-03-28T15:37:11Z</time></trkpt><trkpt lat="43.57525334246604" lon="10.369731603387535"><ele>10.0</ele><time>2026-03-28T15:37:12Z</time></trkpt><trkpt lat="43.57524288079626" lon="10.369853732616905"><ele>10.0</ele><time>2026-03-28T15:37:13Z</time></trkpt><trkpt lat="43.57522670341918" lon="10.36995157760337"><ele>10.0</ele><time>2026-03-28T15:37:14Z</time></trkpt><trkpt lat="43.57521091789946" lon="10.370115265317624"><ele>10.0</ele><time>2026-03-28T15:37:16Z</time></trkpt><trkpt lat="43.57518971949776" lon="10.370210234958055"><ele>10.0</ele><time>2026-03-28T15:37:18Z</time></trkpt><trkpt lat="43.57527280291749" lon="10.370274073680415"><ele>10.0</ele><time>2026-03-28T15:37:28Z</time></trkpt><trkpt lat="43.57534178266465" lon="10.370258139479965"><ele>10.0</ele><time>2026-03-28T15:37:29Z</time></trkpt><trkpt lat="43.57542262216047" lon="10.370256028491655"><ele>9.5</ele><time>2026-03-28T15:37:31Z</time></trkpt><trkpt lat="43.57551775687111" lon="10.370214017443507"><ele>9.0</ele><time>2026-03-28T15:37:34Z</time></trkpt><trkpt lat="43.57559802304457" lon="10.37019554560936"><ele>8.5</ele><time>2026-03-28T15:37:36Z</time></trkpt><trkpt lat="43.57566526356986" lon="10.370166539931313"><ele>8.0</ele><time>2026-03-28T15:37:41Z</time></trkpt><trkpt lat="43.57572260036653" lon="10.370117555103043"><ele>7.500000000000001</ele><time>2026-03-28T15:37:47Z</time></trkpt><trkpt lat="43.57580673183827" lon="10.370151039571756"><ele>7.0</ele><time>2026-03-28T15:37:52Z</time></trkpt><trkpt lat="43.575878526315826" lon="10.370148730435792"><ele>7.000000000000001</ele><time>2026-03-28T15:37:54Z</time></trkpt><trkpt lat="43.57595096105154" lon="10.370110784841554"><ele>7.0</ele><time>2026-03-28T15:37:57Z</time></trkpt><trkpt lat="43.57597864141137" lon="10.370011633293956"><ele>7.0</ele><time>2026-03-28T15:40:16Z</time></trkpt><trkpt lat="43.576051921558424" lon="10.36994473123809"><ele>7.0</ele><time>2026-03-28T15:40:18Z</time></trkpt><trkpt lat="43.57617962567148" lon="10.369922651338124"><ele>7.000000000000001</ele><time>2026-03-28T15:40:20Z</time></trkpt><trkpt lat="43.57624353232632" lon="10.369908958972635"><ele>7.0</ele><time>2026-03-28T15:40:21Z</time></trkpt><trkpt lat="43.57630787796176" lon="10.369893822980384"><ele>7.0</ele><time>2026-03-28T15:40:22Z</time></trkpt><trkpt lat="43.57638158956439" lon="10.369878494001854"><ele>6.999999999999999</ele><time>2026-03-28T15:40:23Z</time></trkpt><trkpt lat="43.57647582892085" lon="10.369862779838847"><ele>6.999999999999999</ele><time>2026-03-28T15:40:24Z</time></trkpt><trkpt lat="43.57659009605735" lon="10.36983954712124"><ele>7.0</ele><time>2026-03-28T15:40:25Z</time></trkpt><trkpt lat="43.57668496557346" lon="10.369820043560333"><ele>7.0</ele><time>2026-03-28T15:40:26Z</time></trkpt><trkpt lat="43.57676580583955" lon="10.369806074291125"><ele>7.0</ele><time>2026-03-28T15:40:27Z</time></trkpt><trkpt lat="43.57683291089479" lon="10.36979791753619"><ele>6.999999999999999</ele><time>2026-03-28T15:40:28Z</time></trkpt><trkpt lat="43.57693906918115" lon="10.369809871904101"><ele>6.999999999999999</ele><time>2026-03-28T15:40:30Z</time></trkpt><trkpt lat="43.57703590200689" lon="10.369862629466185"><ele>7.0</ele><time>2026-03-28T15:40:32Z</time></trkpt><trkpt lat="43.57711039204996" lon="10.3699097096932"><ele>7.0</ele><time>2026-03-28T15:40:34Z</time></trkpt><trkpt lat="43.5772016704725" lon="10.369944701276939"><ele>8.0</ele><time>2026-03-28T15:40:36Z</time></trkpt><trkpt lat="43.577311496748855" lon="10.37000776792292"><ele>9.0</ele><time>2026-03-28T15:40:38Z</time></trkpt><trkpt lat="43.577384047118066" lon="10.370066046612338"><ele>10.0</ele><time>2026-03-28T15:40:40Z</time></trkpt><trkpt lat="43.57744953137887" lon="10.370098462272207"><ele>11.0</ele><time>2026-03-28T15:40:59Z</time></trkpt><trkpt lat="43.577487436473355" lon="10.370255066280386"><ele>12.0</ele><time>2026-03-28T15:41:02Z</time></trkpt><trkpt lat="43.577507810589644" lon="10.370365944447183"><ele>12.0</ele><time>2026-03-28T15:41:04Z</time></trkpt><trkpt lat="43.577521097283714" lon="10.37045319602024"><ele>12.0</ele><time>2026-03-28T15:41:06Z</time></trkpt><trkpt lat="43.57754115586886" lon="10.370544281809378"><ele>12.0</ele><time>2026-03-28T15:41:23Z</time></trkpt><trkpt lat="43.57757493857737" lon="10.370679165293087"><ele>12.0</ele><time>2026-03-28T15:41:25Z</time></trkpt><trkpt lat="43.57761132929946" lon="10.3708499495568"><ele>12.0</ele><time>2026-03-28T15:41:27Z</time></trkpt><trkpt lat="43.57763471787355" lon="10.370941724333278"><ele>12.0</ele><time>2026-03-28T15:41:28Z</time></trkpt><trkpt lat="43.577664305121424" lon="10.371106863633887"><ele>11.5</ele><time>2026-03-28T15:41:30Z</time></trkpt><trkpt lat="43.577676603497956" lon="10.371197596235588"><ele>11.0</ele><time>2026-03-28T15:41:31Z</time></trkpt><trkpt lat="43.577682696722874" lon="10.371290196913801"><ele>10.5</ele><time>2026-03-28T15:41:32Z</time></trkpt><trkpt lat="43.57768344140681" lon="10.371457902451645"><ele>10.0</ele><time>2026-03-28T15:41:34Z</time></trkpt><trkpt lat="43.57768328945677" lon="10.37154607003774"><ele>9.5</ele><time>2026-03-28T15:41:35Z</time></trkpt><trkpt lat="43.577680949321916" lon="10.371635696531781"><ele>9.0</ele><time>2026-03-28T15:41:36Z</time></trkpt><trkpt lat="43.577676511630166" lon="10.371732253509588"><ele>9.0</ele><time>2026-03-28T15:41:37Z</time></trkpt><trkpt lat="43.5776685780015" lon="10.371842302147632"><ele>9.0</ele><time>2026-03-28T15:41:38Z</time></trkpt><trkpt lat="43.5776598191803" lon="10.371966091424762"><ele>9.0</ele><time>2026-03-28T15:41:39Z</time></trkpt><trkpt lat="43.577648240342654" lon="10.372085733161587"><ele>9.0</ele><time>2026-03-28T15:41:40Z</time></trkpt><trkpt lat="43.57763026299774" lon="10.372209585140286"><ele>9.0</ele><time>2026-03-28T15:41:41Z</time></trkpt><trkpt lat="43.57760685914769" lon="10.372345279676404"><ele>9.6</ele><time>2026-03-28T15:41:42Z</time></trkpt><trkpt lat="43.577578205209505" lon="10.372465258273253"><ele>10.2</ele><time>2026-03-28T15:41:43Z</time></trkpt><trkpt lat="43.57755118722539" lon="10.372578024803337"><ele>10.799999999999999</ele><time>2026-03-28T15:41:44Z</time></trkpt><trkpt lat="43.57752338701292" lon="10.37272495255243"><ele>11.4</ele><time>2026-03-28T15:41:45Z</time></trkpt><trkpt lat="43.57749287432257" lon="10.372850476188415"><ele>12.0</ele><time>2026-03-28T15:41:46Z</time></trkpt><trkpt lat="43.577460707207955" lon="10.372982218900564"><ele>12.2</ele><time>2026-03-28T15:41:47Z</time></trkpt><trkpt lat="43.57743079742923" lon="10.37313211448984"><ele>12.399999999999999</ele><time>2026-03-28T15:41:48Z</time></trkpt><trkpt lat="43.57739698782589" lon="10.373275657548174"><ele>12.600000000000001</ele><time>2026-03-28T15:41:49Z</time></trkpt><trkpt lat="43.577366573932835" lon="10.373411898398986"><ele>12.8</ele><time>2026-03-28T15:41:50Z</time></trkpt><trkpt lat="43.57733072403192" lon="10.373544712996798"><ele>13.0</ele><time>2026-03-28T15:41:51Z</time></trkpt><trkpt lat="43.577296700306995" lon="10.373687729349088"><ele>13.0</ele><time>2026-03-28T15:41:52Z</time></trkpt><trkpt lat="43.57726699830242" lon="10.373820606208708"><ele>13.0</ele><time>2026-03-28T15:41:53Z</time></trkpt><trkpt lat="43.5772368413176" lon="10.373961360425564"><ele>13.0</ele><time>2026-03-28T15:41:54Z</time></trkpt><trkpt lat="43.57720334067681" lon="10.374099891313888"><ele>13.0</ele><time>2026-03-28T15:41:55Z</time></trkpt><trkpt lat="43.57717053082986" lon="10.374243091039434"><ele>13.0</ele><time>2026-03-28T15:41:56Z</time></trkpt><trkpt lat="43.57713944571133" lon="10.374379992223785"><ele>12.4</ele><time>2026-03-28T15:41:57Z</time></trkpt><trkpt lat="43.57710782371026" lon="10.374515673237148"><ele>11.8</ele><time>2026-03-28T15:41:58Z</time></trkpt><trkpt lat="43.57707978277142" lon="10.374635542168134"><ele>11.2</ele><time>2026-03-28T15:41:59Z</time></trkpt><trkpt lat="43.57704796309193" lon="10.37477020543414"><ele>10.6</ele><time>2026-03-28T15:42:00Z</time></trkpt><trkpt lat="43.5770234150471" lon="10.374894116524104"><ele>10.0</ele><time>2026-03-28T15:42:01Z</time></trkpt><trkpt lat="43.57699329059831" lon="10.375031156621013"><ele>10.0</ele><time>2026-03-28T15:42:01.999Z</time></trkpt><trkpt lat="43.57695946003817" lon="10.37517722761937"><ele>10.0</ele><time>2026-03-28T15:42:02.999Z</time></trkpt><trkpt lat="43.57692933899315" lon="10.375314146496724"><ele>10.0</ele><time>2026-03-28T15:42:03.999Z</time></trkpt><trkpt lat="43.576892200255074" lon="10.375452684662175"><ele>10.0</ele><time>2026-03-28T15:42:04.999Z</time></trkpt><trkpt lat="43.576855695088646" lon="10.375598304500464"><ele>10.0</ele><time>2026-03-28T15:42:05.999Z</time></trkpt><trkpt lat="43.57682545297784" lon="10.375734068065336"><ele>10.2</ele><time>2026-03-28T15:42:06.999Z</time></trkpt><trkpt lat="43.576793074241735" lon="10.375881081988897"><ele>10.4</ele><time>2026-03-28T15:42:07.999Z</time></trkpt><trkpt lat="43.576765018324664" lon="10.376020102606041"><ele>10.600000000000001</ele><time>2026-03-28T15:42:08.999Z</time></trkpt><trkpt lat="43.576732424263" lon="10.376171500812884"><ele>10.8</ele><time>2026-03-28T15:42:09.999Z</time></trkpt><trkpt lat="43.57669332222008" lon="10.37632200679809"><ele>11.0</ele><time>2026-03-28T15:42:10.999Z</time></trkpt><trkpt lat="43.57665175689404" lon="10.37646744268294"><ele>11.4</ele><time>2026-03-28T15:42:11.999Z</time></trkpt><trkpt lat="43.576616508177615" lon="10.376602243728712"><ele>11.8</ele><time>2026-03-28T15:42:12.999Z</time></trkpt><trkpt lat="43.57658608838907" lon="10.376732229158005"><ele>12.200000000000001</ele><time>2026-03-28T15:42:13.999Z</time></trkpt><trkpt lat="43.576555530332726" lon="10.376861822660697"><ele>12.600000000000001</ele><time>2026-03-28T15:42:14.999Z</time></trkpt><trkpt lat="43.57653711264783" lon="10.376974204517975"><ele>13.0</ele><time>2026-03-28T15:42:15.999Z</time></trkpt><trkpt lat="43.57651528871193" lon="10.377105653068915"><ele>14.4</ele><time>2026-03-28T15:42:16.999Z</time></trkpt><trkpt lat="43.57649176868069" lon="10.377232027092232"><ele>15.8</ele><time>2026-03-28T15:42:17.999Z</time></trkpt><trkpt lat="43.57646747663974" lon="10.377368423899037"><ele>17.2</ele><time>2026-03-28T15:42:18.999Z</time></trkpt><trkpt lat="43.57643930318156" lon="10.377500783652726"><ele>18.6</ele><time>2026-03-28T15:42:19.999Z</time></trkpt><trkpt lat="43.576395388900636" lon="10.377625530457006"><ele>20.0</ele><time>2026-03-28T15:42:20.999Z</time></trkpt><trkpt lat="43.57634739550442" lon="10.3777411270536"><ele>20.0</ele><time>2026-03-28T15:42:21.999Z</time></trkpt><trkpt lat="43.57630240640856" lon="10.377853937881587"><ele>20.0</ele><time>2026-03-28T15:42:22.999Z</time></trkpt><trkpt lat="43.576256556199745" lon="10.377976243735592"><ele>20.0</ele><time>2026-03-28T15:42:23.999Z</time></trkpt><trkpt lat="43.57621959442576" lon="10.37809070836291"><ele>20.0</ele><time>2026-03-28T15:42:24.999Z</time></trkpt><trkpt lat="43.57619192249966" lon="10.378220940830062"><ele>20.0</ele><time>2026-03-28T15:42:25.999Z</time></trkpt><trkpt lat="43.57616841636268" lon="10.378361515964306"><ele>18.8</ele><time>2026-03-28T15:42:26.999Z</time></trkpt><trkpt lat="43.57614817635065" lon="10.378483587812818"><ele>17.6</ele><time>2026-03-28T15:42:27.999Z</time></trkpt><trkpt lat="43.57612897161865" lon="10.37861496407435"><ele>16.4</ele><time>2026-03-28T15:42:28.999Z</time></trkpt><trkpt lat="43.576106787142116" lon="10.37873510651091"><ele>15.2</ele><time>2026-03-28T15:42:29.999Z</time></trkpt><trkpt lat="43.5760853284664" lon="10.378865745288243"><ele>14.0</ele><time>2026-03-28T15:42:30.999Z</time></trkpt><trkpt lat="43.57606904181239" lon="10.378997590258255"><ele>14.000000000000002</ele><time>2026-03-28T15:42:32Z</time></trkpt><trkpt lat="43.576053858590875" lon="10.37911669445912"><ele>14.0</ele><time>2026-03-28T15:42:33Z</time></trkpt><trkpt lat="43.57603551672298" lon="10.379235032917274"><ele>14.0</ele><time>2026-03-28T15:42:34Z</time></trkpt><trkpt lat="43.57602335404081" lon="10.379344683333104"><ele>14.0</ele><time>2026-03-28T15:42:35Z</time></trkpt><trkpt lat="43.57601714483349" lon="10.379444402038667"><ele>14.000000000000002</ele><time>2026-03-28T15:42:36Z</time></trkpt><trkpt lat="43.57602093051598" lon="10.379555557541654"><ele>14.0</ele><time>2026-03-28T15:42:37Z</time></trkpt><trkpt lat="43.5760284854108" lon="10.37966519264147"><ele>14.166666666666668</ele><time>2026-03-28T15:42:38Z</time></trkpt><trkpt lat="43.57606197291873" lon="10.379832080114964"><ele>14.333333333333334</ele><time>2026-03-28T15:42:40Z</time></trkpt><trkpt lat="43.57607975461951" lon="10.37992554414307"><ele>14.5</ele><time>2026-03-28T15:42:41Z</time></trkpt><trkpt lat="43.57609768212907" lon="10.380031327893212"><ele>14.666666666666668</ele><time>2026-03-28T15:42:42Z</time></trkpt><trkpt lat="43.576108675908536" lon="10.380139973669701"><ele>14.833333333333334</ele><time>2026-03-28T15:42:43Z</time></trkpt><trkpt lat="43.57611161869871" lon="10.380267567587156"><ele>15.0</ele><time>2026-03-28T15:42:44Z</time></trkpt><trkpt lat="43.576114721668525" lon="10.380404801913715"><ele>15.0</ele><time>2026-03-28T15:42:45Z</time></trkpt><trkpt lat="43.57611625646652" lon="10.380531516504549"><ele>15.0</ele><time>2026-03-28T15:42:46Z</time></trkpt><trkpt lat="43.576121955280044" lon="10.38066372468395"><ele>15.0</ele><time>2026-03-28T15:42:47Z</time></trkpt><trkpt lat="43.576127024392584" lon="10.38078911689743"><ele>15.0</ele><time>2026-03-28T15:42:48Z</time></trkpt><trkpt lat="43.57613875035104" lon="10.380923861660422"><ele>15.0</ele><time>2026-03-28T15:42:49Z</time></trkpt><trkpt lat="43.576147523629075" lon="10.381049211026706"><ele>15.0</ele><time>2026-03-28T15:42:50Z</time></trkpt><trkpt lat="43.576156679264066" lon="10.38117484132754"><ele>15.0</ele><time>2026-03-28T15:42:51Z</time></trkpt><trkpt lat="43.576164822136555" lon="10.381313677679325"><ele>15.0</ele><time>2026-03-28T15:42:52Z</time></trkpt><trkpt lat="43.57616817902641" lon="10.38143116103123"><ele>15.0</ele><time>2026-03-28T15:42:53Z</time></trkpt><trkpt lat="43.57617487443318" lon="10.381556943827556"><ele>15.0</ele><time>2026-03-28T15:42:54Z</time></trkpt><trkpt lat="43.57618331085035" lon="10.38168639755278"><ele>15.833333333333334</ele><time>2026-03-28T15:42:55Z</time></trkpt><trkpt lat="43.57618732481494" lon="10.38181518371845"><ele>16.666666666666668</ele><time>2026-03-28T15:42:56Z</time></trkpt><trkpt lat="43.5761880359517" lon="10.381936833851343"><ele>17.5</ele><time>2026-03-28T15:42:57Z</time></trkpt><trkpt lat="43.576192197658784" lon="10.382055933152067"><ele>18.333333333333336</ele><time>2026-03-28T15:42:58Z</time></trkpt><trkpt lat="43.576199525146976" lon="10.382170133038997"><ele>19.166666666666668</ele><time>2026-03-28T15:42:59Z</time></trkpt><trkpt lat="43.5762036617939" lon="10.382277184939541"><ele>20.0</ele><time>2026-03-28T15:43:00Z</time></trkpt><trkpt lat="43.576206263187274" lon="10.382387256085675"><ele>20.0</ele><time>2026-03-28T15:43:01Z</time></trkpt><trkpt lat="43.57621672827076" lon="10.382511008396508"><ele>20.0</ele><time>2026-03-28T15:43:02Z</time></trkpt><trkpt lat="43.57621915651122" lon="10.382630474236429"><ele>20.0</ele><time>2026-03-28T15:43:03Z</time></trkpt><trkpt lat="43.57622304025929" lon="10.382760653708267"><ele>20.0</ele><time>2026-03-28T15:43:04Z</time></trkpt><trkpt lat="43.576230019733515" lon="10.382893357093144"><ele>20.0</ele><time>2026-03-28T15:43:05Z</time></trkpt><trkpt lat="43.576235586008025" lon="10.383023627586024"><ele>20.2</ele><time>2026-03-28T15:43:06Z</time></trkpt><trkpt lat="43.57624486297585" lon="10.383164548630457"><ele>20.4</ele><time>2026-03-28T15:43:07Z</time></trkpt><trkpt lat="43.57625561043945" lon="10.383304570258487"><ele>20.6</ele><time>2026-03-28T15:43:08Z</time></trkpt><trkpt lat="43.576260007348836" lon="10.383436714445482"><ele>20.8</ele><time>2026-03-28T15:43:09Z</time></trkpt><trkpt lat="43.576261719077735" lon="10.383565961963646"><ele>21.0</ele><time>2026-03-28T15:43:10Z</time></trkpt><trkpt lat="43.57626853760289" lon="10.383701768136808"><ele>21.0</ele><time>2026-03-28T15:43:11Z</time></trkpt><trkpt lat="43.57627379705518" lon="10.383837262244535"><ele>21.0</ele><time>2026-03-28T15:43:12Z</time></trkpt><trkpt lat="43.57628463925747" lon="10.383977475893197"><ele>21.0</ele><time>2026-03-28T15:43:13Z</time></trkpt><trkpt lat="43.57628924686915" lon="10.38411788544499"><ele>21.0</ele><time>2026-03-28T15:43:14Z</time></trkpt><trkpt lat="43.576285610037125" lon="10.384258385010579"><ele>21.0</ele><time>2026-03-28T15:43:15Z</time></trkpt><trkpt lat="43.57628292527133" lon="10.384402287574249"><ele>22.5</ele><time>2026-03-28T15:43:16Z</time></trkpt><trkpt lat="43.57629269388719" lon="10.384512429193315"><ele>24.0</ele><time>2026-03-28T15:43:17Z</time></trkpt><trkpt lat="43.57630287693015" lon="10.384630232652885"><ele>25.5</ele><time>2026-03-28T15:43:18Z</time></trkpt><trkpt lat="43.57631266524563" lon="10.384765018252663"><ele>27.0</ele><time>2026-03-28T15:43:19Z</time></trkpt><trkpt lat="43.57632622301202" lon="10.384893276703554"><ele>28.5</ele><time>2026-03-28T15:43:20Z</time></trkpt><trkpt lat="43.57633155833548" lon="10.385006200617902"><ele>30.0</ele><time>2026-03-28T15:43:21Z</time></trkpt><trkpt lat="43.57633512180044" lon="10.385126349447418"><ele>30.166666666666668</ele><time>2026-03-28T15:43:22Z</time></trkpt><trkpt lat="43.57633881694006" lon="10.385252152583769"><ele>30.333333333333336</ele><time>2026-03-28T15:43:23Z</time></trkpt><trkpt lat="43.576344203161014" lon="10.385368746449583"><ele>30.5</ele><time>2026-03-28T15:43:24Z</time></trkpt><trkpt lat="43.5763463944924" lon="10.385469617239945"><ele>30.666666666666668</ele><time>2026-03-28T15:43:25Z</time></trkpt><trkpt lat="43.576345921590686" lon="10.385594809263898"><ele>30.833333333333336</ele><time>2026-03-28T15:43:27Z</time></trkpt><trkpt lat="43.57635268734355" lon="10.385710869536643"><ele>31.0</ele><time>2026-03-28T15:43:29Z</time></trkpt><trkpt lat="43.57635869974027" lon="10.385847078850178"><ele>31.0</ele><time>2026-03-28T15:43:31Z</time></trkpt><trkpt lat="43.576363342602484" lon="10.38593981399821"><ele>31.000000000000004</ele><time>2026-03-28T15:43:33Z</time></trkpt><trkpt lat="43.57636887622731" lon="10.386028862897188"><ele>31.0</ele><time>2026-03-28T15:43:36Z</time></trkpt><trkpt lat="43.5763758291388" lon="10.386140176092123"><ele>31.0</ele><time>2026-03-28T15:43:41Z</time></trkpt><trkpt lat="43.57633693819797" lon="10.386209191335709"><ele>31.000000000000004</ele><time>2026-03-28T15:43:43Z</time></trkpt><trkpt lat="43.57631037682524" lon="10.386288065560155"><ele>31.0</ele><time>2026-03-28T15:43:45Z</time></trkpt><trkpt lat="43.576340898619335" lon="10.38640206643077"><ele>31.0</ele><time>2026-03-28T15:43:47.999Z</time></trkpt><trkpt lat="43.576398176355625" lon="10.386465902319781"><ele>31.0</ele><time>2026-03-28T15:43:49.999Z</time></trkpt><trkpt lat="43.57642542975809" lon="10.386356849668669"><ele>31.0</ele><time>2026-03-28T15:43:53.999Z</time></trkpt><trkpt lat="43.57641189802821" lon="10.386232035882767"><ele>31.0</ele><time>2026-03-28T15:43:54.999Z</time></trkpt><trkpt lat="43.57638464695913" lon="10.386082641014548"><ele>31.0</ele><time>2026-03-28T15:43:55.999Z</time></trkpt><trkpt lat="43.576369975609076" lon="10.385914001919174"><ele>31.0</ele><time>2026-03-28T15:43:56.999Z</time></trkpt><trkpt lat="43.57636158641696" lon="10.385731153722809"><ele>31.0</ele><time>2026-03-28T15:43:57.999Z</time></trkpt><trkpt lat="43.57635502259173" lon="10.385525381285504"><ele>31.0</ele><time>2026-03-28T15:43:58.999Z</time></trkpt><trkpt lat="43.57634411701487" lon="10.38530680304695"><ele>31.0</ele><time>2026-03-28T15:43:59.999Z</time></trkpt><trkpt lat="43.57633187034951" lon="10.38511230841629"><ele>31.0</ele><time>2026-03-28T15:44:00.999Z</time></trkpt><trkpt lat="43.57632202260457" lon="10.384954423586432"><ele>30.75</ele><time>2026-03-28T15:44:01.999Z</time></trkpt><trkpt lat="43.576313249602556" lon="10.384803167766735"><ele>30.5</ele><time>2026-03-28T15:44:02.999Z</time></trkpt><trkpt lat="43.57630416443202" lon="10.38465584612675"><ele>30.25</ele><time>2026-03-28T15:44:03.999Z</time></trkpt><trkpt lat="43.57629697811402" lon="10.384495238649098"><ele>30.0</ele><time>2026-03-28T15:44:04.999Z</time></trkpt><trkpt lat="43.57629346506065" lon="10.384325887120623"><ele>30.0</ele><time>2026-03-28T15:44:05.999Z</time></trkpt><trkpt lat="43.57628797294278" lon="10.384149886064796"><ele>30.0</ele><time>2026-03-28T15:44:06.999Z</time></trkpt><trkpt lat="43.57628183280074" lon="10.383960930573691"><ele>30.0</ele><time>2026-03-28T15:44:07.999Z</time></trkpt><trkpt lat="43.57627392561574" lon="10.38377636746511"><ele>30.0</ele><time>2026-03-28T15:44:08.999Z</time></trkpt><trkpt lat="43.576263432749336" lon="10.383586886117705"><ele>27.75</ele><time>2026-03-28T15:44:09.999Z</time></trkpt><trkpt lat="43.57625345793516" lon="10.38338970757137"><ele>25.5</ele><time>2026-03-28T15:44:10.999Z</time></trkpt><trkpt lat="43.576244221763" lon="10.383184132272396"><ele>23.25</ele><time>2026-03-28T15:44:11.999Z</time></trkpt><trkpt lat="43.576235724054875" lon="10.382979548743009"><ele>21.0</ele><time>2026-03-28T15:44:12.999Z</time></trkpt><trkpt lat="43.576224600512404" lon="10.382791046597625"><ele>20.75</ele><time>2026-03-28T15:44:13.999Z</time></trkpt><trkpt lat="43.57621670571577" lon="10.382600061936829"><ele>20.5</ele><time>2026-03-28T15:44:14.999Z</time></trkpt><trkpt lat="43.57620868346737" lon="10.382403412589802"><ele>20.25</ele><time>2026-03-28T15:44:15.999Z</time></trkpt><trkpt lat="43.57620041318265" lon="10.382203258547854"><ele>20.0</ele><time>2026-03-28T15:44:16.999Z</time></trkpt><trkpt lat="43.576193054091" lon="10.382010360251481"><ele>18.75</ele><time>2026-03-28T15:44:17.999Z</time></trkpt><trkpt lat="43.576183434117915" lon="10.381814972841976"><ele>17.5</ele><time>2026-03-28T15:44:18.999Z</time></trkpt><trkpt lat="43.57617376358368" lon="10.381620718342592"><ele>16.25</ele><time>2026-03-28T15:44:19.999Z</time></trkpt><trkpt lat="43.576164953138075" lon="10.381426498029711"><ele>15.0</ele><time>2026-03-28T15:44:20.999Z</time></trkpt><trkpt lat="43.57615325764573" lon="10.381246230203269"><ele>15.0</ele><time>2026-03-28T15:44:21.999Z</time></trkpt><trkpt lat="43.57614035380222" lon="10.381076348842493"><ele>15.0</ele><time>2026-03-28T15:44:22.999Z</time></trkpt><trkpt lat="43.57613097874813" lon="10.38089427522222"><ele>15.0</ele><time>2026-03-28T15:44:23.999Z</time></trkpt><trkpt lat="43.576124151256494" lon="10.380726391014777"><ele>15.0</ele><time>2026-03-28T15:44:24.999Z</time></trkpt><trkpt lat="43.57611729086039" lon="10.380557332608698"><ele>15.0</ele><time>2026-03-28T15:44:25.999Z</time></trkpt><trkpt lat="43.576109948336395" lon="10.380392504964153"><ele>15.0</ele><time>2026-03-28T15:44:26.999Z</time></trkpt><trkpt lat="43.57610256633752" lon="10.380238157710545"><ele>15.0</ele><time>2026-03-28T15:44:27.999Z</time></trkpt><trkpt lat="43.57609213779536" lon="10.38008458337283"><ele>15.0</ele><time>2026-03-28T15:44:28.999Z</time></trkpt><trkpt lat="43.576071340620366" lon="10.379924276834009"><ele>15.0</ele><time>2026-03-28T15:44:29.999Z</time></trkpt><trkpt lat="43.57604833914046" lon="10.379771868560418"><ele>15.0</ele><time>2026-03-28T15:44:30.999Z</time></trkpt><trkpt lat="43.576025980964985" lon="10.379616106044157"><ele>15.0</ele><time>2026-03-28T15:44:31.999Z</time></trkpt><trkpt lat="43.576017212231335" lon="10.379456959639075"><ele>15.0</ele><time>2026-03-28T15:44:32.999Z</time></trkpt><trkpt lat="43.576024010795095" lon="10.379284378914708"><ele>14.75</ele><time>2026-03-28T15:44:33.999Z</time></trkpt><trkpt lat="43.57604444183219" lon="10.379107624689416"><ele>14.5</ele><time>2026-03-28T15:44:34.999Z</time></trkpt><trkpt lat="43.576073480743055" lon="10.378924640864772"><ele>14.25</ele><time>2026-03-28T15:44:35.999Z</time></trkpt><trkpt lat="43.576103242798155" lon="10.37873632228817"><ele>14.0</ele><time>2026-03-28T15:44:36.999Z</time></trkpt><trkpt lat="43.57613413626108" lon="10.378550947478601"><ele>13.75</ele><time>2026-03-28T15:44:38Z</time></trkpt><trkpt lat="43.57616364742488" lon="10.37837163756325"><ele>13.5</ele><time>2026-03-28T15:44:39Z</time></trkpt><trkpt lat="43.576194576666715" lon="10.378208792142186"><ele>13.25</ele><time>2026-03-28T15:44:40Z</time></trkpt><trkpt lat="43.57622743936097" lon="10.378052584010552"><ele>13.0</ele><time>2026-03-28T15:44:41Z</time></trkpt><trkpt lat="43.576273067944975" lon="10.377901801644798"><ele>14.75</ele><time>2026-03-28T15:44:42Z</time></trkpt><trkpt lat="43.576333806687856" lon="10.37774867871201"><ele>16.5</ele><time>2026-03-28T15:44:43Z</time></trkpt><trkpt lat="43.57639082370267" lon="10.377597113800329"><ele>18.25</ele><time>2026-03-28T15:44:44Z</time></trkpt><trkpt lat="43.57643780382927" lon="10.377447766615502"><ele>20.0</ele><time>2026-03-28T15:44:45Z</time></trkpt><trkpt lat="43.57647458952203" lon="10.377286083974893"><ele>18.25</ele><time>2026-03-28T15:44:46Z</time></trkpt><trkpt lat="43.57650700716476" lon="10.377113765492245"><ele>16.5</ele><time>2026-03-28T15:44:47Z</time></trkpt><trkpt lat="43.57653627546821" lon="10.376926592006924"><ele>14.75</ele><time>2026-03-28T15:44:48Z</time></trkpt><trkpt lat="43.57657164840558" lon="10.376734080254598"><ele>13.0</ele><time>2026-03-28T15:44:49Z</time></trkpt><trkpt lat="43.57660961000282" lon="10.376553349902094"><ele>13.0</ele><time>2026-03-28T15:44:50Z</time></trkpt><trkpt lat="43.57665004687573" lon="10.376391808106282"><ele>13.0</ele><time>2026-03-28T15:44:51Z</time></trkpt><trkpt lat="43.576695205992856" lon="10.376224607977065"><ele>13.0</ele><time>2026-03-28T15:44:52Z</time></trkpt><trkpt lat="43.57673969203333" lon="10.37605147872556"><ele>13.0</ele><time>2026-03-28T15:44:53Z</time></trkpt><trkpt lat="43.57678365707128" lon="10.375867746329769"><ele>12.5</ele><time>2026-03-28T15:44:54Z</time></trkpt><trkpt lat="43.57682444297294" lon="10.37568402914373"><ele>12.0</ele><time>2026-03-28T15:44:55Z</time></trkpt><trkpt lat="43.576864333739096" lon="10.3755103362015"><ele>11.5</ele><time>2026-03-28T15:44:56Z</time></trkpt><trkpt lat="43.57690646416992" lon="10.375328908709053"><ele>11.0</ele><time>2026-03-28T15:44:57Z</time></trkpt><trkpt lat="43.57694783766792" lon="10.375154715338779"><ele>10.75</ele><time>2026-03-28T15:44:58Z</time></trkpt><trkpt lat="43.576984405028576" lon="10.374998228038281"><ele>10.5</ele><time>2026-03-28T15:44:59Z</time></trkpt><trkpt lat="43.577021607574935" lon="10.374843846544852"><ele>10.25</ele><time>2026-03-28T15:45:00Z</time></trkpt><trkpt lat="43.57706072092207" lon="10.374681566240458"><ele>10.0</ele><time>2026-03-28T15:45:01Z</time></trkpt><trkpt lat="43.57710200588172" lon="10.374508276467466"><ele>10.75</ele><time>2026-03-28T15:45:02Z</time></trkpt><trkpt lat="43.57714239095817" lon="10.374325069594226"><ele>11.5</ele><time>2026-03-28T15:45:03Z</time></trkpt><trkpt lat="43.57718448022268" lon="10.374140611900595"><ele>12.25</ele><time>2026-03-28T15:45:04Z</time></trkpt><trkpt lat="43.57722806863792" lon="10.373961610848458"><ele>13.0</ele><time>2026-03-28T15:45:05Z</time></trkpt><trkpt lat="43.577276645871926" lon="10.373756790277502"><ele>13.0</ele><time>2026-03-28T15:45:06Z</time></trkpt><trkpt lat="43.577323759096515" lon="10.373569369602864"><ele>13.0</ele><time>2026-03-28T15:45:07Z</time></trkpt><trkpt lat="43.577361242309564" lon="10.373397830310623"><ele>13.0</ele><time>2026-03-28T15:45:08Z</time></trkpt><trkpt lat="43.57739568835079" lon="10.373253374785467"><ele>13.0</ele><time>2026-03-28T15:45:09Z</time></trkpt><trkpt lat="43.577438484284976" lon="10.373090879042135"><ele>12.75</ele><time>2026-03-28T15:45:10Z</time></trkpt><trkpt lat="43.577472291699806" lon="10.372931563863656"><ele>12.5</ele><time>2026-03-28T15:45:11Z</time></trkpt><trkpt lat="43.57750955887355" lon="10.3727603174331"><ele>12.25</ele><time>2026-03-28T15:45:12Z</time></trkpt><trkpt lat="43.577547727684966" lon="10.372595756009215"><ele>12.0</ele><time>2026-03-28T15:45:13Z</time></trkpt><trkpt lat="43.577580849543715" lon="10.372434852254317"><ele>12.0</ele><time>2026-03-28T15:45:14Z</time></trkpt><trkpt lat="43.5776083004912" lon="10.372273037318873"><ele>12.0</ele><time>2026-03-28T15:45:15Z</time></trkpt><trkpt lat="43.57763280635161" lon="10.37211405165061"><ele>12.0</ele><time>2026-03-28T15:45:16Z</time></trkpt><trkpt lat="43.57765403232023" lon="10.37195476919112"><ele>12.0</ele><time>2026-03-28T15:45:17Z</time></trkpt><trkpt lat="43.57767098441685" lon="10.371792520470313"><ele>11.25</ele><time>2026-03-28T15:45:18Z</time></trkpt><trkpt lat="43.5776794434473" lon="10.371629053967462"><ele>10.5</ele><time>2026-03-28T15:45:19Z</time></trkpt><trkpt lat="43.57768283370525" lon="10.371460617221313"><ele>9.75</ele><time>2026-03-28T15:45:20Z</time></trkpt><trkpt lat="43.57767472022717" lon="10.371294176665746"><ele>9.0</ele><time>2026-03-28T15:45:21Z</time></trkpt><trkpt lat="43.57766194568311" lon="10.371130823986674"><ele>9.0</ele><time>2026-03-28T15:45:22Z</time></trkpt><trkpt lat="43.57764227874654" lon="10.370958852667494"><ele>9.0</ele><time>2026-03-28T15:45:23Z</time></trkpt><trkpt lat="43.57761129951952" lon="10.370805414498028"><ele>9.0</ele><time>2026-03-28T15:45:24Z</time></trkpt><trkpt lat="43.577575493680534" lon="10.370671796829386"><ele>9.0</ele><time>2026-03-28T15:45:25Z</time></trkpt><trkpt lat="43.57754143858581" lon="10.370534524978915"><ele>9.5</ele><time>2026-03-28T15:45:26Z</time></trkpt><trkpt lat="43.577513882322435" lon="10.370405003234708"><ele>10.0</ele><time>2026-03-28T15:45:27Z</time></trkpt><trkpt lat="43.57749338324044" lon="10.370318836214535"><ele>10.5</ele><time>2026-03-28T15:45:28Z</time></trkpt><trkpt lat="43.57746910468538" lon="10.370216515775732"><ele>11.0</ele><time>2026-03-28T15:45:29Z</time></trkpt><trkpt lat="43.5774472292434" lon="10.370130592360175"><ele>11.5</ele><time>2026-03-28T15:45:30Z</time></trkpt><trkpt lat="43.57738416235636" lon="10.370044185216576"><ele>12.0</ele><time>2026-03-28T15:45:32Z</time></trkpt><trkpt lat="43.577306991484456" lon="10.369999101241199"><ele>12.0</ele><time>2026-03-28T15:45:34Z</time></trkpt><trkpt lat="43.57721791563613" lon="10.369956859251898"><ele>12.0</ele><time>2026-03-28T15:45:36Z</time></trkpt><trkpt lat="43.57711908275414" lon="10.36990493989997"><ele>12.0</ele><time>2026-03-28T15:45:38Z</time></trkpt><trkpt lat="43.577058730728126" lon="10.369872964343042"><ele>12.0</ele><time>2026-03-28T15:45:39Z</time></trkpt><trkpt lat="43.57698928663904" lon="10.369827936737352"><ele>12.0</ele><time>2026-03-28T15:45:40Z</time></trkpt><trkpt lat="43.57691445765663" lon="10.3697924151522"><ele>12.0</ele><time>2026-03-28T15:45:41Z</time></trkpt><trkpt lat="43.57681902947744" lon="10.369784245081204"><ele>10.75</ele><time>2026-03-28T15:45:42Z</time></trkpt><trkpt lat="43.57672399069824" lon="10.369793393848017"><ele>9.5</ele><time>2026-03-28T15:45:43Z</time></trkpt><trkpt lat="43.576632200315814" lon="10.369815828581558"><ele>8.25</ele><time>2026-03-28T15:45:43.999Z</time></trkpt><trkpt lat="43.57650703177611" lon="10.369843149028755"><ele>7.0</ele><time>2026-03-28T15:45:44.999Z</time></trkpt><trkpt lat="43.57636504185641" lon="10.369872086641898"><ele>7.0</ele><time>2026-03-28T15:45:45.999Z</time></trkpt><trkpt lat="43.576256547501444" lon="10.369893255105861"><ele>6.999999999999999</ele><time>2026-03-28T15:45:46.999Z</time></trkpt><trkpt lat="43.57617662575293" lon="10.369909559618668"><ele>6.999999999999999</ele><time>2026-03-28T15:45:47.999Z</time></trkpt><trkpt lat="43.5761071115775" lon="10.369930960852539"><ele>7.0</ele><time>2026-03-28T15:45:48.999Z</time></trkpt><trkpt lat="43.5760147579527" lon="10.369963171586019"><ele>7.0</ele><time>2026-03-28T15:45:49.999Z</time></trkpt><trkpt lat="43.575912476265394" lon="10.370021666832677"><ele>7.0</ele><time>2026-03-28T15:45:50.999Z</time></trkpt><trkpt lat="43.5757852971227" lon="10.370104656799546"><ele>6.999999999999999</ele><time>2026-03-28T15:45:51.999Z</time></trkpt><trkpt lat="43.57566637561738" lon="10.370166816222248"><ele>6.999999999999999</ele><time>2026-03-28T15:45:52.999Z</time></trkpt><trkpt lat="43.57558030785206" lon="10.370198808068038"><ele>7.0</ele><time>2026-03-28T15:45:53.999Z</time></trkpt><trkpt lat="43.57550780619284" lon="10.370211036782475"><ele>7.0</ele><time>2026-03-28T15:45:54.999Z</time></trkpt><trkpt lat="43.575401590720816" lon="10.370233596876718"><ele>7.75</ele><time>2026-03-28T15:45:55.999Z</time></trkpt><trkpt lat="43.57526376509375" lon="10.370248700260735"><ele>8.5</ele><time>2026-03-28T15:45:56.999Z</time></trkpt><trkpt lat="43.57511007461119" lon="10.370249995549232"><ele>9.25</ele><time>2026-03-28T15:45:57.999Z</time></trkpt><trkpt lat="43.574963453179244" lon="10.37023297383951"><ele>10.0</ele><time>2026-03-28T15:45:58.999Z</time></trkpt><trkpt lat="43.57480556884012" lon="10.370205767811532"><ele>10.0</ele><time>2026-03-28T15:45:59.999Z</time></trkpt><trkpt lat="43.57462055609539" lon="10.370174219400113"><ele>10.0</ele><time>2026-03-28T15:46:00.999Z</time></trkpt><trkpt lat="43.57442888539365" lon="10.370144321399827"><ele>10.0</ele><time>2026-03-28T15:46:01.999Z</time></trkpt><trkpt lat="43.57426940793044" lon="10.370116891368786"><ele>12.0</ele><time>2026-03-28T15:46:02.999Z</time></trkpt><trkpt lat="43.574011901826864" lon="10.370082611906444"><ele>14.0</ele><time>2026-03-28T15:46:04.999Z</time></trkpt><trkpt lat="43.57390573935784" lon="10.370070576629002"><ele>16.0</ele><time>2026-03-28T15:46:05.999Z</time></trkpt><trkpt lat="43.57379046908424" lon="10.37005217750038"><ele>17.333333333333332</ele><time>2026-03-28T15:46:06.999Z</time></trkpt><trkpt lat="43.57365192440552" lon="10.370031297909525"><ele>18.666666666666668</ele><time>2026-03-28T15:46:07.999Z</time></trkpt><trkpt lat="43.573479076112555" lon="10.370010500536386"><ele>20.0</ele><time>2026-03-28T15:46:08.999Z</time></trkpt><trkpt lat="43.573311169617874" lon="10.369988690494974"><ele>20.0</ele><time>2026-03-28T15:46:09.999Z</time></trkpt><trkpt lat="43.57316288027319" lon="10.369965626820257"><ele>20.0</ele><time>2026-03-28T15:46:10.999Z</time></trkpt><trkpt lat="43.5730196009475" lon="10.369947053675503"><ele>20.0</ele><time>2026-03-28T15:46:11.999Z</time></trkpt><trkpt lat="43.572884678302756" lon="10.36992926945138"><ele>20.0</ele><time>2026-03-28T15:46:12.999Z</time></trkpt><trkpt lat="43.57275484763692" lon="10.3699108859726"><ele>20.0</ele><time>2026-03-28T15:46:13.999Z</time></trkpt><trkpt lat="43.57263706020366" lon="10.369892617768786"><ele>20.0</ele><time>2026-03-28T15:46:14.999Z</time></trkpt><trkpt lat="43.572536216707036" lon="10.369876433182748"><ele>20.0</ele><time>2026-03-28T15:46:15.999Z</time></trkpt><trkpt lat="43.57244778502533" lon="10.36986394792039"><ele>20.0</ele><time>2026-03-28T15:46:16.999Z</time></trkpt><trkpt lat="43.57236552410481" lon="10.369854027614537"><ele>20.0</ele><time>2026-03-28T15:46:17.999Z</time></trkpt><trkpt lat="43.57229630625282" lon="10.369849075820827"><ele>20.0</ele><time>2026-03-28T15:46:18.999Z</time></trkpt><trkpt lat="43.57222979143123" lon="10.369895076205783"><ele>20.0</ele><time>2026-03-28T15:46:21.999Z</time></trkpt><trkpt lat="43.57223363396489" lon="10.370029290965117"><ele>20.0</ele><time>2026-03-28T15:46:35.999Z</time></trkpt><trkpt lat="43.572271614892074" lon="10.370135987170867"><ele>20.0</ele><time>2026-03-28T15:46:36.999Z</time></trkpt><trkpt lat="43.57233875682634" lon="10.370271477973533"><ele>20.0</ele><time>2026-03-28T15:46:37.999Z</time></trkpt><trkpt lat="43.5724183081623" lon="10.37043177405391"><ele>19.0</ele><time>2026-03-28T15:46:38.999Z</time></trkpt><trkpt lat="43.57251303787326" lon="10.370656296176804"><ele>18.0</ele><time>2026-03-28T15:46:39.999Z</time></trkpt><trkpt lat="43.57260750156409" lon="10.370923968573068"><ele>17.0</ele><time>2026-03-28T15:46:40.999Z</time></trkpt><trkpt lat="43.57270137773222" lon="10.371221678520328"><ele>16.5</ele><time>2026-03-28T15:46:41.999Z</time></trkpt><trkpt lat="43.572781623787435" lon="10.371527757219516"><ele>16.0</ele><time>2026-03-28T15:46:42.999Z</time></trkpt><trkpt lat="43.57284610552595" lon="10.371836193650784"><ele>14.666666666666666</ele><time>2026-03-28T15:46:44Z</time></trkpt><trkpt lat="43.572889913909535" lon="10.372134609353576"><ele>13.333333333333332</ele><time>2026-03-28T15:46:45Z</time></trkpt><trkpt lat="43.57291399704021" lon="10.372436969150383"><ele>12.0</ele><time>2026-03-28T15:46:46Z</time></trkpt><trkpt lat="43.57292350498568" lon="10.37273884735564"><ele>12.666666666666668</ele><time>2026-03-28T15:46:47Z</time></trkpt><trkpt lat="43.572918369650466" lon="10.37303786187895"><ele>13.333333333333334</ele><time>2026-03-28T15:46:48Z</time></trkpt><trkpt lat="43.57289925489931" lon="10.373333743808535"><ele>14.0</ele><time>2026-03-28T15:46:49Z</time></trkpt><trkpt lat="43.572864379940256" lon="10.373617539103154"><ele>14.333333333333334</ele><time>2026-03-28T15:46:50Z</time></trkpt><trkpt lat="43.572812991797235" lon="10.373910020837023"><ele>14.666666666666668</ele><time>2026-03-28T15:46:51Z</time></trkpt><trkpt lat="43.57274716053839" lon="10.374209837535124"><ele>15.0</ele><time>2026-03-28T15:46:52Z</time></trkpt><trkpt lat="43.572663128459055" lon="10.374509437187614"><ele>16.5</ele><time>2026-03-28T15:46:53Z</time></trkpt><trkpt lat="43.57256673042968" lon="10.374798588206621"><ele>18.0</ele><time>2026-03-28T15:46:54Z</time></trkpt><trkpt lat="43.57244400986263" lon="10.37508732656438"><ele>18.0</ele><time>2026-03-28T15:46:55Z</time></trkpt><trkpt lat="43.57230008202761" lon="10.375370831359499"><ele>18.0</ele><time>2026-03-28T15:46:56Z</time></trkpt><trkpt lat="43.57214683127846" lon="10.375629429869791"><ele>20.0</ele><time>2026-03-28T15:46:57Z</time></trkpt><trkpt lat="43.57198106269193" lon="10.37586864219443"><ele>22.0</ele><time>2026-03-28T15:46:58Z</time></trkpt><trkpt lat="43.57180322974361" lon="10.376090823227365"><ele>22.0</ele><time>2026-03-28T15:46:59Z</time></trkpt><trkpt lat="43.57160596775054" lon="10.376313813757724"><ele>22.0</ele><time>2026-03-28T15:47:00Z</time></trkpt><trkpt lat="43.57140168207203" lon="10.37653754279609"><ele>20.0</ele><time>2026-03-28T15:47:01Z</time></trkpt><trkpt lat="43.57122083087398" lon="10.376728063044872"><ele>18.0</ele><time>2026-03-28T15:47:02Z</time></trkpt><trkpt lat="43.57105086816935" lon="10.376906819567495"><ele>16.0</ele><time>2026-03-28T15:47:03Z</time></trkpt><trkpt lat="43.57089540239014" lon="10.377073347327945"><ele>16.0</ele><time>2026-03-28T15:47:04Z</time></trkpt><trkpt lat="43.57075150816456" lon="10.37723197206371"><ele>16.0</ele><time>2026-03-28T15:47:05Z</time></trkpt><trkpt lat="43.570607502719604" lon="10.377389338294712"><ele>16.0</ele><time>2026-03-28T15:47:06Z</time></trkpt><trkpt lat="43.570455011582176" lon="10.377565869845588"><ele>18.0</ele><time>2026-03-28T15:47:07Z</time></trkpt><trkpt lat="43.57028334572757" lon="10.377773595740301"><ele>20.0</ele><time>2026-03-28T15:47:08Z</time></trkpt><trkpt lat="43.570084650166834" lon="10.37799270680073"><ele>18.0</ele><time>2026-03-28T15:47:09Z</time></trkpt><trkpt lat="43.569872089025154" lon="10.37820643119564"><ele>16.0</ele><time>2026-03-28T15:47:10Z</time></trkpt><trkpt lat="43.56966432552249" lon="10.378417115231123"><ele>18.0</ele><time>2026-03-28T15:47:11Z</time></trkpt><trkpt lat="43.56947690263142" lon="10.378617599510859"><ele>20.0</ele><time>2026-03-28T15:47:12Z</time></trkpt><trkpt lat="43.56930373477922" lon="10.378807097710379"><ele>19.0</ele><time>2026-03-28T15:47:13Z</time></trkpt><trkpt lat="43.5691370093099" lon="10.378993400960235"><ele>18.0</ele><time>2026-03-28T15:47:14Z</time></trkpt><trkpt lat="43.56897798111332" lon="10.379167559704129"><ele>17.0</ele><time>2026-03-28T15:47:15Z</time></trkpt><trkpt lat="43.56882558552118" lon="10.379321550240686"><ele>17.333333333333336</ele><time>2026-03-28T15:47:16Z</time></trkpt><trkpt lat="43.56868138061458" lon="10.379472067585931"><ele>17.666666666666668</ele><time>2026-03-28T15:47:17Z</time></trkpt><trkpt lat="43.568548110184935" lon="10.379610001942856"><ele>18.0</ele><time>2026-03-28T15:47:18Z</time></trkpt><trkpt lat="43.568420841988726" lon="10.379745194933191"><ele>18.0</ele><time>2026-03-28T15:47:19Z</time></trkpt><trkpt lat="43.568297197047265" lon="10.379879695025194"><ele>18.0</ele><time>2026-03-28T15:47:20Z</time></trkpt><trkpt lat="43.56817161967223" lon="10.380020669520535"><ele>18.0</ele><time>2026-03-28T15:47:21Z</time></trkpt><trkpt lat="43.56804446141699" lon="10.380165613225895"><ele>18.0</ele><time>2026-03-28T15:47:22Z</time></trkpt><trkpt lat="43.56791401620444" lon="10.380311289255271"><ele>18.0</ele><time>2026-03-28T15:47:23Z</time></trkpt><trkpt lat="43.56777806025541" lon="10.380455150524442"><ele>18.0</ele><time>2026-03-28T15:47:24Z</time></trkpt><trkpt lat="43.56763998657311" lon="10.380597457128184"><ele>19.333333333333332</ele><time>2026-03-28T15:47:25Z</time></trkpt><trkpt lat="43.567498928956304" lon="10.3807473903997"><ele>20.666666666666664</ele><time>2026-03-28T15:47:26Z</time></trkpt><trkpt lat="43.56735809512985" lon="10.38089953875936"><ele>22.0</ele><time>2026-03-28T15:47:27Z</time></trkpt><trkpt lat="43.56721857484817" lon="10.381054137597962"><ele>22.0</ele><time>2026-03-28T15:47:28Z</time></trkpt><trkpt lat="43.56708082824858" lon="10.381217763794123"><ele>22.0</ele><time>2026-03-28T15:47:29Z</time></trkpt><trkpt lat="43.56695417671429" lon="10.381389605425397"><ele>22.0</ele><time>2026-03-28T15:47:30Z</time></trkpt><trkpt lat="43.566845592825224" lon="10.381575870330682"><ele>22.333333333333332</ele><time>2026-03-28T15:47:31Z</time></trkpt><trkpt lat="43.56675472774943" lon="10.381769580578387"><ele>22.666666666666668</ele><time>2026-03-28T15:47:32Z</time></trkpt><trkpt lat="43.566678644816854" lon="10.381971945416103"><ele>23.0</ele><time>2026-03-28T15:47:33Z</time></trkpt><trkpt lat="43.56661724059932" lon="10.382189933512029"><ele>23.0</ele><time>2026-03-28T15:47:34Z</time></trkpt><trkpt lat="43.566579178570926" lon="10.382411938008053"><ele>23.0</ele><time>2026-03-28T15:47:35Z</time></trkpt><trkpt lat="43.566558492191426" lon="10.382629901673058"><ele>23.0</ele><time>2026-03-28T15:47:36Z</time></trkpt><trkpt lat="43.5665508662056" lon="10.382843224140803"><ele>23.0</ele><time>2026-03-28T15:47:37Z</time></trkpt><trkpt lat="43.56655883675958" lon="10.383046359378332"><ele>23.0</ele><time>2026-03-28T15:47:38Z</time></trkpt><trkpt lat="43.56657846775079" lon="10.383245078625315"><ele>23.0</ele><time>2026-03-28T15:47:39Z</time></trkpt><trkpt lat="43.566607521693996" lon="10.38343881637907"><ele>23.0</ele><time>2026-03-28T15:47:40Z</time></trkpt><trkpt lat="43.56663186828316" lon="10.383634748785267"><ele>23.0</ele><time>2026-03-28T15:47:41Z</time></trkpt><trkpt lat="43.56664807168408" lon="10.383843379187295"><ele>23.0</ele><time>2026-03-28T15:47:42Z</time></trkpt><trkpt lat="43.56665151533395" lon="10.384056453793129"><ele>23.0</ele><time>2026-03-28T15:47:43Z</time></trkpt><trkpt lat="43.56663557777836" lon="10.384279387841515"><ele>23.0</ele><time>2026-03-28T15:47:44Z</time></trkpt><trkpt lat="43.566600116136385" lon="10.384498116377584"><ele>23.0</ele><time>2026-03-28T15:47:45Z</time></trkpt><trkpt lat="43.56654442035146" lon="10.384710393421143"><ele>23.0</ele><time>2026-03-28T15:47:46Z</time></trkpt><trkpt lat="43.56647334648769" lon="10.384936822375675"><ele>24.0</ele><time>2026-03-28T15:47:47Z</time></trkpt><trkpt lat="43.56640254975036" lon="10.385174015912378"><ele>25.0</ele><time>2026-03-28T15:47:48Z</time></trkpt><trkpt lat="43.566319358074665" lon="10.38542047415114"><ele>26.0</ele><time>2026-03-28T15:47:49Z</time></trkpt><trkpt lat="43.566236611607394" lon="10.385675161848097"><ele>27.5</ele><time>2026-03-28T15:47:50Z</time></trkpt><trkpt lat="43.566141267321775" lon="10.385973174993731"><ele>29.0</ele><time>2026-03-28T15:47:50.999Z</time></trkpt><trkpt lat="43.56606267620537" lon="10.386262787501163"><ele>27.666666666666664</ele><time>2026-03-28T15:47:51.999Z</time></trkpt><trkpt lat="43.565980454723345" lon="10.386514734518233"><ele>26.333333333333336</ele><time>2026-03-28T15:47:52.999Z</time></trkpt><trkpt lat="43.56590633405801" lon="10.386736428963188"><ele>25.0</ele><time>2026-03-28T15:47:53.999Z</time></trkpt><trkpt lat="43.565838277718406" lon="10.386932851775963"><ele>25.0</ele><time>2026-03-28T15:47:54.999Z</time></trkpt><trkpt lat="43.565776127077875" lon="10.387121800790279"><ele>25.0</ele><time>2026-03-28T15:47:55.999Z</time></trkpt><trkpt lat="43.56571744423787" lon="10.387311357971349"><ele>25.0</ele><time>2026-03-28T15:47:56.999Z</time></trkpt><trkpt lat="43.56566134731195" lon="10.387507717872587"><ele>27.333333333333336</ele><time>2026-03-28T15:47:57.999Z</time></trkpt><trkpt lat="43.56562847183264" lon="10.38771572978244"><ele>29.666666666666664</ele><time>2026-03-28T15:47:58.999Z</time></trkpt><trkpt lat="43.56561581268826" lon="10.387922005924858"><ele>32.0</ele><time>2026-03-28T15:47:59.999Z</time></trkpt><trkpt lat="43.565603863654935" lon="10.38814729325178"><ele>33.0</ele><time>2026-03-28T15:48:00.999Z</time></trkpt><trkpt lat="43.565565780374115" lon="10.388414044088334"><ele>34.0</ele><time>2026-03-28T15:48:01.999Z</time></trkpt><trkpt lat="43.56553319884775" lon="10.388721286831657"><ele>35.0</ele><time>2026-03-28T15:48:02.999Z</time></trkpt><trkpt lat="43.565502750445155" lon="10.389005976247"><ele>37.0</ele><time>2026-03-28T15:48:03.999Z</time></trkpt><trkpt lat="43.565484918093205" lon="10.389266690695921"><ele>39.0</ele><time>2026-03-28T15:48:04.999Z</time></trkpt><trkpt lat="43.56546003039268" lon="10.389504145094426"><ele>41.0</ele><time>2026-03-28T15:48:05.999Z</time></trkpt><trkpt lat="43.56543308108735" lon="10.38976713103801"><ele>41.0</ele><time>2026-03-28T15:48:06.999Z</time></trkpt><trkpt lat="43.56542748122954" lon="10.390040526767779"><ele>41.0</ele><time>2026-03-28T15:48:07.999Z</time></trkpt><trkpt lat="43.56542202625515" lon="10.390342678680298"><ele>41.0</ele><time>2026-03-28T15:48:08.999Z</time></trkpt><trkpt lat="43.56542831614026" lon="10.390685323735664"><ele>41.0</ele><time>2026-03-28T15:48:09.999Z</time></trkpt><trkpt lat="43.56543568181133" lon="10.391031579018696"><ele>41.0</ele><time>2026-03-28T15:48:10.999Z</time></trkpt><trkpt lat="43.565459199419" lon="10.391346431320398"><ele>41.33333333333333</ele><time>2026-03-28T15:48:11.999Z</time></trkpt><trkpt lat="43.565450823710655" lon="10.391655389092117"><ele>41.666666666666664</ele><time>2026-03-28T15:48:12.999Z</time></trkpt><trkpt lat="43.56547893235306" lon="10.391962844385374"><ele>42.0</ele><time>2026-03-28T15:48:13.999Z</time></trkpt><trkpt lat="43.565530548737364" lon="10.392263607554847"><ele>43.0</ele><time>2026-03-28T15:48:14.999Z</time></trkpt><trkpt lat="43.5656123026274" lon="10.392565170038369"><ele>44.0</ele><time>2026-03-28T15:48:15.999Z</time></trkpt><trkpt lat="43.56571809618783" lon="10.39285497962485"><ele>42.0</ele><time>2026-03-28T15:48:16.999Z</time></trkpt><trkpt lat="43.565843629652136" lon="10.393129590530847"><ele>40.0</ele><time>2026-03-28T15:48:17.999Z</time></trkpt><trkpt lat="43.56599371948939" lon="10.39337599736009"><ele>40.0</ele><time>2026-03-28T15:48:18.999Z</time></trkpt><trkpt lat="43.56615422317921" lon="10.393588722076197"><ele>40.0</ele><time>2026-03-28T15:48:19.999Z</time></trkpt><trkpt lat="43.56630527505986" lon="10.393781009006709"><ele>40.0</ele><time>2026-03-28T15:48:20.999Z</time></trkpt><trkpt lat="43.566440841126166" lon="10.39397955896132"><ele>39.333333333333336</ele><time>2026-03-28T15:48:21.999Z</time></trkpt><trkpt lat="43.566544557260244" lon="10.39422017088057"><ele>38.666666666666664</ele><time>2026-03-28T15:48:22.999Z</time></trkpt><trkpt lat="43.56662091864589" lon="10.39450058974423"><ele>38.0</ele><time>2026-03-28T15:48:23.999Z</time></trkpt><trkpt lat="43.56667385420808" lon="10.394829192032262"><ele>37.0</ele><time>2026-03-28T15:48:24.999Z</time></trkpt><trkpt lat="43.56671621587959" lon="10.39520044683228"><ele>36.0</ele><time>2026-03-28T15:48:25.999Z</time></trkpt><trkpt lat="43.56676243906308" lon="10.395608766348737"><ele>38.0</ele><time>2026-03-28T15:48:26.999Z</time></trkpt><trkpt lat="43.56682093889357" lon="10.396042591349163"><ele>40.0</ele><time>2026-03-28T15:48:27.999Z</time></trkpt><trkpt lat="43.56690011177713" lon="10.396493203621713"><ele>42.0</ele><time>2026-03-28T15:48:28.999Z</time></trkpt><trkpt lat="43.56699652885279" lon="10.39693306566949"><ele>44.0</ele><time>2026-03-28T15:48:29.999Z</time></trkpt><trkpt lat="43.56710403159167" lon="10.397386729611883"><ele>41.5</ele><time>2026-03-28T15:48:30.999Z</time></trkpt><trkpt lat="43.567214072441274" lon="10.397860338869759"><ele>39.0</ele><time>2026-03-28T15:48:31.999Z</time></trkpt><trkpt lat="43.56731067705868" lon="10.398298263621365"><ele>39.0</ele><time>2026-03-28T15:48:32.999Z</time></trkpt><trkpt lat="43.56739422843373" lon="10.398702784047277"><ele>39.0</ele><time>2026-03-28T15:48:33.999Z</time></trkpt><trkpt lat="43.567468931132446" lon="10.39906016827855"><ele>41.5</ele><time>2026-03-28T15:48:34.999Z</time></trkpt><trkpt lat="43.56754512727673" lon="10.399398518090157"><ele>44.0</ele><time>2026-03-28T15:48:35.999Z</time></trkpt><trkpt lat="43.56762177888636" lon="10.399716833293724"><ele>44.5</ele><time>2026-03-28T15:48:36.999Z</time></trkpt><trkpt lat="43.567698657380184" lon="10.40003481795121"><ele>45.0</ele><time>2026-03-28T15:48:37.999Z</time></trkpt><trkpt lat="43.567770377590385" lon="10.40034186277969"><ele>44.0</ele><time>2026-03-28T15:48:38.999Z</time></trkpt><trkpt lat="43.56783826263771" lon="10.40064809858011"><ele>43.0</ele><time>2026-03-28T15:48:39.999Z</time></trkpt><trkpt lat="43.56790042067617" lon="10.400945960476996"><ele>43.0</ele><time>2026-03-28T15:48:40.999Z</time></trkpt><trkpt lat="43.56797741817896" lon="10.40123819370596"><ele>43.0</ele><time>2026-03-28T15:48:41.999Z</time></trkpt><trkpt lat="43.56808708324382" lon="10.401510808694928"><ele>43.5</ele><time>2026-03-28T15:48:42.999Z</time></trkpt><trkpt lat="43.568218773727594" lon="10.401781737206848"><ele>44.0</ele><time>2026-03-28T15:48:43.999Z</time></trkpt><trkpt lat="43.568361802997856" lon="10.402042442991094"><ele>43.0</ele><time>2026-03-28T15:48:44.999Z</time></trkpt><trkpt lat="43.568508159368996" lon="10.402310245412304"><ele>42.0</ele><time>2026-03-28T15:48:45.999Z</time></trkpt><trkpt lat="43.56865108289866" lon="10.402571231349336"><ele>43.0</ele><time>2026-03-28T15:48:46.999Z</time></trkpt><trkpt lat="43.56878624850489" lon="10.402818384658922"><ele>44.0</ele><time>2026-03-28T15:48:47.999Z</time></trkpt><trkpt lat="43.56891478711021" lon="10.403058892966744"><ele>45.0</ele><time>2026-03-28T15:48:48.999Z</time></trkpt><trkpt lat="43.56904626997114" lon="10.403302375459042"><ele>45.0</ele><time>2026-03-28T15:48:50Z</time></trkpt><trkpt lat="43.56917722021847" lon="10.403550126560718"><ele>45.0</ele><time>2026-03-28T15:48:51Z</time></trkpt><trkpt lat="43.569304932320655" lon="10.403792956001174"><ele>45.0</ele><time>2026-03-28T15:48:52Z</time></trkpt><trkpt lat="43.569437849118046" lon="10.404046888675744"><ele>50.0</ele><time>2026-03-28T15:48:53Z</time></trkpt><trkpt lat="43.56956908559407" lon="10.404296629865511"><ele>55.0</ele><time>2026-03-28T15:48:54Z</time></trkpt><trkpt lat="43.56970219247291" lon="10.404552482012166"><ele>50.5</ele><time>2026-03-28T15:48:55Z</time></trkpt><trkpt lat="43.569822203445824" lon="10.404824634828858"><ele>46.0</ele><time>2026-03-28T15:48:56Z</time></trkpt><trkpt lat="43.56992027299276" lon="10.405115293419529"><ele>46.0</ele><time>2026-03-28T15:48:57Z</time></trkpt><trkpt lat="43.569992072380494" lon="10.40542327475715"><ele>46.0</ele><time>2026-03-28T15:48:58Z</time></trkpt><trkpt lat="43.57004784082937" lon="10.405733267484866"><ele>45.333333333333336</ele><time>2026-03-28T15:48:59Z</time></trkpt><trkpt lat="43.570089054459075" lon="10.406041355470737"><ele>44.666666666666664</ele><time>2026-03-28T15:49:00Z</time></trkpt><trkpt lat="43.57010221067083" lon="10.406336795485819"><ele>44.0</ele><time>2026-03-28T15:49:01Z</time></trkpt><trkpt lat="43.57009982759013" lon="10.406644917366684"><ele>44.0</ele><time>2026-03-28T15:49:02Z</time></trkpt><trkpt lat="43.57007376685096" lon="10.406970572683692"><ele>44.0</ele><time>2026-03-28T15:49:03Z</time></trkpt><trkpt lat="43.57002219242712" lon="10.407304514820348"><ele>46.0</ele><time>2026-03-28T15:49:04Z</time></trkpt><trkpt lat="43.56995830288443" lon="10.407655470395529"><ele>48.0</ele><time>2026-03-28T15:49:05Z</time></trkpt><trkpt lat="43.569890779557824" lon="10.408020324026293"><ele>50.5</ele><time>2026-03-28T15:49:06Z</time></trkpt><trkpt lat="43.569833495881184" lon="10.408352817104205"><ele>53.0</ele><time>2026-03-28T15:49:07Z</time></trkpt><trkpt lat="43.56978092076383" lon="10.408661140697813"><ele>53.66666666666667</ele><time>2026-03-28T15:49:08Z</time></trkpt><trkpt lat="43.56973034758217" lon="10.408961906873587"><ele>54.33333333333333</ele><time>2026-03-28T15:49:09Z</time></trkpt><trkpt lat="43.56968213666682" lon="10.40925527721674"><ele>55.0</ele><time>2026-03-28T15:49:10Z</time></trkpt><trkpt lat="43.56963523130093" lon="10.40953889505965"><ele>54.0</ele><time>2026-03-28T15:49:11Z</time></trkpt><trkpt lat="43.56959047556192" lon="10.409819028915322"><ele>53.0</ele><time>2026-03-28T15:49:12Z</time></trkpt><trkpt lat="43.569540794947365" lon="10.410101247210482"><ele>52.0</ele><time>2026-03-28T15:49:13Z</time></trkpt><trkpt lat="43.56948924550833" lon="10.410380619122126"><ele>51.0</ele><time>2026-03-28T15:49:14Z</time></trkpt><trkpt lat="43.5694390922686" lon="10.410666450784463"><ele>50.0</ele><time>2026-03-28T15:49:15Z</time></trkpt><trkpt lat="43.56939191515211" lon="10.410951026534859"><ele>49.0</ele><time>2026-03-28T15:49:16Z</time></trkpt><trkpt lat="43.56934362967554" lon="10.411239380398882"><ele>50.0</ele><time>2026-03-28T15:49:17Z</time></trkpt><trkpt lat="43.569299627834724" lon="10.411514978143954"><ele>51.0</ele><time>2026-03-28T15:49:18Z</time></trkpt><trkpt lat="43.56925070506083" lon="10.411803072406864"><ele>52.0</ele><time>2026-03-28T15:49:19Z</time></trkpt><trkpt lat="43.56920221087506" lon="10.412082556828622"><ele>52.33333333333333</ele><time>2026-03-28T15:49:20Z</time></trkpt><trkpt lat="43.569150368769634" lon="10.412371338358538"><ele>52.66666666666667</ele><time>2026-03-28T15:49:21Z</time></trkpt><trkpt lat="43.56910086606559" lon="10.412656461105685"><ele>53.0</ele><time>2026-03-28T15:49:22Z</time></trkpt><trkpt lat="43.569052501386295" lon="10.41293882055867"><ele>55.333333333333336</ele><time>2026-03-28T15:49:23Z</time></trkpt><trkpt lat="43.56900469269834" lon="10.413223486692582"><ele>57.66666666666667</ele><time>2026-03-28T15:49:24Z</time></trkpt><trkpt lat="43.56895898015832" lon="10.413502339608371"><ele>60.0</ele><time>2026-03-28T15:49:25Z</time></trkpt><trkpt lat="43.56891691468946" lon="10.413768698573113"><ele>61.33333333333333</ele><time>2026-03-28T15:49:26Z</time></trkpt><trkpt lat="43.568874050819616" lon="10.414025631155994"><ele>62.666666666666664</ele><time>2026-03-28T15:49:27Z</time></trkpt><trkpt lat="43.568828793424835" lon="10.414283552053123"><ele>64.0</ele><time>2026-03-28T15:49:28Z</time></trkpt><trkpt lat="43.5687345046324" lon="10.414791827213145"><ele>64.66666666666666</ele><time>2026-03-28T15:49:30Z</time></trkpt><trkpt lat="43.568689579257324" lon="10.415076141253754"><ele>65.33333333333333</ele><time>2026-03-28T15:49:30.999Z</time></trkpt><trkpt lat="43.56865839738535" lon="10.41538314559109"><ele>66.0</ele><time>2026-03-28T15:49:31.999Z</time></trkpt><trkpt lat="43.568635635823526" lon="10.415670724799526"><ele>66.33333333333333</ele><time>2026-03-28T15:49:32.999Z</time></trkpt><trkpt lat="43.56861738602427" lon="10.41593842451419"><ele>66.66666666666666</ele><time>2026-03-28T15:49:33.999Z</time></trkpt><trkpt lat="43.568592273431506" lon="10.416211013977135"><ele>67.0</ele><time>2026-03-28T15:49:34.999Z</time></trkpt><trkpt lat="43.56856445459477" lon="10.416479783383693"><ele>66.0</ele><time>2026-03-28T15:49:35.999Z</time></trkpt><trkpt lat="43.568538950788955" lon="10.416739891183035"><ele>65.0</ele><time>2026-03-28T15:49:36.999Z</time></trkpt><trkpt lat="43.56851487149308" lon="10.416991923386522"><ele>64.0</ele><time>2026-03-28T15:49:37.999Z</time></trkpt><trkpt lat="43.56848692834618" lon="10.417233670888557"><ele>62.0</ele><time>2026-03-28T15:49:38.999Z</time></trkpt><trkpt lat="43.568461567313776" lon="10.417476647177326"><ele>60.0</ele><time>2026-03-28T15:49:39.999Z</time></trkpt><trkpt lat="43.56844209207287" lon="10.417713131592558"><ele>58.0</ele><time>2026-03-28T15:49:40.999Z</time></trkpt><trkpt lat="43.56843303055357" lon="10.41794184543867"><ele>56.0</ele><time>2026-03-28T15:49:41.999Z</time></trkpt><trkpt lat="43.56844093991608" lon="10.418182138755371"><ele>54.0</ele><time>2026-03-28T15:49:42.999Z</time></trkpt><trkpt lat="43.56847669050603" lon="10.418438096635198"><ele>52.0</ele><time>2026-03-28T15:49:43.999Z</time></trkpt><trkpt lat="43.56854336364476" lon="10.418703975984819"><ele>51.5</ele><time>2026-03-28T15:49:44.999Z</time></trkpt><trkpt lat="43.56863761941303" lon="10.418986972315464"><ele>51.0</ele><time>2026-03-28T15:49:45.999Z</time></trkpt><trkpt lat="43.56873646755297" lon="10.419273765828331"><ele>49.0</ele><time>2026-03-28T15:49:46.999Z</time></trkpt><trkpt lat="43.56882577628079" lon="10.419528456681844"><ele>47.0</ele><time>2026-03-28T15:49:47.999Z</time></trkpt><trkpt lat="43.568905611811296" lon="10.419762256483715"><ele>45.0</ele><time>2026-03-28T15:49:48.999Z</time></trkpt><trkpt lat="43.56897872047007" lon="10.419987778275326"><ele>43.333333333333336</ele><time>2026-03-28T15:49:49.999Z</time></trkpt><trkpt lat="43.56903814214572" lon="10.420210805512085"><ele>41.66666666666667</ele><time>2026-03-28T15:49:50.999Z</time></trkpt><trkpt lat="43.56908284235744" lon="10.420436659702796"><ele>40.0</ele><time>2026-03-28T15:49:51.999Z</time></trkpt><trkpt lat="43.56912316456658" lon="10.420675918734162"><ele>39.0</ele><time>2026-03-28T15:49:52.999Z</time></trkpt><trkpt lat="43.569159912818456" lon="10.420919489147646"><ele>38.0</ele><time>2026-03-28T15:49:53.999Z</time></trkpt><trkpt lat="43.56919905326718" lon="10.4211755707405"><ele>37.0</ele><time>2026-03-28T15:49:54.999Z</time></trkpt><trkpt lat="43.56924061388999" lon="10.42144164774019"><ele>35.0</ele><time>2026-03-28T15:49:55.999Z</time></trkpt><trkpt lat="43.56928030741291" lon="10.42171418698119"><ele>33.0</ele><time>2026-03-28T15:49:56.999Z</time></trkpt><trkpt lat="43.569321231001155" lon="10.421982319776573"><ele>31.0</ele><time>2026-03-28T15:49:57.999Z</time></trkpt><trkpt lat="43.569366788249546" lon="10.422249020298603"><ele>30.666666666666668</ele><time>2026-03-28T15:49:58.999Z</time></trkpt><trkpt lat="43.569408041264666" lon="10.422510543253853"><ele>30.333333333333336</ele><time>2026-03-28T15:49:59.999Z</time></trkpt><trkpt lat="43.56944906805745" lon="10.422759441024242"><ele>30.0</ele><time>2026-03-28T15:50:00.999Z</time></trkpt><trkpt lat="43.56948381511273" lon="10.422986186092146"><ele>29.666666666666664</ele><time>2026-03-28T15:50:01.999Z</time></trkpt><trkpt lat="43.569515962314505" lon="10.423206640435463"><ele>29.333333333333332</ele><time>2026-03-28T15:50:02.999Z</time></trkpt><trkpt lat="43.56954767882936" lon="10.423407712457532"><ele>29.0</ele><time>2026-03-28T15:50:03.999Z</time></trkpt><trkpt lat="43.569579768118885" lon="10.42361969485754"><ele>34.33333333333333</ele><time>2026-03-28T15:50:04.999Z</time></trkpt><trkpt lat="43.569606318650145" lon="10.423837738963675"><ele>39.666666666666664</ele><time>2026-03-28T15:50:05.999Z</time></trkpt><trkpt lat="43.56962625100535" lon="10.42407146835482"><ele>45.0</ele><time>2026-03-28T15:50:06.999Z</time></trkpt><trkpt lat="43.56963861847441" lon="10.424323588990843"><ele>45.0</ele><time>2026-03-28T15:50:07.999Z</time></trkpt><trkpt lat="43.569624134014006" lon="10.424598778115186"><ele>45.0</ele><time>2026-03-28T15:50:08.999Z</time></trkpt><trkpt lat="43.569621653742544" lon="10.42491431851578"><ele>45.0</ele><time>2026-03-28T15:50:09.999Z</time></trkpt><trkpt lat="43.56959081087714" lon="10.42526096227559"><ele>38.0</ele><time>2026-03-28T15:50:10.999Z</time></trkpt><trkpt lat="43.56953849983441" lon="10.425972847592053"><ele>34.33333333333333</ele><time>2026-03-28T15:50:12.999Z</time></trkpt><trkpt lat="43.56951547468291" lon="10.42628730290209"><ele>30.666666666666664</ele><time>2026-03-28T15:50:13.999Z</time></trkpt><trkpt lat="43.56949634738002" lon="10.426576720308274"><ele>27.0</ele><time>2026-03-28T15:50:14.999Z</time></trkpt><trkpt lat="43.56948418558544" lon="10.426856684426221"><ele>27.0</ele><time>2026-03-28T15:50:15.999Z</time></trkpt><trkpt lat="43.569493519977094" lon="10.427133719537656"><ele>27.0</ele><time>2026-03-28T15:50:16.999Z</time></trkpt><trkpt lat="43.56953179699305" lon="10.427402495883232"><ele>27.0</ele><time>2026-03-28T15:50:17.999Z</time></trkpt><trkpt lat="43.56960040034951" lon="10.427666803633628"><ele>27.666666666666664</ele><time>2026-03-28T15:50:18.999Z</time></trkpt><trkpt lat="43.569699506465476" lon="10.427917252154538"><ele>28.333333333333332</ele><time>2026-03-28T15:50:19.999Z</time></trkpt><trkpt lat="43.56981068098883" lon="10.428152183003556"><ele>29.0</ele><time>2026-03-28T15:50:20.999Z</time></trkpt><trkpt lat="43.569944806447225" lon="10.428359033162478"><ele>29.0</ele><time>2026-03-28T15:50:21.999Z</time></trkpt><trkpt lat="43.57009912567853" lon="10.428539173520836"><ele>29.0</ele><time>2026-03-28T15:50:22.999Z</time></trkpt><trkpt lat="43.57026142500143" lon="10.42869389069075"><ele>29.0</ele><time>2026-03-28T15:50:23.999Z</time></trkpt><trkpt lat="43.57042054509436" lon="10.428829994230487"><ele>28.333333333333332</ele><time>2026-03-28T15:50:24.999Z</time></trkpt><trkpt lat="43.57057213023077" lon="10.428951201075147"><ele>27.666666666666664</ele><time>2026-03-28T15:50:25.999Z</time></trkpt><trkpt lat="43.57072178123927" lon="10.42908408956544"><ele>27.0</ele><time>2026-03-28T15:50:26.999Z</time></trkpt><trkpt lat="43.57086676594608" lon="10.429221820718078"><ele>27.0</ele><time>2026-03-28T15:50:27.999Z</time></trkpt><trkpt lat="43.57100898360953" lon="10.429351439904359"><ele>27.0</ele><time>2026-03-28T15:50:28.999Z</time></trkpt><trkpt lat="43.57114255286127" lon="10.429476369532134"><ele>27.0</ele><time>2026-03-28T15:50:29.999Z</time></trkpt><trkpt lat="43.57126308883426" lon="10.4295953520957"><ele>26.25</ele><time>2026-03-28T15:50:30.999Z</time></trkpt><trkpt lat="43.57137868400849" lon="10.429705006652863"><ele>25.5</ele><time>2026-03-28T15:50:31.999Z</time></trkpt><trkpt lat="43.57149006274943" lon="10.429808002524048"><ele>24.75</ele><time>2026-03-28T15:50:32.999Z</time></trkpt><trkpt lat="43.57159217144105" lon="10.429903800937993"><ele>24.0</ele><time>2026-03-28T15:50:33.999Z</time></trkpt><trkpt lat="43.571675806275934" lon="10.429987586954942"><ele>24.0</ele><time>2026-03-28T15:50:34.999Z</time></trkpt><trkpt lat="43.57175011836468" lon="10.430058950962103"><ele>24.0</ele><time>2026-03-28T15:50:35.999Z</time></trkpt><trkpt lat="43.57182508583493" lon="10.430124928389864"><ele>24.0</ele><time>2026-03-28T15:50:36.999Z</time></trkpt><trkpt lat="43.57189330804381" lon="10.43018754029247"><ele>24.0</ele><time>2026-03-28T15:50:37.999Z</time></trkpt><trkpt lat="43.571976544090255" lon="10.430270768577985"><ele>24.0</ele><time>2026-03-28T15:50:39.999Z</time></trkpt><trkpt lat="43.5720248639001" lon="10.430363859137078"><ele>24.0</ele><time>2026-03-28T15:50:42.999Z</time></trkpt><trkpt lat="43.57208564270855" lon="10.430325553361527"><ele>24.0</ele><time>2026-03-28T15:50:59Z</time></trkpt><trkpt lat="43.5720259385694" lon="10.430288909425387"><ele>24.0</ele><time>2026-03-28T15:51:01Z</time></trkpt><trkpt lat="43.57197075727061" lon="10.430238606176669"><ele>24.0</ele><time>2026-03-28T15:51:02Z</time></trkpt><trkpt lat="43.57183515706821" lon="10.430044598971543"><ele>24.0</ele><time>2026-03-28T15:51:03Z</time></trkpt><trkpt lat="43.57172852867791" lon="10.429956155561397"><ele>24.0</ele><time>2026-03-28T15:51:04Z</time></trkpt><trkpt lat="43.571604236257414" lon="10.429845065769618"><ele>24.0</ele><time>2026-03-28T15:51:05Z</time></trkpt><trkpt lat="43.5715056838785" lon="10.42975238622986"><ele>24.0</ele><time>2026-03-28T15:51:06Z</time></trkpt><trkpt lat="43.57143456421377" lon="10.429678824856248"><ele>24.0</ele><time>2026-03-28T15:51:07Z</time></trkpt><trkpt lat="43.571378548073454" lon="10.429577759449774"><ele>24.0</ele><time>2026-03-28T15:51:09Z</time></trkpt><trkpt lat="43.5714173171582" lon="10.429473733704633"><ele>24.833333333333332</ele><time>2026-03-28T15:51:11Z</time></trkpt><trkpt lat="43.571457521383564" lon="10.429359154754719"><ele>25.666666666666664</ele><time>2026-03-28T15:51:12Z</time></trkpt><trkpt lat="43.571487153897955" lon="10.42922726284414"><ele>26.5</ele><time>2026-03-28T15:51:13Z</time></trkpt><trkpt lat="43.571521967926536" lon="10.42913141636467"><ele>27.333333333333332</ele><time>2026-03-28T15:51:14Z</time></trkpt><trkpt lat="43.57154422978148" lon="10.429046437143574"><ele>28.166666666666664</ele><time>2026-03-28T15:51:15Z</time></trkpt><trkpt lat="43.571577896670625" lon="10.42895910080886"><ele>29.0</ele><time>2026-03-28T15:51:16Z</time></trkpt><trkpt lat="43.57160118326034" lon="10.428858216417941"><ele>30.000000000000004</ele><time>2026-03-28T15:51:17Z</time></trkpt><trkpt lat="43.571620657698155" lon="10.428759988439698"><ele>31.0</ele><time>2026-03-28T15:51:18Z</time></trkpt><trkpt lat="43.5716359678649" lon="10.428663715774768"><ele>32.0</ele><time>2026-03-28T15:51:19Z</time></trkpt><trkpt lat="43.5716504577646" lon="10.428571005832142"><ele>33.0</ele><time>2026-03-28T15:51:20Z</time></trkpt><trkpt lat="43.57166432395303" lon="10.428482286468164"><ele>34.0</ele><time>2026-03-28T15:51:21Z</time></trkpt><trkpt lat="43.57167787781222" lon="10.428392726927386"><ele>35.00000000000001</ele><time>2026-03-28T15:51:22Z</time></trkpt><trkpt lat="43.57169181101569" lon="10.428286683892429"><ele>36.0</ele><time>2026-03-28T15:51:23Z</time></trkpt><trkpt lat="43.57170603762977" lon="10.428193411357494"><ele>36.0</ele><time>2026-03-28T15:51:24Z</time></trkpt><trkpt lat="43.57172921572312" lon="10.428087772001613"><ele>36.0</ele><time>2026-03-28T15:51:25Z</time></trkpt><trkpt lat="43.57175337601161" lon="10.427980558441623"><ele>36.0</ele><time>2026-03-28T15:51:26Z</time></trkpt><trkpt lat="43.57177891596383" lon="10.427860085508526"><ele>36.0</ele><time>2026-03-28T15:51:27Z</time></trkpt><trkpt lat="43.571785764753365" lon="10.4277140185449"><ele>36.0</ele><time>2026-03-28T15:51:28Z</time></trkpt><trkpt lat="43.57181197845103" lon="10.427544649170292"><ele>36.5</ele><time>2026-03-28T15:51:29Z</time></trkpt><trkpt lat="43.571835409162944" lon="10.427375928292276"><ele>37.0</ele><time>2026-03-28T15:51:30Z</time></trkpt><trkpt lat="43.57184680515654" lon="10.427210495179503"><ele>37.5</ele><time>2026-03-28T15:51:31Z</time></trkpt><trkpt lat="43.571864945649615" lon="10.427046928957536"><ele>38.0</ele><time>2026-03-28T15:51:32Z</time></trkpt><trkpt lat="43.57187698718899" lon="10.426887921986221"><ele>40.0</ele><time>2026-03-28T15:51:33Z</time></trkpt><trkpt lat="43.57188906665143" lon="10.426742550381224"><ele>42.0</ele><time>2026-03-28T15:51:34Z</time></trkpt><trkpt lat="43.57191528594634" lon="10.426606648292038"><ele>44.0</ele><time>2026-03-28T15:51:35Z</time></trkpt><trkpt lat="43.57192519956206" lon="10.426480936398727"><ele>46.0</ele><time>2026-03-28T15:51:36Z</time></trkpt><trkpt lat="43.57192325263448" lon="10.426380451449893"><ele>48.0</ele><time>2026-03-28T15:51:37Z</time></trkpt><trkpt lat="43.57194655346874" lon="10.426230252405317"><ele>49.333333333333336</ele><time>2026-03-28T15:51:38.999Z</time></trkpt><trkpt lat="43.57195371011658" lon="10.426101107095285"><ele>50.66666666666667</ele><time>2026-03-28T15:51:40.999Z</time></trkpt><trkpt lat="43.57193590838315" lon="10.425947892928107"><ele>52.0</ele><time>2026-03-28T15:51:42.999Z</time></trkpt><trkpt lat="43.57190252889065" lon="10.425869328262586"><ele>53.333333333333336</ele><time>2026-03-28T15:51:43.999Z</time></trkpt><trkpt lat="43.571879759426096" lon="10.425741341047253"><ele>54.66666666666667</ele><time>2026-03-28T15:51:45.999Z</time></trkpt><trkpt lat="43.571844257350044" lon="10.425665882048838"><ele>56.0</ele><time>2026-03-28T15:51:49.999Z</time></trkpt><trkpt lat="43.57184564445917" lon="10.425568017424107"><ele>56.0</ele><time>2026-03-28T15:51:56.999Z</time></trkpt><trkpt lat="43.572013488729056" lon="10.425387422128066"><ele>56.0</ele><time>2026-03-28T15:52:00.999Z</time></trkpt><trkpt lat="43.57209258316497" lon="10.425320571150866"><ele>56.0</ele><time>2026-03-28T15:52:02.999Z</time></trkpt><trkpt lat="43.57217835444486" lon="10.42524280388377"><ele>56.0</ele><time>2026-03-28T15:52:07.999Z</time></trkpt><trkpt lat="43.57226525265132" lon="10.425147375495397"><ele>55.0</ele><time>2026-03-28T15:52:09.999Z</time></trkpt><trkpt lat="43.572351278196344" lon="10.425041113690824"><ele>53.99999999999999</ele><time>2026-03-28T15:52:11.999Z</time></trkpt><trkpt lat="43.572426755744075" lon="10.424945296021491"><ele>53.0</ele><time>2026-03-28T15:52:13.999Z</time></trkpt><trkpt lat="43.572504536606104" lon="10.424840388574474"><ele>52.0</ele><time>2026-03-28T15:52:15.999Z</time></trkpt><trkpt lat="43.5725776726408" lon="10.424749142702026"><ele>51.0</ele><time>2026-03-28T15:52:17.999Z</time></trkpt><trkpt lat="43.57265138681746" lon="10.424652567079578"><ele>52.0</ele><time>2026-03-28T15:52:19.999Z</time></trkpt><trkpt lat="43.572724895583626" lon="10.424563296785475"><ele>53.0</ele><time>2026-03-28T15:52:21.999Z</time></trkpt><trkpt lat="43.572781852449005" lon="10.42452378904898"><ele>54.0</ele><time>2026-03-28T15:52:23.999Z</time></trkpt><trkpt lat="43.57284969795852" lon="10.42448759728844"><ele>55.0</ele><time>2026-03-28T15:52:26.999Z</time></trkpt><trkpt lat="43.57293916125357" lon="10.424462506048638"><ele>56.0</ele><time>2026-03-28T15:52:28.999Z</time></trkpt><trkpt lat="43.57303444456723" lon="10.424479986259522"><ele>57.0</ele><time>2026-03-28T15:52:30.999Z</time></trkpt><trkpt lat="43.573122163491824" lon="10.424518743198762"><ele>57.0</ele><time>2026-03-28T15:52:32.999Z</time></trkpt><trkpt lat="43.57319680163401" lon="10.424608562714338"><ele>57.0</ele><time>2026-03-28T15:52:34.999Z</time></trkpt><trkpt lat="43.57325727348915" lon="10.42475527958173"><ele>57.0</ele><time>2026-03-28T15:52:36.999Z</time></trkpt><trkpt lat="43.573309380885235" lon="10.424864211075525"><ele>57.0</ele><time>2026-03-28T15:52:38.999Z</time></trkpt><trkpt lat="43.57338492315018" lon="10.424906771124304"><ele>57.0</ele><time>2026-03-28T15:52:41.999Z</time></trkpt><trkpt lat="43.57345935602893" lon="10.42489568303212"><ele>56.333333333333336</ele><time>2026-03-28T15:52:44.999Z</time></trkpt><trkpt lat="43.57353498585221" lon="10.424840765175473"><ele>55.66666666666667</ele><time>2026-03-28T15:52:47.999Z</time></trkpt><trkpt lat="43.57358649935389" lon="10.424782457363097"><ele>55.0</ele><time>2026-03-28T15:52:49.999Z</time></trkpt><trkpt lat="43.573644923180105" lon="10.42470441267399"><ele>54.333333333333336</ele><time>2026-03-28T15:52:51.999Z</time></trkpt><trkpt lat="43.5737082564195" lon="10.424609745553704"><ele>53.66666666666667</ele><time>2026-03-28T15:52:53.999Z</time></trkpt><trkpt lat="43.57378557908406" lon="10.424494164299439"><ele>53.0</ele><time>2026-03-28T15:52:55.999Z</time></trkpt><trkpt lat="43.57387556080329" lon="10.42436996771639"><ele>53.00000000000001</ele><time>2026-03-28T15:52:57.999Z</time></trkpt><trkpt lat="43.57391913135122" lon="10.424306792357395"><ele>53.0</ele><time>2026-03-28T15:52:58.999Z</time></trkpt><trkpt lat="43.573999318057304" lon="10.42419639034095"><ele>53.0</ele><time>2026-03-28T15:53:00.999Z</time></trkpt><trkpt lat="43.57406120765952" lon="10.424125865027271"><ele>53.0</ele><time>2026-03-28T15:53:03Z</time></trkpt><trkpt lat="43.57414680713159" lon="10.42407555555959"><ele>53.00000000000001</ele><time>2026-03-28T15:53:06Z</time></trkpt><trkpt lat="43.574219518089386" lon="10.424073332210595"><ele>53.0</ele><time>2026-03-28T15:53:16Z</time></trkpt><trkpt lat="43.57414850844957" lon="10.424091622246456"><ele>53.0</ele><time>2026-03-28T15:53:39Z</time></trkpt><trkpt lat="43.5740653766893" lon="10.424130575842714"><ele>53.0</ele><time>2026-03-28T15:53:41Z</time></trkpt><trkpt lat="43.57395264388333" lon="10.424264201107967"><ele>53.0</ele><time>2026-03-28T15:53:42.999Z</time></trkpt><trkpt lat="43.57389346081528" lon="10.424344241135714"><ele>53.0</ele><time>2026-03-28T15:53:43.999Z</time></trkpt><trkpt lat="43.573848691334696" lon="10.42441128188647"><ele>53.0</ele><time>2026-03-28T15:53:44.999Z</time></trkpt><trkpt lat="43.57380155496267" lon="10.42448232482422"><ele>53.00000000000001</ele><time>2026-03-28T15:53:45.999Z</time></trkpt><trkpt lat="43.57375627226576" lon="10.424545724802156"><ele>53.0</ele><time>2026-03-28T15:53:46.999Z</time></trkpt><trkpt lat="43.57371099239515" lon="10.42461047376848"><ele>53.0</ele><time>2026-03-28T15:53:47.999Z</time></trkpt><trkpt lat="43.573627269817536" lon="10.424738701977912"><ele>53.0</ele><time>2026-03-28T15:53:49.999Z</time></trkpt><trkpt lat="43.57358152913048" lon="10.42480138321228"><ele>53.00000000000001</ele><time>2026-03-28T15:53:50.999Z</time></trkpt><trkpt lat="43.57349766701165" lon="10.424884602163479"><ele>53.0</ele><time>2026-03-28T15:53:52.999Z</time></trkpt><trkpt lat="43.573402387337" lon="10.424898938281434"><ele>52.599999999999994</ele><time>2026-03-28T15:53:54.999Z</time></trkpt><trkpt lat="43.57331250179729" lon="10.424819032905402"><ele>52.199999999999996</ele><time>2026-03-28T15:53:56.999Z</time></trkpt><trkpt lat="43.573254485236305" lon="10.424675557901589"><ele>51.8</ele><time>2026-03-28T15:53:58.999Z</time></trkpt><trkpt lat="43.57321980088391" lon="10.424586289689794"><ele>51.4</ele><time>2026-03-28T15:53:59.999Z</time></trkpt><trkpt lat="43.57314355034518" lon="10.424499441072356"><ele>51.0</ele><time>2026-03-28T15:54:01.999Z</time></trkpt><trkpt lat="43.573014512766264" lon="10.42446248380449"><ele>51.0</ele><time>2026-03-28T15:54:03.999Z</time></trkpt><trkpt lat="43.57293396827566" lon="10.424463398524162"><ele>51.0</ele><time>2026-03-28T15:54:04.999Z</time></trkpt><trkpt lat="43.57286935986017" lon="10.424473007395488"><ele>51.0</ele><time>2026-03-28T15:54:05.999Z</time></trkpt><trkpt lat="43.57280907368553" lon="10.42450428868723"><ele>51.0</ele><time>2026-03-28T15:54:06.999Z</time></trkpt><trkpt lat="43.572705122371694" lon="10.42459963051238"><ele>51.0</ele><time>2026-03-28T15:54:08.999Z</time></trkpt><trkpt lat="43.572598214242916" lon="10.424715214812997"><ele>51.0</ele><time>2026-03-28T15:54:10.999Z</time></trkpt><trkpt lat="43.57254553941144" lon="10.424782811482684"><ele>51.0</ele><time>2026-03-28T15:54:11.999Z</time></trkpt><trkpt lat="43.57248638553437" lon="10.424854402712144"><ele>51.0</ele><time>2026-03-28T15:54:12.999Z</time></trkpt><trkpt lat="43.57242962567943" lon="10.424927555814959"><ele>51.0</ele><time>2026-03-28T15:54:13.999Z</time></trkpt><trkpt lat="43.57237022899638" lon="10.4250011257788"><ele>51.0</ele><time>2026-03-28T15:54:14.999Z</time></trkpt><trkpt lat="43.57230996115787" lon="10.425078640526232"><ele>51.0</ele><time>2026-03-28T15:54:15.999Z</time></trkpt><trkpt lat="43.57225623813734" lon="10.425138048099187"><ele>51.0</ele><time>2026-03-28T15:54:16.999Z</time></trkpt><trkpt lat="43.57217404011945" lon="10.425229309792828"><ele>51.0</ele><time>2026-03-28T15:54:18.999Z</time></trkpt><trkpt lat="43.57208813337888" lon="10.425323677502021"><ele>51.0</ele><time>2026-03-28T15:54:20.999Z</time></trkpt><trkpt lat="43.571974371904545" lon="10.425424525242203"><ele>51.0</ele><time>2026-03-28T15:54:22.999Z</time></trkpt><trkpt lat="43.57189841570744" lon="10.425538511128718"><ele>52.0</ele><time>2026-03-28T15:54:24.999Z</time></trkpt><trkpt lat="43.57184524417038" lon="10.425634711519734"><ele>53.0</ele><time>2026-03-28T15:54:26.999Z</time></trkpt><trkpt lat="43.57187020484851" lon="10.425748975648446"><ele>53.99999999999999</ele><time>2026-03-28T15:54:29.999Z</time></trkpt><trkpt lat="43.57192309282614" lon="10.425920160208841"><ele>55.0</ele><time>2026-03-28T15:54:31.999Z</time></trkpt><trkpt lat="43.571937919674895" lon="10.426006381750396"><ele>56.0</ele><time>2026-03-28T15:54:32.999Z</time></trkpt><trkpt lat="43.571935482581175" lon="10.42615277072274"><ele>54.66666666666667</ele><time>2026-03-28T15:54:34.999Z</time></trkpt><trkpt lat="43.57190394177194" lon="10.426335261791333"><ele>53.333333333333336</ele><time>2026-03-28T15:54:36.999Z</time></trkpt><trkpt lat="43.571896215372696" lon="10.426424662509545"><ele>52.0</ele><time>2026-03-28T15:54:37.999Z</time></trkpt><trkpt lat="43.571888452325524" lon="10.426522149049648"><ele>50.66666666666667</ele><time>2026-03-28T15:54:38.999Z</time></trkpt><trkpt lat="43.57188023063122" lon="10.426626405713224"><ele>49.333333333333336</ele><time>2026-03-28T15:54:39.999Z</time></trkpt><trkpt lat="43.57187059436577" lon="10.426737467356162"><ele>48.0</ele><time>2026-03-28T15:54:40.999Z</time></trkpt><trkpt lat="43.57186090834794" lon="10.426847082790704"><ele>48.0</ele><time>2026-03-28T15:54:41.999Z</time></trkpt><trkpt lat="43.571851084848305" lon="10.426955554871833"><ele>48.0</ele><time>2026-03-28T15:54:42.999Z</time></trkpt><trkpt lat="43.57184089887662" lon="10.427062730292894"><ele>48.0</ele><time>2026-03-28T15:54:43.999Z</time></trkpt><trkpt lat="43.57183040066499" lon="10.427173191321984"><ele>48.0</ele><time>2026-03-28T15:54:44.999Z</time></trkpt><trkpt lat="43.57182064023307" lon="10.42727567079137"><ele>48.0</ele><time>2026-03-28T15:54:45.999Z</time></trkpt><trkpt lat="43.57181084369984" lon="10.427377592262618"><ele>48.0</ele><time>2026-03-28T15:54:46.999Z</time></trkpt><trkpt lat="43.57180060989572" lon="10.427474557258321"><ele>46.0</ele><time>2026-03-28T15:54:47.999Z</time></trkpt><trkpt lat="43.57178876460467" lon="10.42757000685876"><ele>44.0</ele><time>2026-03-28T15:54:48.999Z</time></trkpt><trkpt lat="43.57177202208073" lon="10.427687840999285"><ele>42.0</ele><time>2026-03-28T15:54:49.999Z</time></trkpt><trkpt lat="43.57174940063821" lon="10.427834523869542"><ele>40.0</ele><time>2026-03-28T15:54:50.999Z</time></trkpt><trkpt lat="43.57172260054298" lon="10.427962558398034"><ele>38.0</ele><time>2026-03-28T15:54:51.999Z</time></trkpt><trkpt lat="43.57169430001778" lon="10.4280888876664"><ele>37.6</ele><time>2026-03-28T15:54:52.999Z</time></trkpt><trkpt lat="43.57168137451209" lon="10.428240735705545"><ele>37.199999999999996</ele><time>2026-03-28T15:54:53.999Z</time></trkpt><trkpt lat="43.57165162521499" lon="10.42837708651207"><ele>36.8</ele><time>2026-03-28T15:54:54.999Z</time></trkpt><trkpt lat="43.57163968614486" lon="10.428498937217094"><ele>36.4</ele><time>2026-03-28T15:54:55.999Z</time></trkpt><trkpt lat="43.57162433374395" lon="10.428611075800045"><ele>36.0</ele><time>2026-03-28T15:54:56.999Z</time></trkpt><trkpt lat="43.57160866010406" lon="10.428706789425753"><ele>36.00000000000001</ele><time>2026-03-28T15:54:57.999Z</time></trkpt><trkpt lat="43.57159102573091" lon="10.428803540028337"><ele>36.0</ele><time>2026-03-28T15:54:58.999Z</time></trkpt><trkpt lat="43.57157393996996" lon="10.428900562289279"><ele>36.0</ele><time>2026-03-28T15:54:59.999Z</time></trkpt><trkpt lat="43.571553221900515" lon="10.42899286262088"><ele>36.0</ele><time>2026-03-28T15:55:00.999Z</time></trkpt><trkpt lat="43.57152529983556" lon="10.429073611460183"><ele>36.0</ele><time>2026-03-28T15:55:01.999Z</time></trkpt><trkpt lat="43.57149815350492" lon="10.429160107451576"><ele>36.00000000000001</ele><time>2026-03-28T15:55:02.999Z</time></trkpt><trkpt lat="43.57147291302848" lon="10.429249682058392"><ele>36.0</ele><time>2026-03-28T15:55:03.999Z</time></trkpt><trkpt lat="43.57144714662679" lon="10.429333126264245"><ele>29.0</ele><time>2026-03-28T15:55:04.999Z</time></trkpt><trkpt lat="43.57140098425482" lon="10.429463852505535"><ele>29.0</ele><time>2026-03-28T15:55:06.999Z</time></trkpt><trkpt lat="43.571362684461135" lon="10.429555816852387"><ele>29.0</ele><time>2026-03-28T15:55:10Z</time></trkpt></trkseg></trk></gpx>